LS1216 / G-GDFU 7700 Squawk Report (10th of November, 2019)

Aircraft B738 Reg No. G-GDFU Age 18 years old
Model 737 Jet engines 2 First flight 07-02-01
Registered 17-10-14 Rollout 29-01-01 Delivered 24-02-01
Construction No. 30416 Line No. 0778 Series 8K5
ADSHEX 406CAA Airline name Jet2 Owner TUI AG
Airfield based Leeds-Bradford~Yorks~G First tracked 2017-07-13 10:40:00

Flight history for G-GDFU

Route Flight No Date Playback
Alicante (ALC) - Newcastle (NCL) LS584 2019-12-09 18:27:00
Leeds Bradford (LBA) - Alicante (ALC) LS271 2019-12-09 13:19:00
Copenhagen Airport (CPH) - Leeds Bradford (LBA) LS4042 2019-12-08 20:13:00
Leeds Bradford (LBA) - Copenhagen Airport (CPH) LS4041 2019-12-06 09:31:00
Alicante (ALC) - Leeds Bradford (LBA) LS272 2019-11-29 17:28:00
Leeds Bradford (LBA) - Alicante (ALC) LS271 2019-11-29 13:19:00
Charles De Gaulle (CDG) - Leeds Bradford (LBA) LS316 2019-11-24 21:31:00
Leeds Bradford (LBA) - Charles De Gaulle (CDG) LS315 2019-11-24 20:21:00
Malaga (AGP) - Leeds Bradford (LBA) LS186 2019-11-24 17:50:00
Leeds Bradford (LBA) - Malaga (AGP) LS185 2019-11-24 13:28:00
Malaga (AGP) - Leeds Bradford (LBA) LS186 2019-11-23 14:05:00
Birmingham (BHX) - Malaga (AGP) LS1203 2019-11-23 11:22:00
Schwechat (VIE) - Birmingham (BHX) LS1308 2019-11-22 13:39:00
Birmingham (BHX) - Schwechat (VIE) LS1307 2019-11-22 09:58:00
Antalya (AYT) - Birmingham (BHX) LS1240 2019-11-21 19:27:00
Birmingham (BHX) - Antalya (AYT) LS1239 2019-11-21 13:25:00
Fiumicino (FCO) - Birmingham (BHX) LS1228 2019-11-18 15:24:00
Birmingham (BHX) - Fiumicino (FCO) LS1227 2019-11-18 12:44:00
Pafos Intl (PFO) - Birmingham (BHX) LS1272 2019-11-17 18:26:00
Birmingham (BHX) - Pafos Intl (PFO) LS1271 2019-11-17 14:23:00
Time Lat Lon Altitude Heading Speed Vertical Rate
2019-11-10 15:50:17 GMT 52.454155 -1.743746 0 118 22 0
2019-11-10 15:50:00 GMT 52.454887 -1.745845 0 140 18 0
2019-11-10 15:49:48 GMT 52.455666 -1.746748 0 146 18 0
2019-11-10 15:49:44 GMT 52.455933 -1.747022 0 146 17 0
2019-11-10 15:46:45 GMT 52.449326 -1.743011 350 326 146 -704
2019-11-10 15:46:40 GMT 52.446308 -1.739607 350 326 146 -704
2019-11-10 15:46:35 GMT 52.443741 -1.736755 400 326 146 -640
2019-11-10 15:46:31 GMT 52.441498 -1.734238 450 326 146 -768
2019-11-10 15:46:23 GMT 52.436737 -1.728973 550 326 148 -768
2019-11-10 15:46:16 GMT 52.433228 -1.725089 625 326 148 -768
2019-11-10 15:46:13 GMT 52.426346 -1.717377 925 326 148 -960
2019-11-10 15:46:05 GMT 52.426346 -1.717377 800 326 148 -896
2019-11-10 15:45:56 GMT 52.421684 -1.712298 875 327 147 -1024
2019-11-10 15:45:49 GMT 52.417587 -1.707746 1,050 326 151 -960
2019-11-10 15:45:46 GMT 52.416004 -1.705941 1,050 326 151 -896
2019-11-10 15:45:38 GMT 52.411350 -1.700841 1,200 327 152 -960
2019-11-10 15:45:35 GMT 52.409672 -1.699036 1,250 327 152 -896
2019-11-10 15:45:29 GMT 52.404190 -1.692963 1,375 327 152 -384
2019-11-10 15:45:18 GMT 52.399803 -1.688128 1,450 326 158 -768
2019-11-10 15:45:15 GMT 52.397964 -1.686096 1,450 326 159 -832
2019-11-10 15:45:10 GMT 52.394531 -1.682281 1,550 326 164 -896
2019-11-10 15:45:04 GMT 52.390549 -1.677856 1,650 326 166 -768
2019-11-10 15:45:01 GMT 52.388489 -1.675568 1,700 326 168 -640
2019-11-10 15:44:58 GMT 52.386475 -1.673203 1,725 326 169 -768
2019-11-10 15:44:55 GMT 52.384769 -1.671334 1,750 326 170 -832
2019-11-10 15:44:48 GMT 52.380577 -1.666704 1,850 327 174 -960
2019-11-10 15:44:45 GMT 52.378326 -1.664200 1,900 326 175 -960
2019-11-10 15:44:40 GMT 52.375351 -1.660919 2,025 326 176 -960
2019-11-10 15:44:37 GMT 52.373035 -1.658386 2,025 326 177 -960
2019-11-10 15:44:34 GMT 52.371407 -1.656581 2,175 326 179 -960
2019-11-10 15:44:30 GMT 52.368149 -1.652893 2,525 326 185 -1088
2019-11-10 15:44:27 GMT 52.364285 -1.648577 2,300 326 185 -1088
2019-11-10 15:44:20 GMT 52.361164 -1.645124 2,525 327 188 -1216
2019-11-10 15:44:17 GMT 52.359165 -1.642848 2,375 327 188 -1216
2019-11-10 15:44:12 GMT 52.355804 -1.639252 2,600 323 201 -896
2019-11-10 15:44:09 GMT 52.351913 -1.635132 2,575 327 193 -1024
2019-11-10 15:44:06 GMT 52.351158 -1.634295 2,600 327 193 -1024
2019-11-10 15:44:03 GMT 52.348782 -1.631784 2,650 327 194 -832
2019-11-10 15:44:00 GMT 52.346966 -1.629822 2,675 327 197 -768
2019-11-10 15:43:57 GMT 52.344040 -1.626740 2,750 327 198 -832
2019-11-10 15:43:53 GMT 52.337814 -1.620178 2,850 328 200 -1024
2019-11-10 15:43:50 GMT 52.337814 -1.620178 3,050 7 204 -1152
2019-11-10 15:43:46 GMT 52.335468 -1.617737 2,925 328 200 -1088
2019-11-10 15:43:43 GMT 52.333145 -1.615219 3,100 6 205 -1152
2019-11-10 15:43:39 GMT 52.328064 -1.609192 3,075 323 200 -896
2019-11-10 15:43:36 GMT 52.328064 -1.609192 3,100 323 201 -1024
2019-11-10 15:43:33 GMT 52.325729 -1.606216 3,125 325 202 -1088
2019-11-10 15:43:29 GMT 52.322155 -1.602277 3,200 329 202 -1088
2019-11-10 15:43:26 GMT 52.320328 -1.600723 3,275 334 203 -1088
2019-11-10 15:43:22 GMT 52.317360 -1.598825 3,325 347 203 -1088
2019-11-10 15:43:19 GMT 52.310852 -1.597519 3,425 358 204 -1024
2019-11-10 15:43:16 GMT 52.310852 -1.597519 3,475 5 204 -1088
2019-11-10 15:43:12 GMT 52.307831 -1.597824 3,525 6 205 -1152
2019-11-10 15:43:09 GMT 52.301788 -1.599121 3,600 8 205 -1152
2019-11-10 15:43:06 GMT 52.298767 -1.599808 3,700 8 206 -1152
2019-11-10 15:43:03 GMT 52.298767 -1.599808 3,750 8 206 -1152
2019-11-10 15:43:00 GMT 52.295944 -1.600473 3,800 7 205 -1152
2019-11-10 15:42:57 GMT 52.292770 -1.601181 3,925 7 204 -1152
2019-11-10 15:42:51 GMT 52.286541 -1.602434 3,950 6 204 -1152
2019-11-10 15:42:48 GMT 52.284851 -1.602783 4,000 5 204 -1088
2019-11-10 15:42:45 GMT 52.282608 -1.603165 4,050 5 203 -1024
2019-11-10 15:42:42 GMT 52.279419 -1.603690 4,100 6 203 -960
2019-11-10 15:42:38 GMT 52.272018 -1.606044 4,175 12 204 -768
2019-11-10 15:42:35 GMT 52.272018 -1.606044 4,275 26 206 -1408
2019-11-10 15:42:32 GMT 52.270248 -1.607064 4,250 24 206 -1344
2019-11-10 15:42:28 GMT 52.266724 -1.610107 4,600 45 207 -1408
2019-11-10 15:42:25 GMT 52.264526 -1.612701 4,425 42 207 -1472
2019-11-10 15:42:22 GMT 52.262375 -1.616211 4,500 57 207 -1216
2019-11-10 15:42:18 GMT 52.260193 -1.620954 4,625 63 208 -1280
2019-11-10 15:42:15 GMT 52.258610 -1.625977 4,650 66 209 -1280
2019-11-10 15:42:12 GMT 52.257679 -1.629429 4,800 150 234 -320
2019-11-10 15:42:08 GMT 52.256332 -1.636353 4,800 76 210 -1280
2019-11-10 15:42:02 GMT 52.255028 -1.650460 4,975 91 212 -1280
2019-11-10 15:41:59 GMT 52.255028 -1.650460 5,300 144 215 -1024
2019-11-10 15:41:55 GMT 52.255417 -1.657104 5,100 98 213 -1408
2019-11-10 15:41:51 GMT 52.256145 -1.661839 5,175 107 212 -1600
2019-11-10 15:41:48 GMT 52.257587 -1.667803 5,275 118 213 -1664
2019-11-10 15:41:45 GMT 52.259403 -1.672747 5,375 123 213 -1664
2019-11-10 15:41:42 GMT 52.261078 -1.676357 5,475 131 213 -1472
2019-11-10 15:41:37 GMT 52.266541 -1.684265 5,600 147 216 -1024
2019-11-10 15:41:34 GMT 52.266541 -1.684265 5,675 147 216 -1024
2019-11-10 15:41:31 GMT 52.268921 -1.686783 5,675 148 217 -1024
2019-11-10 15:41:27 GMT 52.275276 -1.693150 5,775 148 219 -1088
2019-11-10 15:41:21 GMT 52.281006 -1.698837 5,925 148 222 -768
2019-11-10 15:41:15 GMT 52.285583 -1.703262 6,075 149 224 -704
2019-11-10 15:41:12 GMT 52.285583 -1.703262 6,000 149 224 -704
2019-11-10 15:41:09 GMT 52.290573 -1.708145 6,050 149 225 -896
2019-11-10 15:41:06 GMT 52.290573 -1.708145 6,075 149 226 -1024
2019-11-10 15:41:03 GMT 52.293991 -1.711513 6,150 148 227 -896
2019-11-10 15:41:00 GMT 52.295433 -1.712926 6,175 148 229 -704
2019-11-10 15:40:57 GMT 52.299763 -1.717242 6,225 148 230 -576
2019-11-10 15:40:54 GMT 52.301056 -1.718445 6,250 150 234 -320
2019-11-10 15:40:51 GMT 52.304932 -1.722185 6,250 151 235 -320
2019-11-10 15:40:48 GMT 52.307259 -1.724226 6,275 154 235 -384
2019-11-10 15:40:45 GMT 52.310669 -1.726685 6,275 157 237 -448
2019-11-10 15:40:42 GMT 52.313141 -1.728058 6,325 161 238 -640
2019-11-10 15:40:39 GMT 52.316849 -1.729327 6,375 170 239 -1216
2019-11-10 15:40:36 GMT 52.323040 -1.729797 6,475 183 240 -1280
2019-11-10 15:40:30 GMT 52.325912 -1.729279 6,625 187 239 -1344
2019-11-10 15:40:27 GMT 52.331451 -1.727066 6,700 204 237 -1856
2019-11-10 15:40:24 GMT 52.332909 -1.726188 6,775 206 236 -1856
2019-11-10 15:40:20 GMT 52.337193 -1.722656 6,850 210 236 -1792
2019-11-10 15:40:17 GMT 52.339554 -1.720123 7,000 220 235 -640
2019-11-10 15:40:14 GMT 52.342125 -1.716771 6,975 223 236 -384
2019-11-10 15:40:11 GMT 52.345154 -1.711670 7,000 231 236 0
2019-11-10 15:40:08 GMT 52.348343 -1.704483 7,000 237 236 64
2019-11-10 15:40:05 GMT 52.349533 -1.700668 7,000 245 235 0
2019-11-10 15:39:59 GMT 52.351994 -1.687500 7,000 256 234 0
2019-11-10 15:39:56 GMT 52.351994 -1.687500 7,000 258 234 0
2019-11-10 15:39:53 GMT 52.352234 -1.684341 7,000 267 235 -64
2019-11-10 15:39:50 GMT 52.352322 -1.679025 7,000 277 236 64
2019-11-10 15:39:47 GMT 52.351994 -1.672668 7,000 280 237 64
2019-11-10 15:39:44 GMT 52.350597 -1.662859 7,000 288 239 0
2019-11-10 15:39:41 GMT 52.349667 -1.658072 7,000 288 239 0
2019-11-10 15:39:38 GMT 52.348663 -1.652908 7,000 288 239 0
2019-11-10 15:39:35 GMT 52.347473 -1.646652 7,000 288 239 0
2019-11-10 15:39:32 GMT 52.346695 -1.642532 7,000 288 239 64
2019-11-10 15:39:29 GMT 52.346695 -1.642532 7,000 288 239 0
2019-11-10 15:39:26 GMT 52.345665 -1.637355 7,000 288 239 0
2019-11-10 15:39:23 GMT 52.344818 -1.632919 7,000 288 238 0
2019-11-10 15:39:20 GMT 52.343582 -1.626740 7,000 288 238 0
2019-11-10 15:39:17 GMT 52.342667 -1.621933 7,000 288 238 0
2019-11-10 15:39:14 GMT 52.341705 -1.617126 7,000 288 238 0
2019-11-10 15:39:11 GMT 52.340652 -1.611710 7,000 288 238 0
2019-11-10 15:39:08 GMT 52.338501 -1.600723 7,000 288 238 0
2019-11-10 15:39:05 GMT 52.338501 -1.600723 7,000 288 238 0
2019-11-10 15:39:01 GMT 52.335892 -1.587753 7,000 288 240 0
2019-11-10 15:38:58 GMT 52.335892 -1.587753 7,000 288 238 0
2019-11-10 15:38:55 GMT 52.335049 -1.583287 7,000 288 239 0
2019-11-10 15:38:49 GMT 52.333054 -1.573334 7,000 288 240 0
2019-11-10 15:38:46 GMT 52.332302 -1.569554 7,000 288 240 0
2019-11-10 15:38:43 GMT 52.330952 -1.562648 7,000 288 243 0
2019-11-10 15:38:39 GMT 52.328533 -1.550171 7,000 288 240 0
2019-11-10 15:38:36 GMT 52.327377 -1.544266 7,000 288 240 0
2019-11-10 15:38:32 GMT 52.327377 -1.544266 7,000 288 244 0
2019-11-10 15:38:28 GMT 52.325729 -1.535950 7,000 288 243 0
2019-11-10 15:38:25 GMT 52.325043 -1.532440 7,000 288 243 0
2019-11-10 15:38:22 GMT 52.324219 -1.528244 7,000 288 244 0
2019-11-10 15:38:19 GMT 52.323074 -1.522675 7,000 288 244 0
2019-11-10 15:38:16 GMT 52.321644 -1.515250 7,000 288 245 0
2019-11-10 15:38:13 GMT 52.320015 -1.506775 7,000 288 245 0
2019-11-10 15:38:07 GMT 52.318756 -1.500419 7,000 288 246 0
2019-11-10 15:38:04 GMT 52.316620 -1.489487 7,000 288 246 0
2019-11-10 15:37:58 GMT 52.314613 -1.479152 7,000 288 247 -64
2019-11-10 15:37:52 GMT 52.313736 -1.474533 7,000 288 248 -64
2019-11-10 15:37:49 GMT 52.312317 -1.467361 7,000 288 250 0
2019-11-10 15:37:46 GMT 52.311630 -1.463776 7,000 288 250 0
2019-11-10 15:37:43 GMT 52.310562 -1.458357 7,000 288 251 64
2019-11-10 15:37:40 GMT 52.309307 -1.451843 7,000 288 252 64
2019-11-10 15:37:37 GMT 52.308514 -1.447449 7,000 287 255 -384
2019-11-10 15:37:34 GMT 52.307373 -1.441193 7,000 287 255 -448
2019-11-10 15:37:31 GMT 52.306328 -1.435678 7,025 287 256 -768
2019-11-10 15:37:27 GMT 52.305164 -1.428929 7,050 287 257 -1088
2019-11-10 15:37:24 GMT 52.303627 -1.419983 7,225 285 257 -1280
2019-11-10 15:37:21 GMT 52.303162 -1.417001 7,575 282 255 -1408
2019-11-10 15:37:18 GMT 52.302429 -1.412125 7,275 284 256 -1472
2019-11-10 15:37:15 GMT 52.301624 -1.406485 7,400 282 255 -1408
2019-11-10 15:37:12 GMT 52.300694 -1.398952 7,450 280 255 -1280
2019-11-10 15:37:09 GMT 52.300369 -1.396255 7,525 279 255 -1088
2019-11-10 15:37:06 GMT 52.299671 -1.389064 7,575 279 255 -1152
2019-11-10 15:37:03 GMT 52.299179 -1.383286 7,600 279 255 -1600
2019-11-10 15:37:00 GMT 52.298630 -1.377182 7,700 279 255 -1792
2019-11-10 15:36:57 GMT 52.298172 -1.371841 7,750 279 255 -1792
2019-11-10 15:36:54 GMT 52.297527 -1.364659 7,875 279 255 -1536
2019-11-10 15:36:51 GMT 52.297073 -1.359634 7,900 279 258 -2432
2019-11-10 15:36:47 GMT 52.295700 -1.343536 8,075 278 257 -1216
2019-11-10 15:36:43 GMT 52.295700 -1.343536 8,175 278 259 -1856
2019-11-10 15:36:40 GMT 52.295471 -1.340485 8,200 278 259 -1600
2019-11-10 15:36:37 GMT 52.294968 -1.334682 8,400 278 258 -2112
2019-11-10 15:36:34 GMT 52.294224 -1.326207 8,325 279 256 -3008
2019-11-10 15:36:31 GMT 52.293900 -1.322440 8,550 279 252 -3200
2019-11-10 15:36:28 GMT 52.293411 -1.316757 8,700 279 250 -2688
2019-11-10 15:36:25 GMT 52.292919 -1.311218 8,825 279 248 -1600
2019-11-10 15:36:22 GMT 52.291946 -1.299667 9,000 278 248 -832
2019-11-10 15:36:16 GMT 52.291431 -1.293405 9,000 278 248 -64
2019-11-10 15:36:13 GMT 52.290966 -1.288225 9,000 278 249 0
2019-11-10 15:36:10 GMT 52.290173 -1.278495 9,000 278 249 0
2019-11-10 15:36:07 GMT 52.290173 -1.278495 9,000 278 249 0
2019-11-10 15:36:04 GMT 52.289570 -1.271040 9,000 278 250 0
2019-11-10 15:36:01 GMT 52.289062 -1.265488 9,000 278 250 0
2019-11-10 15:35:58 GMT 52.288685 -1.260603 9,000 278 250 64
2019-11-10 15:35:55 GMT 52.288147 -1.254272 9,000 278 251 0
2019-11-10 15:35:52 GMT 52.287735 -1.249771 9,000 278 250 0
2019-11-10 15:35:49 GMT 52.287148 -1.242711 9,000 278 250 0
2019-11-10 15:35:46 GMT 52.286774 -1.238556 9,000 278 251 0
2019-11-10 15:35:43 GMT 52.286308 -1.232901 9,000 278 251 0
2019-11-10 15:35:40 GMT 52.285767 -1.226501 9,000 278 252 0
2019-11-10 15:35:37 GMT 52.285446 -1.222763 9,000 278 253 0
2019-11-10 15:35:34 GMT 52.284805 -1.215210 9,000 278 253 0
2019-11-10 15:35:30 GMT 52.284122 -1.207241 9,000 278 256 0
2019-11-10 15:35:27 GMT 52.283524 -1.199951 8,975 278 260 0
2019-11-10 15:35:24 GMT 52.283203 -1.196060 8,975 278 259 0
2019-11-10 15:35:21 GMT 52.282150 -1.183624 9,000 278 261 0
2019-11-10 15:35:18 GMT 52.281609 -1.176950 9,000 278 262 -64
2019-11-10 15:35:14 GMT 52.281609 -1.176950 9,000 278 264 0
2019-11-10 15:35:11 GMT 52.281052 -1.170273 9,000 278 265 0
2019-11-10 15:35:08 GMT 52.280117 -1.159607 9,000 278 266 0
2019-11-10 15:35:02 GMT 52.279747 -1.154820 9,000 278 266 0
2019-11-10 15:34:59 GMT 52.278675 -1.142029 9,000 278 269 -64
2019-11-10 15:34:53 GMT 52.278118 -1.135515 9,000 278 272 -64
2019-11-10 15:34:50 GMT 52.277481 -1.127853 9,000 278 279 -640
2019-11-10 15:34:47 GMT 52.276611 -1.117096 9,000 278 278 -384
2019-11-10 15:34:44 GMT 52.276611 -1.117096 9,050 279 281 -832
2019-11-10 15:34:41 GMT 52.276070 -1.110090 9,050 278 279 -576
2019-11-10 15:34:38 GMT 52.275417 -1.102557 9,075 278 280 -704
2019-11-10 15:34:35 GMT 52.275101 -1.098785 9,100 279 281 -832
2019-11-10 15:34:31 GMT 52.273788 -1.084037 9,400 279 283 -1984
2019-11-10 15:34:28 GMT 52.272812 -1.072972 9,575 279 283 -1984
2019-11-10 15:34:24 GMT 52.272812 -1.072972 9,425 279 283 -1984
2019-11-10 15:34:21 GMT 52.272400 -1.068344 9,575 279 283 -1984
2019-11-10 15:34:18 GMT 52.271896 -1.062393 9,725 279 284 -1728
2019-11-10 15:34:15 GMT 52.271301 -1.055603 9,750 279 284 -1728
2019-11-10 15:34:11 GMT 52.270576 -1.047546 9,825 279 286 -1728
2019-11-10 15:34:07 GMT 52.269646 -1.037345 9,850 279 286 -1728
2019-11-10 15:34:04 GMT 52.269226 -1.033029 9,950 279 288 -1536
2019-11-10 15:34:01 GMT 52.268051 -1.019745 10,150 278 291 -832
2019-11-10 15:33:58 GMT 52.268051 -1.019745 10,100 278 292 -704
2019-11-10 15:33:55 GMT 52.266632 -1.003876 10,600 308 319 -2240
2019-11-10 15:33:52 GMT 52.266632 -1.003876 10,200 282 298 -832
2019-11-10 15:33:49 GMT 52.265945 -0.998611 10,225 290 306 -960
2019-11-10 15:33:46 GMT 52.264984 -0.992432 10,275 288 304 -960
2019-11-10 15:33:42 GMT 52.262329 -0.980301 11,100 326 319 -2496
2019-11-10 15:33:39 GMT 52.259354 -0.970078 10,400 297 312 -1152
2019-11-10 15:33:36 GMT 52.259354 -0.970078 10,450 303 316 -1728
2019-11-10 15:33:32 GMT 52.256889 -0.963109 11,100 321 320 -2624
2019-11-10 15:33:29 GMT 52.254932 -0.958322 10,650 305 318 -2048
2019-11-10 15:33:26 GMT 52.251617 -0.951004 10,750 311 319 -2304
2019-11-10 15:33:23 GMT 52.248596 -0.945129 10,850 312 319 -2368
2019-11-10 15:33:20 GMT 52.245903 -0.940587 11,500 319 320 -2624
2019-11-10 15:33:17 GMT 52.242599 -0.935822 11,075 322 320 -2624
2019-11-10 15:33:14 GMT 52.238640 -0.930777 11,250 325 321 -2432
2019-11-10 15:33:11 GMT 52.235001 -0.926590 11,375 325 322 -2368
2019-11-10 15:33:08 GMT 52.231331 -0.922381 11,550 326 321 -2304
2019-11-10 15:33:05 GMT 52.228397 -0.919085 11,600 326 322 -2368
2019-11-10 15:33:02 GMT 52.224487 -0.914612 11,875 326 322 -2496
2019-11-10 15:32:59 GMT 52.220810 -0.910492 11,800 326 322 -2496
2019-11-10 15:32:56 GMT 52.215691 -0.904646 12,025 326 322 -2624
2019-11-10 15:32:53 GMT 52.214199 -0.902998 12,100 326 322 -2688
2019-11-10 15:32:50 GMT 52.209312 -0.897505 12,150 326 322 -3008
2019-11-10 15:32:47 GMT 52.206333 -0.894209 12,325 326 322 -3136
2019-11-10 15:32:44 GMT 52.203186 -0.890579 12,500 326 321 -1536
2019-11-10 15:32:41 GMT 52.194901 -0.881348 12,850 326 319 -2176
2019-11-10 15:32:38 GMT 52.194901 -0.881348 12,900 326 321 -1408
2019-11-10 15:32:35 GMT 52.190784 -0.876709 12,975 326 322 -1280
2019-11-10 15:32:32 GMT 52.187340 -0.872785 13,000 326 323 -1152
2019-11-10 15:32:29 GMT 52.183685 -0.868683 13,050 326 324 -1152
2019-11-10 15:32:26 GMT 52.180962 -0.865566 13,100 326 327 -1408
2019-11-10 15:32:23 GMT 52.175720 -0.859756 13,575 326 327 -1600
2019-11-10 15:32:20 GMT 52.172024 -0.855521 13,300 326 327 -1664
2019-11-10 15:32:17 GMT 52.169266 -0.852509 13,700 326 328 -1984
2019-11-10 15:32:14 GMT 52.165508 -0.848301 13,450 326 328 -2048
2019-11-10 15:32:11 GMT 52.161503 -0.843828 13,625 326 327 -2432
2019-11-10 15:32:08 GMT 52.157272 -0.839081 13,675 326 327 -2560
2019-11-10 15:32:05 GMT 52.153793 -0.835190 13,825 326 325 -2752
2019-11-10 15:32:02 GMT 52.151028 -0.832136 13,975 326 323 -3136
2019-11-10 15:31:59 GMT 52.145630 -0.826093 14,675 326 317 -4160
2019-11-10 15:31:56 GMT 52.143162 -0.823347 14,275 326 316 -4032
2019-11-10 15:31:53 GMT 52.138321 -0.818011 14,475 326 315 -3968
2019-11-10 15:31:47 GMT 52.132130 -0.811105 14,800 326 312 -2432
2019-11-10 15:31:44 GMT 52.129532 -0.808182 14,975 326 314 -896
2019-11-10 15:31:41 GMT 52.124268 -0.802307 15,000 326 328 -768
2019-11-10 15:31:38 GMT 52.120880 -0.798492 15,000 326 319 0
2019-11-10 15:31:35 GMT 52.117950 -0.795288 15,000 326 324 -320
2019-11-10 15:31:32 GMT 52.114059 -0.790863 15,000 326 327 -576
2019-11-10 15:31:29 GMT 52.110580 -0.786972 15,025 326 327 -576
2019-11-10 15:31:26 GMT 52.107101 -0.783081 15,025 326 328 -768
2019-11-10 15:31:23 GMT 52.103073 -0.778656 15,125 326 330 -960
2019-11-10 15:31:20 GMT 52.098541 -0.773544 15,150 326 333 -1280
2019-11-10 15:31:17 GMT 52.094971 -0.769577 15,250 326 334 -1536
2019-11-10 15:31:11 GMT 52.083946 -0.757429 15,400 326 335 -1856
2019-11-10 15:31:08 GMT 52.080139 -0.753174 15,550 326 336 -2112
2019-11-10 15:31:02 GMT 52.076523 -0.749207 15,625 326 335 -2368
2019-11-10 15:30:59 GMT 52.072403 -0.744705 15,875 327 333 -2816
2019-11-10 15:30:56 GMT 52.068073 -0.740008 16,125 327 330 -3392
2019-11-10 15:30:53 GMT 52.061646 -0.733261 16,200 328 326 -4096
2019-11-10 15:30:47 GMT 52.053085 -0.724411 16,575 328 321 -3776
2019-11-10 15:30:44 GMT 52.053085 -0.724411 16,700 328 320 -2624
2019-11-10 15:30:41 GMT 52.049561 -0.720825 16,925 328 321 -960
2019-11-10 15:30:38 GMT 52.045307 -0.716466 16,950 328 323 -640
2019-11-10 15:30:35 GMT 52.041260 -0.712306 17,000 328 324 -64
2019-11-10 15:30:32 GMT 52.038483 -0.709457 17,000 328 332 -128
2019-11-10 15:30:29 GMT 52.033905 -0.704727 17,000 328 329 0
2019-11-10 15:30:26 GMT 52.026966 -0.697553 17,000 328 341 -896
2019-11-10 15:30:23 GMT 52.023289 -0.693787 17,000 328 334 -320
2019-11-10 15:30:20 GMT 52.017517 -0.687823 17,025 328 338 -704
2019-11-10 15:30:17 GMT 52.017517 -0.687823 17,125 328 342 -1088
2019-11-10 15:30:14 GMT 52.014351 -0.684527 17,100 328 341 -960
2019-11-10 15:30:11 GMT 52.009827 -0.679855 17,150 328 343 -1088
2019-11-10 15:30:08 GMT 52.005833 -0.675738 17,175 328 345 -1216
2019-11-10 15:30:05 GMT 52.002869 -0.672684 17,225 328 345 -1280
2019-11-10 15:30:02 GMT 51.998802 -0.668518 17,300 328 346 -1408
2019-11-10 15:29:59 GMT 51.995590 -0.665144 17,375 328 347 -1664
2019-11-10 15:29:56 GMT 51.990192 -0.659572 17,475 328 347 -2240
2019-11-10 15:29:53 GMT 51.985565 -0.654831 17,650 328 346 -2752
2019-11-10 15:29:50 GMT 51.982044 -0.651254 17,675 328 346 -2752
2019-11-10 15:29:47 GMT 51.978832 -0.647879 17,900 328 346 -2752
2019-11-10 15:29:44 GMT 51.975311 -0.644226 17,950 328 346 -2816
2019-11-10 15:29:41 GMT 51.969910 -0.638657 18,150 328 346 -2944
2019-11-10 15:29:38 GMT 51.966660 -0.635376 18,275 328 346 -2880
2019-11-10 15:29:35 GMT 51.957504 -0.625916 18,600 329 346 -2688
2019-11-10 15:29:32 GMT 51.957504 -0.625916 18,600 329 346 -2752
2019-11-10 15:29:29 GMT 51.952854 -0.621277 19,025 335 348 -2816
2019-11-10 15:29:26 GMT 51.949265 -0.617905 18,875 332 347 -2816
2019-11-10 15:29:23 GMT 51.944988 -0.614293 19,050 337 349 -2688
2019-11-10 15:29:20 GMT 51.941757 -0.611877 19,150 338 350 -2560
2019-11-10 15:29:17 GMT 51.936096 -0.607936 19,650 338 350 -2560
2019-11-10 15:29:14 GMT 51.931595 -0.604935 19,400 338 350 -2496
2019-11-10 15:29:11 GMT 51.927429 -0.602188 19,475 338 351 -2496
2019-11-10 15:29:08 GMT 51.922318 -0.598755 19,675 338 350 -3264
2019-11-10 15:29:05 GMT 51.919006 -0.596542 19,900 338 337 -4928
2019-11-10 15:29:02 GMT 51.915150 -0.593968 20,225 338 344 -4928
2019-11-10 15:28:59 GMT 51.908936 -0.589828 20,425 338 343 -4928
2019-11-10 15:28:56 GMT 51.904579 -0.586905 20,550 338 338 -4928
2019-11-10 15:28:53 GMT 51.901695 -0.584943 20,725 338 334 -4864
2019-11-10 15:28:50 GMT 51.896255 -0.581207 21,050 337 330 -4736
2019-11-10 15:28:47 GMT 51.892365 -0.578490 21,150 337 329 -4672
2019-11-10 15:28:44 GMT 51.887634 -0.575180 21,500 337 325 -3840
2019-11-10 15:28:41 GMT 51.883774 -0.572433 21,725 336 324 -1984
2019-11-10 15:28:38 GMT 51.880234 -0.569879 21,825 336 324 -1408
2019-11-10 15:28:35 GMT 51.875023 -0.566101 21,900 336 324 -1152
2019-11-10 15:28:32 GMT 51.870895 -0.563124 21,950 336 325 -640
2019-11-10 15:28:29 GMT 51.863754 -0.557927 22,000 336 326 -64
2019-11-10 15:28:26 GMT 51.863754 -0.557927 22,000 336 327 -64
2019-11-10 15:28:23 GMT 51.858540 -0.554123 22,000 336 327 -64
2019-11-10 15:28:20 GMT 51.856308 -0.552521 22,000 336 328 -64
2019-11-10 15:28:17 GMT 51.850765 -0.548553 22,000 337 329 -64
2019-11-10 15:28:14 GMT 51.846855 -0.545731 22,000 337 333 0
2019-11-10 15:28:11 GMT 51.842606 -0.542710 22,000 337 338 0
2019-11-10 15:28:08 GMT 51.838383 -0.539703 22,000 337 336 0
2019-11-10 15:28:05 GMT 51.834988 -0.537262 22,000 337 337 0
2019-11-10 15:28:02 GMT 51.829262 -0.533218 22,000 337 341 0
2019-11-10 15:27:59 GMT 51.821205 -0.527496 22,000 337 341 0
2019-11-10 15:27:53 GMT 51.812454 -0.521317 22,000 337 345 0
2019-11-10 15:27:47 GMT 51.803051 -0.514679 22,000 337 349 -64
2019-11-10 15:27:44 GMT 51.803051 -0.514679 22,000 337 349 -64
2019-11-10 15:27:41 GMT 51.798908 -0.511703 22,000 337 351 -64
2019-11-10 15:27:38 GMT 51.793808 -0.508192 22,000 337 353 0
2019-11-10 15:27:35 GMT 51.791428 -0.506485 22,000 337 353 0
2019-11-10 15:27:32 GMT 51.785431 -0.502253 22,000 337 353 64
2019-11-10 15:27:29 GMT 51.782753 -0.500336 22,000 337 352 128
2019-11-10 15:27:26 GMT 51.776794 -0.496140 22,000 337 352 128
2019-11-10 15:27:23 GMT 51.771397 -0.492325 22,000 337 351 -64
2019-11-10 15:27:20 GMT 51.762550 -0.485992 22,025 337 344 -1088
2019-11-10 15:27:14 GMT 51.760178 -0.484314 22,050 337 344 -1088
2019-11-10 15:27:11 GMT 51.751190 -0.477905 22,175 337 339 -1792
2019-11-10 15:27:08 GMT 51.746861 -0.475006 22,375 340 335 -2240
2019-11-10 15:27:05 GMT 51.742207 -0.472336 22,375 342 334 -2240
2019-11-10 15:27:02 GMT 51.742207 -0.472336 22,425 346 331 -2176
2019-11-10 15:26:59 GMT 51.736900 -0.470047 22,675 348 329 -2176
2019-11-10 15:26:56 GMT 51.734207 -0.469220 22,700 353 326 -2240
2019-11-10 15:26:53 GMT 51.728519 -0.468140 22,725 359 322 -2240
2019-11-10 15:26:50 GMT 51.724091 -0.468032 22,875 3 320 -2304
2019-11-10 15:26:47 GMT 51.719627 -0.468445 22,950 6 318 -2368
2019-11-10 15:26:44 GMT 51.714706 -0.469591 23,225 15 320 -2304
2019-11-10 15:26:41 GMT 51.705551 -0.473600 23,250 17 320 -2304
2019-11-10 15:26:35 GMT 51.698227 -0.477534 23,475 18 321 -1856
2019-11-10 15:26:32 GMT 51.698227 -0.477534 23,525 18 321 -2048
2019-11-10 15:26:29 GMT 51.693741 -0.479984 23,700 18 321 -1728
2019-11-10 15:26:26 GMT 51.690067 -0.481949 23,750 18 322 -1472
2019-11-10 15:26:23 GMT 51.681335 -0.486665 23,850 18 323 -1216
2019-11-10 15:26:20 GMT 51.681335 -0.486665 23,900 18 323 -960
2019-11-10 15:26:17 GMT 51.674801 -0.490112 23,925 18 324 -896
2019-11-10 15:26:14 GMT 51.673077 -0.491028 23,950 18 324 -512
2019-11-10 15:26:11 GMT 51.663395 -0.496216 23,975 18 325 0
2019-11-10 15:26:05 GMT 51.660782 -0.497577 23,975 18 326 0
2019-11-10 15:26:02 GMT 51.652222 -0.502105 23,975 18 326 0
2019-11-10 15:25:56 GMT 51.647049 -0.504851 23,975 17 326 0
2019-11-10 15:25:53 GMT 51.641876 -0.507524 23,975 17 326 64
2019-11-10 15:25:50 GMT 51.638443 -0.509305 23,975 17 327 64
2019-11-10 15:25:47 GMT 51.633820 -0.511755 23,975 17 330 -64
2019-11-10 15:25:44 GMT 51.630341 -0.513537 23,975 18 341 0
2019-11-10 15:25:41 GMT 51.624527 -0.516580 23,975 17 331 -64
2019-11-10 15:25:38 GMT 51.620453 -0.518733 23,975 18 333 -64
2019-11-10 15:25:35 GMT 51.616928 -0.520514 23,975 18 334 -64
2019-11-10 15:25:32 GMT 51.611954 -0.523148 23,975 18 336 -128
2019-11-10 15:25:29 GMT 51.608093 -0.525191 23,975 18 337 -64
2019-11-10 15:25:26 GMT 51.603016 -0.527802 23,975 18 341 0
2019-11-10 15:25:23 GMT 51.599167 -0.529868 23,975 18 343 -64
2019-11-10 15:25:20 GMT 51.588821 -0.535361 23,975 18 351 -64
2019-11-10 15:25:13 GMT 51.582642 -0.538627 23,975 18 358 -64
2019-11-10 15:25:10 GMT 51.577923 -0.541153 23,975 18 395 64
2019-11-10 15:25:07 GMT 51.575089 -0.542636 23,975 18 366 -64
2019-11-10 15:25:04 GMT 51.568085 -0.546421 23,975 18 369 -64
2019-11-10 15:25:01 GMT 51.564518 -0.548325 23,975 18 369 -64
2019-11-10 15:24:58 GMT 51.554695 -0.553589 23,975 18 388 0
2019-11-10 15:24:52 GMT 51.549042 -0.556591 23,975 18 387 0
2019-11-10 15:24:46 GMT 51.538193 -0.562455 23,975 18 391 0
2019-11-10 15:24:39 GMT 51.528114 -0.567856 23,975 18 400 -64
2019-11-10 15:24:36 GMT 51.521439 -0.571438 23,975 18 407 -64
2019-11-10 15:24:33 GMT 51.511822 -0.576553 24,000 18 407 0
2019-11-10 15:24:27 GMT 51.506470 -0.579455 24,000 18 407 0
2019-11-10 15:24:24 GMT 51.502167 -0.581756 24,000 18 407 0
2019-11-10 15:24:21 GMT 51.494293 -0.585913 24,000 18 407 0
2019-11-10 15:24:18 GMT 51.483582 -0.591629 24,000 18 408 0
2019-11-10 15:24:15 GMT 51.483582 -0.591629 24,000 18 408 0
2019-11-10 15:24:12 GMT 51.478909 -0.594101 24,000 18 408 0
2019-11-10 15:24:09 GMT 51.474243 -0.596528 24,000 18 408 0
2019-11-10 15:24:06 GMT 51.467102 -0.600314 24,000 18 408 0
2019-11-10 15:24:03 GMT 51.461731 -0.603180 24,000 18 408 0
2019-11-10 15:24:00 GMT 51.457401 -0.605469 24,000 18 408 0
2019-11-10 15:23:57 GMT 51.452419 -0.608063 24,000 18 408 0
2019-11-10 15:23:54 GMT 51.445950 -0.611496 24,000 18 408 0
2019-11-10 15:23:51 GMT 51.441666 -0.613785 24,000 18 408 0
2019-11-10 15:23:48 GMT 51.435940 -0.616760 24,000 18 408 -64
2019-11-10 15:23:45 GMT 51.430573 -0.619614 24,000 18 408 -64
2019-11-10 15:23:42 GMT 51.426956 -0.621544 24,000 18 408 0
2019-11-10 15:23:39 GMT 51.419815 -0.625330 24,000 18 407 0
2019-11-10 15:23:36 GMT 51.408707 -0.631180 24,000 18 407 0
2019-11-10 15:23:30 GMT 51.397614 -0.637059 24,000 18 407 0
2019-11-10 15:23:27 GMT 51.392971 -0.639496 24,000 18 407 0
2019-11-10 15:23:24 GMT 51.387943 -0.642166 24,000 18 407 0
2019-11-10 15:23:21 GMT 51.387943 -0.642166 24,000 18 407 0
2019-11-10 15:23:18 GMT 51.381519 -0.645599 24,000 18 407 -64
2019-11-10 15:23:15 GMT 51.376877 -0.648045 24,000 18 407 -64
2019-11-10 15:23:12 GMT 51.370766 -0.651245 24,000 18 407 0
2019-11-10 15:23:09 GMT 51.366119 -0.653687 24,000 18 407 0
2019-11-10 15:23:06 GMT 51.361130 -0.656285 24,000 18 407 -64
2019-11-10 15:23:03 GMT 51.356476 -0.658722 24,000 18 407 0
2019-11-10 15:23:00 GMT 51.345383 -0.664599 24,000 18 407 -64
2019-11-10 15:22:54 GMT 51.340042 -0.667419 24,000 18 406 -64
2019-11-10 15:22:51 GMT 51.334671 -0.670240 24,000 18 406 -64
2019-11-10 15:22:48 GMT 51.327530 -0.674026 24,000 18 406 -64
2019-11-10 15:22:45 GMT 51.322212 -0.676880 24,000 18 406 0
2019-11-10 15:22:42 GMT 51.319328 -0.678329 24,000 18 406 0
2019-11-10 15:22:39 GMT 51.311504 -0.682526 24,000 18 406 0
2019-11-10 15:22:36 GMT 51.306152 -0.685384 24,000 18 406 0
2019-11-10 15:22:33 GMT 51.302940 -0.687027 24,000 18 406 0
2019-11-10 15:22:30 GMT 51.296173 -0.690654 24,000 18 406 0
2019-11-10 15:22:27 GMT 51.290836 -0.693436 24,000 18 406 0
2019-11-10 15:22:24 GMT 51.285809 -0.696106 24,000 18 406 0
2019-11-10 15:22:21 GMT 51.281891 -0.698151 24,000 18 406 64
2019-11-10 15:22:18 GMT 51.275150 -0.701752 24,000 18 406 0
2019-11-10 15:22:15 GMT 51.269806 -0.704535 24,000 18 406 -64
2019-11-10 15:22:12 GMT 51.265503 -0.706837 24,000 18 406 -64
2019-11-10 15:22:09 GMT 51.258408 -0.710548 24,000 18 405 0
2019-11-10 15:22:06 GMT 51.253418 -0.713221 24,000 18 405 0
2019-11-10 15:22:03 GMT 51.250580 -0.714705 24,000 18 405 0
2019-11-10 15:22:00 GMT 51.242020 -0.719159 24,000 18 405 0
2019-11-10 15:21:57 GMT 51.232414 -0.724258 24,000 18 405 0
2019-11-10 15:21:54 GMT 51.232414 -0.724258 24,000 18 405 0
2019-11-10 15:21:51 GMT 51.228130 -0.726471 24,000 18 405 0
2019-11-10 15:21:48 GMT 51.221054 -0.730209 24,000 18 405 0
2019-11-10 15:21:45 GMT 51.216076 -0.732803 24,000 18 405 0
2019-11-10 15:21:42 GMT 51.211441 -0.735267 24,000 18 404 0
2019-11-10 15:21:39 GMT 51.205032 -0.738608 24,000 18 404 0
2019-11-10 15:21:36 GMT 51.201130 -0.740662 24,000 18 404 0
2019-11-10 15:21:33 GMT 51.194412 -0.744175 24,000 18 404 0
2019-11-10 15:21:30 GMT 51.191574 -0.745660 24,000 18 404 0
2019-11-10 15:21:27 GMT 51.184837 -0.749207 24,000 18 404 0
2019-11-10 15:21:24 GMT 51.179157 -0.752182 24,000 18 404 0
2019-11-10 15:21:21 GMT 51.174873 -0.754395 24,000 18 403 -64
2019-11-10 15:21:18 GMT 51.169601 -0.757166 24,000 18 403 0
2019-11-10 15:21:15 GMT 51.163193 -0.760506 24,000 18 403 0
2019-11-10 15:21:12 GMT 51.154346 -0.765076 24,000 18 402 -64
2019-11-10 15:21:06 GMT 51.148712 -0.768051 24,000 18 402 -64
2019-11-10 15:21:03 GMT 51.142334 -0.771332 24,000 18 402 0
2019-11-10 15:21:00 GMT 51.136658 -0.774307 24,000 18 402 0
2019-11-10 15:20:57 GMT 51.130646 -0.777431 24,000 18 402 0
2019-11-10 15:20:54 GMT 51.125015 -0.780400 24,000 18 402 0
2019-11-10 15:20:51 GMT 51.121803 -0.782013 24,000 18 401 -64
2019-11-10 15:20:48 GMT 51.116173 -0.784988 24,000 18 401 0
2019-11-10 15:20:45 GMT 51.111557 -0.787378 24,000 18 401 0
2019-11-10 15:20:42 GMT 51.104858 -0.790863 24,000 18 402 0
2019-11-10 15:20:39 GMT 51.099228 -0.793839 24,000 18 402 0
2019-11-10 15:20:36 GMT 51.094990 -0.796051 24,000 18 402 0
2019-11-10 15:20:33 GMT 51.089359 -0.798950 24,000 18 401 -64
2019-11-10 15:20:30 GMT 51.083027 -0.802307 24,000 18 401 0
2019-11-10 15:20:27 GMT 51.078415 -0.804674 24,000 18 401 0
2019-11-10 15:20:24 GMT 51.068573 -0.809796 24,000 18 400 0
2019-11-10 15:20:21 GMT 51.068573 -0.809796 24,000 18 400 0
2019-11-10 15:20:18 GMT 51.061523 -0.813508 24,000 18 401 0
2019-11-10 15:20:15 GMT 51.057266 -0.815661 24,000 18 401 0
2019-11-10 15:20:12 GMT 51.053055 -0.817888 24,000 18 401 0
2019-11-10 15:20:09 GMT 51.047043 -0.820999 24,000 17 402 0
2019-11-10 15:20:06 GMT 51.041794 -0.823752 24,000 18 401 -64
2019-11-10 15:20:03 GMT 51.030842 -0.829468 24,000 18 401 0
2019-11-10 15:20:00 GMT 51.026962 -0.831472 24,000 18 401 -64
2019-11-10 15:19:54 GMT 51.019531 -0.835266 24,000 18 401 -64
2019-11-10 15:19:50 GMT 51.012131 -0.839118 24,000 18 401 0
2019-11-10 15:19:47 GMT 51.006821 -0.841904 24,000 18 401 64
2019-11-10 15:19:44 GMT 51.001888 -0.844421 24,000 18 401 0
2019-11-10 15:19:41 GMT 50.992718 -0.849228 24,000 18 401 0
2019-11-10 15:19:35 GMT 50.988144 -0.851589 24,000 18 402 0
2019-11-10 15:19:32 GMT 50.981049 -0.855226 24,000 18 402 -64
2019-11-10 15:19:29 GMT 50.970837 -0.860596 24,000 18 401 -64
2019-11-10 15:19:26 GMT 50.970837 -0.860596 24,000 18 401 -64
2019-11-10 15:19:23 GMT 50.965900 -0.863113 24,000 18 402 0
2019-11-10 15:19:20 GMT 50.955643 -0.868440 24,000 18 402 0
2019-11-10 15:19:17 GMT 50.948547 -0.872077 24,000 17 402 0
2019-11-10 15:19:14 GMT 50.948547 -0.872077 24,000 17 402 0
2019-11-10 15:19:11 GMT 50.945023 -0.873858 24,000 17 402 0
2019-11-10 15:19:08 GMT 50.937927 -0.877496 24,000 17 402 0
2019-11-10 15:19:05 GMT 50.933315 -0.879822 24,000 17 402 0
2019-11-10 15:19:02 GMT 50.928383 -0.882416 24,000 17 403 0
2019-11-10 15:18:59 GMT 50.924843 -0.884171 24,000 17 403 -64
2019-11-10 15:18:56 GMT 50.914230 -0.889664 24,000 17 403 0
2019-11-10 15:18:50 GMT 50.908173 -0.892713 24,000 17 403 0
2019-11-10 15:18:47 GMT 50.902172 -0.895767 24,000 17 403 0
2019-11-10 15:18:43 GMT 50.896133 -0.898875 24,000 17 403 0
2019-11-10 15:18:40 GMT 50.889416 -0.902328 24,000 17 403 0
2019-11-10 15:18:37 GMT 50.884781 -0.904665 24,000 17 403 0
2019-11-10 15:18:34 GMT 50.877686 -0.908302 24,000 17 403 0
2019-11-10 15:18:31 GMT 50.874161 -0.910084 24,000 17 403 -64
2019-11-10 15:18:28 GMT 50.867397 -0.913544 24,000 18 403 -64
2019-11-10 15:18:25 GMT 50.862122 -0.916319 24,000 18 403 -64
2019-11-10 15:18:22 GMT 50.857132 -0.918843 24,000 18 403 0
2019-11-10 15:18:19 GMT 50.853245 -0.920868 24,000 18 403 0
2019-11-10 15:18:16 GMT 50.846867 -0.924149 24,000 17 403 0
2019-11-10 15:18:13 GMT 50.842941 -0.926118 24,000 16 403 0
2019-11-10 15:18:10 GMT 50.835068 -0.929755 24,000 14 403 64
2019-11-10 15:18:07 GMT 50.829689 -0.932007 24,000 14 402 64
2019-11-10 15:18:04 GMT 50.826462 -0.933318 24,000 13 402 0
2019-11-10 15:18:01 GMT 50.813725 -0.937729 24,000 11 402 -64
2019-11-10 15:17:55 GMT 50.809345 -0.939026 24,000 9 401 -64
2019-11-10 15:17:49 GMT 50.793285 -0.942841 24,025 7 398 0
2019-11-10 15:17:46 GMT 50.787827 -0.943785 24,025 6 395 64
2019-11-10 15:17:43 GMT 50.787827 -0.943785 24,000 6 394 0
2019-11-10 15:17:40 GMT 50.775513 -0.945863 24,000 6 394 0
2019-11-10 15:17:37 GMT 50.775513 -0.945863 24,000 6 394 0
2019-11-10 15:17:34 GMT 50.770802 -0.946655 24,000 6 394 0
2019-11-10 15:17:31 GMT 50.766472 -0.947418 24,000 6 394 0
2019-11-10 15:17:28 GMT 50.758511 -0.948792 24,000 6 394 0
2019-11-10 15:17:25 GMT 50.755966 -0.949204 24,000 6 394 0
2019-11-10 15:17:22 GMT 50.750549 -0.950165 24,000 6 394 0
2019-11-10 15:17:19 GMT 50.744778 -0.951157 24,000 6 394 0
2019-11-10 15:17:16 GMT 50.737885 -0.952322 24,000 6 394 0
2019-11-10 15:17:13 GMT 50.732803 -0.953212 24,000 6 394 0
2019-11-10 15:17:10 GMT 50.728859 -0.953903 24,000 6 394 0
2019-11-10 15:17:07 GMT 50.723785 -0.954742 24,000 6 394 0
2019-11-10 15:17:04 GMT 50.716919 -0.955885 24,000 6 394 0
2019-11-10 15:17:01 GMT 50.706757 -0.957666 24,000 6 394 0
2019-11-10 15:16:55 GMT 50.695526 -0.959549 24,000 6 394 0
2019-11-10 15:16:52 GMT 50.695526 -0.959549 24,000 6 394 0
2019-11-10 15:16:49 GMT 50.690094 -0.960487 24,000 6 394 0
2019-11-10 15:16:46 GMT 50.684681 -0.961380 24,000 6 394 0
2019-11-10 15:16:43 GMT 50.678513 -0.962417 24,000 6 394 0
2019-11-10 15:16:40 GMT 50.674534 -0.963058 24,000 6 394 0
2019-11-10 15:16:37 GMT 50.661495 -0.965312 24,000 6 394 0
2019-11-10 15:16:33 GMT 50.661495 -0.965312 24,000 6 394 0
2019-11-10 15:16:30 GMT 50.656422 -0.966129 24,000 6 394 0
2019-11-10 15:16:26 GMT 50.645576 -0.967985 24,000 6 394 0
2019-11-10 15:16:23 GMT 50.643036 -0.968459 24,000 6 394 0
2019-11-10 15:16:20 GMT 50.637955 -0.969327 24,000 6 394 0
2019-11-10 15:16:17 GMT 50.632141 -0.970266 24,000 6 394 0
2019-11-10 15:16:14 GMT 50.626373 -0.971278 24,000 6 394 0
2019-11-10 15:16:11 GMT 50.621647 -0.972067 24,000 6 394 0
2019-11-10 15:16:08 GMT 50.614388 -0.973329 24,000 6 394 0
2019-11-10 15:16:05 GMT 50.610058 -0.974072 24,000 6 394 0
2019-11-10 15:16:02 GMT 50.604282 -0.975037 24,000 6 394 0
2019-11-10 15:15:59 GMT 50.600655 -0.975630 24,000 6 394 0
2019-11-10 15:15:56 GMT 50.594467 -0.976699 24,000 6 394 0
2019-11-10 15:15:53 GMT 50.582886 -0.978651 24,000 6 395 0
2019-11-10 15:15:46 GMT 50.572350 -0.980456 24,000 6 395 0
2019-11-10 15:15:43 GMT 50.570526 -0.980747 24,000 6 395 0
2019-11-10 15:15:40 GMT 50.562901 -0.982089 24,000 6 395 0
2019-11-10 15:15:37 GMT 50.560013 -0.982534 24,000 6 395 0
2019-11-10 15:15:34 GMT 50.554596 -0.983493 24,000 6 395 0
2019-11-10 15:15:31 GMT 50.548424 -0.984538 24,000 6 395 0
2019-11-10 15:15:28 GMT 50.536785 -0.986468 24,000 6 395 0
2019-11-10 15:15:25 GMT 50.536785 -0.986468 24,000 6 395 0
2019-11-10 15:15:22 GMT 50.527332 -0.988101 24,000 6 395 0
2019-11-10 15:15:16 GMT 50.520069 -0.989289 24,000 6 395 0
2019-11-10 15:15:13 GMT 50.516098 -0.989998 24,000 6 395 0
2019-11-10 15:15:10 GMT 50.510670 -0.990922 24,000 6 395 64
2019-11-10 15:15:07 GMT 50.503407 -0.992110 24,000 6 395 0
2019-11-10 15:15:03 GMT 50.497238 -0.993179 24,000 6 395 0
2019-11-10 15:15:00 GMT 50.492157 -0.994046 24,000 6 395 0
2019-11-10 15:14:57 GMT 50.487076 -0.994841 24,000 6 395 0
2019-11-10 15:14:54 GMT 50.476181 -0.996720 24,000 6 394 0
2019-11-10 15:14:51 GMT 50.469284 -0.997826 24,000 6 394 0
2019-11-10 15:14:48 GMT 50.469284 -0.997826 24,000 6 394 0
2019-11-10 15:14:45 GMT 50.463867 -0.998744 24,000 6 394 0
2019-11-10 15:14:42 GMT 50.460251 -0.999394 24,000 6 394 0
2019-11-10 15:14:39 GMT 50.454803 -1.000275 24,000 6 394 0
2019-11-10 15:14:36 GMT 50.449356 -1.001201 24,000 6 394 0
2019-11-10 15:14:33 GMT 50.443214 -1.002206 24,000 6 394 0
2019-11-10 15:14:30 GMT 50.437775 -1.003153 24,000 6 394 0
2019-11-10 15:14:27 GMT 50.432007 -1.004093 24,000 6 394 0
2019-11-10 15:14:22 GMT 50.424728 -1.005321 24,000 6 394 0
2019-11-10 15:14:19 GMT 50.413879 -1.007201 24,000 6 394 0
2019-11-10 15:14:13 GMT 50.407379 -1.008285 24,000 6 394 0
2019-11-10 15:14:10 GMT 50.401222 -1.009332 24,000 6 394 0
2019-11-10 15:14:06 GMT 50.392914 -1.010742 24,000 6 394 0
2019-11-10 15:14:03 GMT 50.388565 -1.011465 24,000 6 394 0
2019-11-10 15:14:00 GMT 50.380974 -1.012746 24,000 6 394 0
2019-11-10 15:13:57 GMT 50.378403 -1.013200 24,000 6 394 -64
2019-11-10 15:13:54 GMT 50.369019 -1.014718 24,000 6 394 -64
2019-11-10 15:13:51 GMT 50.362518 -1.015874 24,000 6 394 0
2019-11-10 15:13:48 GMT 50.362518 -1.015874 24,000 6 394 0
2019-11-10 15:13:44 GMT 50.355240 -1.017103 24,000 6 394 -64
2019-11-10 15:13:41 GMT 50.349133 -1.018091 24,000 6 394 -64
2019-11-10 15:13:37 GMT 50.338982 -1.019798 24,000 6 394 0
2019-11-10 15:13:33 GMT 50.335354 -1.020392 24,000 6 394 0
2019-11-10 15:13:30 GMT 50.329926 -1.021295 24,000 6 394 0
2019-11-10 15:13:26 GMT 50.322315 -1.022545 24,000 6 394 0
2019-11-10 15:13:23 GMT 50.317291 -1.023436 24,000 5 394 0
2019-11-10 15:13:20 GMT 50.311844 -1.024331 24,000 5 394 0
2019-11-10 15:13:16 GMT 50.303879 -1.025632 24,000 5 394 0
2019-11-10 15:13:13 GMT 50.293762 -1.027294 24,000 5 394 0
2019-11-10 15:13:10 GMT 50.293762 -1.027294 24,000 5 394 0
2019-11-10 15:13:06 GMT 50.285446 -1.028632 24,000 5 394 0
2019-11-10 15:13:03 GMT 50.281071 -1.029300 24,000 5 394 0
2019-11-10 15:13:00 GMT 50.275299 -1.030265 24,000 5 394 0
2019-11-10 15:12:57 GMT 50.269527 -1.031230 24,000 5 393 0
2019-11-10 15:12:54 GMT 50.265896 -1.031824 24,000 5 393 0
2019-11-10 15:12:51 GMT 50.259750 -1.032787 24,000 5 393 0
2019-11-10 15:12:48 GMT 50.254353 -1.033680 24,000 5 393 0
2019-11-10 15:12:45 GMT 50.248901 -1.034594 24,000 5 393 0
2019-11-10 15:12:42 GMT 50.242401 -1.035678 24,000 5 393 0
2019-11-10 15:12:39 GMT 50.233356 -1.037095 24,000 5 393 0
2019-11-10 15:12:36 GMT 50.226139 -1.038282 24,000 5 393 0
2019-11-10 15:12:33 GMT 50.221066 -1.039099 24,000 5 393 0
2019-11-10 15:12:30 GMT 50.221066 -1.039099 24,000 5 393 0
2019-11-10 15:12:27 GMT 50.214203 -1.040232 24,000 6 393 0
2019-11-10 15:12:23 GMT 50.209522 -1.041029 24,000 6 393 0
2019-11-10 15:12:20 GMT 50.203354 -1.042039 24,000 6 393 0
2019-11-10 15:12:16 GMT 50.196121 -1.043268 24,000 6 393 0
2019-11-10 15:12:13 GMT 50.189270 -1.044369 24,000 6 393 0
2019-11-10 15:12:10 GMT 50.183453 -1.045334 24,000 6 393 -64
2019-11-10 15:12:07 GMT 50.177681 -1.046299 24,000 6 394 0
2019-11-10 15:12:04 GMT 50.168655 -1.047821 24,000 6 394 0
2019-11-10 15:12:01 GMT 50.168655 -1.047821 24,000 6 394 0
2019-11-10 15:11:58 GMT 50.163200 -1.048749 24,000 6 394 -64
2019-11-10 15:11:55 GMT 50.155987 -1.049937 24,000 6 394 -64
2019-11-10 15:11:51 GMT 50.151657 -1.050679 24,000 6 394 -64
2019-11-10 15:11:48 GMT 50.143696 -1.052015 24,000 6 394 0
2019-11-10 15:11:45 GMT 50.141144 -1.052447 24,000 6 394 0
2019-11-10 15:11:41 GMT 50.133179 -1.053820 24,000 6 394 -64
2019-11-10 15:11:38 GMT 50.121964 -1.055699 24,000 6 394 -64
2019-11-10 15:11:35 GMT 50.121964 -1.055699 24,000 6 395 0
2019-11-10 15:11:32 GMT 50.109238 -1.057868 24,000 6 394 0
2019-11-10 15:11:29 GMT 50.109238 -1.057868 24,000 6 395 0
2019-11-10 15:11:26 GMT 50.104546 -1.058696 24,000 6 395 0
2019-11-10 15:11:22 GMT 50.099472 -1.059513 24,000 6 395 0
2019-11-10 15:11:19 GMT 50.087135 -1.061591 24,000 6 395 0
2019-11-10 15:11:16 GMT 50.087135 -1.061591 24,000 6 395 0
2019-11-10 15:11:10 GMT 50.075134 -1.063578 24,000 6 395 128
2019-11-10 15:11:07 GMT 50.070786 -1.064301 24,000 5 395 64
2019-11-10 15:11:04 GMT 50.058086 -1.066416 24,000 6 395 64
2019-11-10 15:11:01 GMT 50.058086 -1.066416 24,000 6 395 -64
2019-11-10 15:10:58 GMT 50.053757 -1.067084 24,000 6 395 0
2019-11-10 15:10:55 GMT 50.049381 -1.067827 24,000 6 395 -64
2019-11-10 15:10:52 GMT 50.044647 -1.068637 24,000 6 395 64
2019-11-10 15:10:49 GMT 50.037788 -1.069757 24,000 6 395 0
2019-11-10 15:10:45 GMT 50.025055 -1.071817 24,000 6 395 -64
2019-11-10 15:10:42 GMT 50.025055 -1.071817 24,000 6 395 0
2019-11-10 15:10:39 GMT 50.019634 -1.072726 24,000 6 394 0
2019-11-10 15:10:35 GMT 50.013119 -1.073839 24,000 6 394 0
2019-11-10 15:10:32 GMT 50.005508 -1.075070 24,000 6 394 0
2019-11-10 15:10:26 GMT 49.992462 -1.077238 24,000 6 394 64
2019-11-10 15:10:20 GMT 49.984497 -1.078539 24,000 6 394 64
2019-11-10 15:10:17 GMT 49.975410 -1.080075 24,000 6 395 0
2019-11-10 15:10:14 GMT 49.975410 -1.080075 24,000 6 395 -64
2019-11-10 15:10:11 GMT 49.969589 -1.081040 24,000 6 395 0
2019-11-10 15:10:08 GMT 49.964905 -1.081792 24,000 6 395 -64
2019-11-10 15:10:05 GMT 49.958744 -1.082821 24,000 6 395 0
2019-11-10 15:10:02 GMT 49.952927 -1.083786 24,000 6 395 0
2019-11-10 15:09:57 GMT 49.942032 -1.085568 24,000 6 395 0
2019-11-10 15:09:54 GMT 49.938400 -1.086236 24,000 6 395 -64
2019-11-10 15:09:51 GMT 49.933327 -1.087053 24,000 6 395 0
2019-11-10 15:09:47 GMT 49.920944 -1.089131 24,000 6 395 64
2019-11-10 15:09:44 GMT 49.920944 -1.089131 24,000 6 396 0
2019-11-10 15:09:41 GMT 49.914780 -1.090104 24,000 5 396 0
2019-11-10 15:09:38 GMT 49.908607 -1.091135 24,000 5 396 -64
2019-11-10 15:09:34 GMT 49.902740 -1.092100 24,000 6 396 -64
2019-11-10 15:09:31 GMT 49.892212 -1.093790 24,000 6 397 -64
2019-11-10 15:09:25 GMT 49.886028 -1.094847 24,000 6 396 -64
2019-11-10 15:09:21 GMT 49.878021 -1.096109 24,000 6 397 0
2019-11-10 15:09:18 GMT 49.872158 -1.097074 24,000 6 397 0
2019-11-10 15:09:15 GMT 49.867783 -1.097816 24,000 6 397 0
2019-11-10 15:09:11 GMT 49.860474 -1.099004 24,000 6 398 0
2019-11-10 15:09:08 GMT 49.854263 -1.100006 24,000 6 398 0
2019-11-10 15:09:05 GMT 49.842178 -1.102047 24,000 6 398 0
2019-11-10 15:09:01 GMT 49.842178 -1.102047 24,000 6 398 0
2019-11-10 15:08:57 GMT 49.834869 -1.103235 24,000 6 398 0
2019-11-10 15:08:54 GMT 49.829407 -1.104126 24,000 6 398 0
2019-11-10 15:08:51 GMT 49.818066 -1.105982 24,000 6 398 0
2019-11-10 15:08:48 GMT 49.818066 -1.105982 24,000 6 399 0
2019-11-10 15:08:45 GMT 49.805237 -1.108101 24,000 6 399 0
2019-11-10 15:08:41 GMT 49.798599 -1.109185 24,000 6 399 0
2019-11-10 15:08:37 GMT 49.798599 -1.109185 24,000 6 399 0
2019-11-10 15:08:31 GMT 49.786880 -1.111065 24,000 6 399 0
2019-11-10 15:08:27 GMT 49.780289 -1.112149 24,000 6 399 0
2019-11-10 15:08:24 GMT 49.774429 -1.113161 24,000 6 394 0
2019-11-10 15:08:20 GMT 49.762341 -1.115112 24,000 6 399 0
2019-11-10 15:08:17 GMT 49.756073 -1.116124 24,000 6 399 0
2019-11-10 15:08:14 GMT 49.756073 -1.116124 24,000 6 399 -64
2019-11-10 15:08:08 GMT 49.745087 -1.117931 24,000 6 398 64
2019-11-10 15:08:05 GMT 49.740692 -1.118654 24,025 6 398 0
2019-11-10 15:08:01 GMT 49.731522 -1.120086 24,000 5 398 64
2019-11-10 15:07:57 GMT 49.726044 -1.120967 24,000 5 399 0
2019-11-10 15:07:53 GMT 49.717606 -1.122313 24,000 6 398 0
2019-11-10 15:07:49 GMT 49.710663 -1.123497 24,000 6 398 0
2019-11-10 15:07:46 GMT 49.704430 -1.124466 24,000 5 398 0
2019-11-10 15:07:42 GMT 49.695282 -1.125954 24,000 6 398 0
2019-11-10 15:07:39 GMT 49.692352 -1.126388 24,000 5 398 64
2019-11-10 15:07:36 GMT 49.685390 -1.127509 24,000 6 398 64
2019-11-10 15:07:29 GMT 49.673706 -1.129439 24,000 6 398 -64
2019-11-10 15:07:26 GMT 49.668583 -1.130256 24,000 6 397 -64
2019-11-10 15:07:23 GMT 49.662022 -1.131369 24,000 5 397 0
2019-11-10 15:07:20 GMT 49.656898 -1.132186 24,000 5 397 0
2019-11-10 15:07:16 GMT 49.643028 -1.134413 24,000 5 397 0
2019-11-10 15:07:12 GMT 49.643028 -1.134413 24,000 5 397 0
2019-11-10 15:07:08 GMT 49.635719 -1.135526 24,000 5 397 0
2019-11-10 15:07:05 GMT 49.629547 -1.136579 24,000 6 397 -64
2019-11-10 15:07:02 GMT 49.625523 -1.137233 24,000 5 397 0
2019-11-10 15:06:59 GMT 49.617874 -1.138386 24,000 6 396 0
2019-11-10 15:06:56 GMT 49.605469 -1.140410 24,000 6 396 0
2019-11-10 15:06:53 GMT 49.605469 -1.140410 24,000 6 396 -64
2019-11-10 15:06:50 GMT 49.601120 -1.141133 24,000 6 396 0
2019-11-10 15:06:46 GMT 49.595261 -1.142072 24,000 6 396 64
2019-11-10 15:06:42 GMT 49.587631 -1.143320 24,000 6 396 0
2019-11-10 15:06:39 GMT 49.583256 -1.144063 24,000 6 396 0
2019-11-10 15:06:36 GMT 49.572361 -1.145844 24,000 6 396 -64
2019-11-10 15:06:29 GMT 49.557789 -1.148220 24,000 6 395 0
2019-11-10 15:06:26 GMT 49.550171 -1.149445 24,000 5 395 64
2019-11-10 15:06:19 GMT 49.546555 -1.150095 24,000 6 395 -64
2019-11-10 15:06:16 GMT 49.536003 -1.151783 24,000 5 394 0
2019-11-10 15:06:09 GMT 49.527298 -1.153193 24,000 5 395 0
2019-11-10 15:06:05 GMT 49.520370 -1.154287 24,000 5 395 0
2019-11-10 15:06:02 GMT 49.516403 -1.154901 24,000 6 395 -128
2019-11-10 15:05:59 GMT 49.509144 -1.156088 24,000 6 395 -128
2019-11-10 15:05:56 GMT 49.504021 -1.156979 24,000 6 395 0
2019-11-10 15:05:53 GMT 49.499695 -1.157647 24,000 6 395 0
2019-11-10 15:05:48 GMT 49.484070 -1.160214 24,000 6 394 0
2019-11-10 15:05:45 GMT 49.484070 -1.160214 24,000 6 394 0
2019-11-10 15:05:42 GMT 49.480453 -1.160792 24,000 6 394 0
2019-11-10 15:05:39 GMT 49.473221 -1.162021 24,000 6 395 0
2019-11-10 15:05:35 GMT 49.466675 -1.163033 24,000 6 395 0
2019-11-10 15:05:32 GMT 49.460495 -1.164105 24,000 6 395 0
2019-11-10 15:05:29 GMT 49.447815 -1.166141 24,000 6 394 0
2019-11-10 15:05:25 GMT 49.447815 -1.166141 24,000 5 395 0
2019-11-10 15:05:21 GMT 49.436234 -1.168020 24,000 5 395 -64
2019-11-10 15:05:18 GMT 49.436234 -1.168020 24,000 6 394 0
2019-11-10 15:05:13 GMT 49.424278 -1.169972 24,000 5 394 0
2019-11-10 15:05:10 GMT 49.420647 -1.170550 24,000 5 394 0
2019-11-10 15:05:06 GMT 49.414829 -1.171490 24,000 5 394 0
2019-11-10 15:05:02 GMT 49.406124 -1.172863 24,000 5 394 0
2019-11-10 15:04:58 GMT 49.399246 -1.173917 24,000 5 395 0
2019-11-10 15:04:55 GMT 49.393787 -1.174814 24,000 5 395 -64
2019-11-10 15:04:52 GMT 49.386887 -1.175889 24,000 5 395 -64
2019-11-10 15:04:47 GMT 49.380386 -1.176875 24,000 5 395 -64
2019-11-10 15:04:44 GMT 49.373840 -1.177932 24,000 5 395 64
2019-11-10 15:04:41 GMT 49.365875 -1.179129 24,000 5 395 -64
2019-11-10 15:04:38 GMT 49.362595 -1.179657 24,000 5 395 -64
2019-11-10 15:04:33 GMT 49.354248 -1.180960 24,000 6 394 0
2019-11-10 15:04:30 GMT 49.340858 -1.183054 24,000 5 395 64
2019-11-10 15:04:24 GMT 49.328888 -1.184974 24,000 5 394 0
2019-11-10 15:04:20 GMT 49.328888 -1.184974 24,000 5 394 0
2019-11-10 15:04:17 GMT 49.324890 -1.185584 24,000 5 394 0
2019-11-10 15:04:14 GMT 49.320190 -1.186312 24,000 5 394 0
2019-11-10 15:04:11 GMT 49.312553 -1.187535 24,000 5 394 0
2019-11-10 15:04:07 GMT 49.307144 -1.188354 24,000 5 394 0
2019-11-10 15:04:03 GMT 49.293747 -1.190860 24,000 9 393 0
2019-11-10 15:04:00 GMT 49.293747 -1.190860 24,000 9 394 0
2019-11-10 15:03:57 GMT 49.289062 -1.192017 24,000 9 394 0
2019-11-10 15:03:53 GMT 49.282246 -1.193824 24,000 10 394 64
2019-11-10 15:03:50 GMT 49.274002 -1.196031 24,000 10 394 0
2019-11-10 15:03:47 GMT 49.268967 -1.197439 24,000 10 394 64
2019-11-10 15:03:44 GMT 49.265766 -1.198305 24,000 9 393 0
2019-11-10 15:03:41 GMT 49.260040 -1.199823 24,000 10 394 64
2019-11-10 15:03:37 GMT 49.252487 -1.201876 24,000 10 394 0
2019-11-10 15:03:34 GMT 49.245705 -1.203726 24,000 10 394 0
2019-11-10 15:03:29 GMT 49.238892 -1.205609 24,000 10 394 -64
2019-11-10 15:03:23 GMT 49.228134 -1.208567 24,000 10 394 0
2019-11-10 15:03:19 GMT 49.221310 -1.210375 24,000 9 393 0
2019-11-10 15:03:16 GMT 49.215225 -1.212017 24,000 9 393 0
2019-11-10 15:03:13 GMT 49.209858 -1.213483 24,000 9 392 64
2019-11-10 15:03:09 GMT 49.200897 -1.215891 24,000 9 392 0
2019-11-10 15:03:06 GMT 49.198406 -1.216591 24,000 9 392 0
2019-11-10 15:03:03 GMT 49.192337 -1.218215 24,000 10 393 0
2019-11-10 15:02:58 GMT 49.183044 -1.220680 24,000 10 392 0
2019-11-10 15:02:55 GMT 49.177692 -1.222157 24,000 10 392 0
2019-11-10 15:02:52 GMT 49.173065 -1.223426 24,000 10 392 0
2019-11-10 15:02:46 GMT 49.162354 -1.226384 24,000 10 392 0
2019-11-10 15:02:43 GMT 49.156277 -1.228011 24,000 10 392 0
2019-11-10 15:02:36 GMT 49.137405 -1.233215 24,000 10 391 0
2019-11-10 15:02:33 GMT 49.137405 -1.233215 24,000 10 391 0
2019-11-10 15:02:26 GMT 49.126343 -1.236251 24,000 10 391 0
2019-11-10 15:02:22 GMT 49.119221 -1.238130 24,000 10 390 0
2019-11-10 15:02:19 GMT 49.108200 -1.241103 24,000 10 390 64
2019-11-10 15:02:16 GMT 49.103580 -1.242395 24,000 10 390 64
2019-11-10 15:02:13 GMT 49.097202 -1.244129 24,000 10 390 0
2019-11-10 15:02:06 GMT 49.090080 -1.246009 24,000 10 389 -64
2019-11-10 15:02:02 GMT 49.083344 -1.247793 24,000 10 389 0
2019-11-10 15:01:57 GMT 49.075516 -1.249906 24,000 10 390 -64
2019-11-10 15:01:54 GMT 49.070202 -1.251357 24,000 10 390 0
2019-11-10 15:01:51 GMT 49.063477 -1.253216 24,000 10 390 64
2019-11-10 15:01:46 GMT 49.054607 -1.255694 24,000 10 390 64
2019-11-10 15:01:42 GMT 49.047531 -1.257573 24,000 10 390 -64
2019-11-10 15:01:36 GMT 49.035095 -1.260963 24,000 10 389 0
2019-11-10 15:01:32 GMT 49.025162 -1.263639 24,000 10 389 0
2019-11-10 15:01:29 GMT 49.017334 -1.265752 24,000 9 389 0
2019-11-10 15:01:26 GMT 49.017334 -1.265752 24,000 9 389 0
2019-11-10 15:01:22 GMT 49.010925 -1.267442 24,000 9 389 0
2019-11-10 15:01:18 GMT 49.003830 -1.269343 24,000 9 389 0
2019-11-10 15:01:15 GMT 48.999908 -1.270366 24,000 10 389 0
2019-11-10 15:01:12 GMT 48.993164 -1.272160 24,000 9 389 -64
2019-11-10 15:01:05 GMT 48.980728 -1.275498 24,000 10 389 0
2019-11-10 15:00:59 GMT 48.971146 -1.278076 24,000 10 389 0
2019-11-10 15:00:55 GMT 48.964737 -1.279766 24,000 10 389 -64
2019-11-10 15:00:51 GMT 48.953030 -1.282943 24,000 10 389 -64
2019-11-10 15:00:43 GMT 48.943451 -1.285471 24,000 10 389 -64
2019-11-10 15:00:40 GMT 48.936691 -1.287280 24,000 10 390 0
2019-11-10 15:00:37 GMT 48.933517 -1.288147 24,000 10 390 0
2019-11-10 15:00:34 GMT 48.921097 -1.291544 24,000 10 389 64
2019-11-10 15:00:27 GMT 48.913273 -1.293640 24,000 10 389 0
2019-11-10 15:00:24 GMT 48.909039 -1.294797 24,000 10 389 0
2019-11-10 15:00:21 GMT 48.904057 -1.296098 24,000 10 389 0
2019-11-10 15:00:18 GMT 48.898727 -1.297514 24,000 10 389 0
2019-11-10 15:00:12 GMT 48.881744 -1.302091 24,000 10 389 0
2019-11-10 15:00:09 GMT 48.881744 -1.302091 24,000 10 389 64
2019-11-10 15:00:03 GMT 48.871078 -1.304979 24,000 10 389 0
2019-11-10 14:59:59 GMT 48.862949 -1.307156 24,000 9 385 0
2019-11-10 14:59:56 GMT 48.860458 -1.307866 24,000 10 389 0
2019-11-10 14:59:53 GMT 48.854431 -1.309469 24,000 10 389 0
2019-11-10 14:59:50 GMT 48.849838 -1.310753 24,000 10 388 0
2019-11-10 14:59:47 GMT 48.842789 -1.312655 24,000 10 388 64
2019-11-10 14:59:44 GMT 48.836426 -1.314345 24,000 10 388 0
2019-11-10 14:59:38 GMT 48.820541 -1.318648 24,000 10 387 0
2019-11-10 14:59:34 GMT 48.820541 -1.318648 24,000 9 385 0
2019-11-10 14:59:30 GMT 48.814213 -1.320311 24,000 9 385 0
2019-11-10 14:59:27 GMT 48.808960 -1.321740 24,000 10 384 0
2019-11-10 14:59:24 GMT 48.803329 -1.323219 24,000 10 384 0
2019-11-10 14:59:21 GMT 48.798431 -1.324557 24,000 9 383 0
2019-11-10 14:59:18 GMT 48.791122 -1.326455 24,000 9 383 0
2019-11-10 14:59:13 GMT 48.784138 -1.328334 24,000 9 382 0
2019-11-10 14:59:10 GMT 48.779949 -1.329418 24,000 9 382 0
2019-11-10 14:59:07 GMT 48.773663 -1.331080 24,000 9 381 0
2019-11-10 14:59:02 GMT 48.764969 -1.333430 24,000 9 381 0
2019-11-10 14:58:59 GMT 48.760803 -1.334557 24,000 9 381 0
2019-11-10 14:58:56 GMT 48.754906 -1.336068 24,000 9 381 0
2019-11-10 14:58:53 GMT 48.749039 -1.337656 24,000 9 380 0
2019-11-10 14:58:50 GMT 48.744186 -1.338924 24,000 9 380 0
2019-11-10 14:58:47 GMT 48.736889 -1.340910 24,000 9 380 0
2019-11-10 14:58:43 GMT 48.731689 -1.342234 24,000 9 380 0
2019-11-10 14:58:39 GMT 48.725807 -1.343801 24,000 9 380 -64
2019-11-10 14:58:36 GMT 48.719879 -1.345403 24,000 9 380 0
2019-11-10 14:58:32 GMT 48.712967 -1.347234 24,000 9 380 0
2019-11-10 14:58:29 GMT 48.707794 -1.348572 24,000 9 380 0
2019-11-10 14:58:24 GMT 48.699142 -1.350896 24,000 9 380 0
2019-11-10 14:58:21 GMT 48.694290 -1.352163 24,000 9 380 0
2019-11-10 14:58:18 GMT 48.688751 -1.353642 24,000 9 380 0
2019-11-10 14:58:12 GMT 48.678696 -1.356306 24,000 10 379 64
2019-11-10 14:58:09 GMT 48.672821 -1.357938 24,000 10 379 0
2019-11-10 14:58:03 GMT 48.661427 -1.360931 24,000 10 379 64
2019-11-10 14:57:59 GMT 48.654491 -1.362811 24,000 10 379 64
2019-11-10 14:57:54 GMT 48.645859 -1.365051 24,000 10 379 0
2019-11-10 14:57:51 GMT 48.641693 -1.366178 24,000 10 379 0
2019-11-10 14:57:48 GMT 48.638260 -1.367094 24,000 10 379 0
2019-11-10 14:57:41 GMT 48.624435 -1.370756 24,000 10 379 -64
2019-11-10 14:57:38 GMT 48.620602 -1.371773 24,000 10 379 0
2019-11-10 14:57:34 GMT 48.611298 -1.374277 24,000 10 379 0
2019-11-10 14:57:28 GMT 48.600952 -1.377024 24,000 10 379 0
2019-11-10 14:57:23 GMT 48.593353 -1.379066 24,000 10 379 0
2019-11-10 14:57:20 GMT 48.583313 -1.381748 24,000 10 379 64
2019-11-10 14:57:17 GMT 48.573303 -1.384348 24,000 9 379 0
2019-11-10 14:57:11 GMT 48.568134 -1.385723 24,000 9 379 0
2019-11-10 14:57:08 GMT 48.562595 -1.387168 24,000 9 378 64
2019-11-10 14:57:01 GMT 48.554310 -1.389337 24,000 9 378 64
2019-11-10 14:56:57 GMT 48.547806 -1.391038 24,000 9 377 64
2019-11-10 14:56:52 GMT 48.540253 -1.393010 24,000 9 376 0
2019-11-10 14:56:49 GMT 48.530987 -1.395481 24,000 9 376 0
2019-11-10 14:56:46 GMT 48.530987 -1.395481 24,000 9 376 0
2019-11-10 14:56:42 GMT 48.518280 -1.398785 24,000 9 376 -64
2019-11-10 14:56:39 GMT 48.513809 -1.399962 24,000 10 376 -64
2019-11-10 14:56:32 GMT 48.505966 -1.402095 24,000 10 376 -64
2019-11-10 14:56:29 GMT 48.500820 -1.403503 24,000 10 376 -64
2019-11-10 14:56:26 GMT 48.496353 -1.404630 24,000 9 376 64
2019-11-10 14:56:22 GMT 48.488438 -1.406756 24,000 9 376 0
2019-11-10 14:56:19 GMT 48.477814 -1.409560 24,000 9 376 64
2019-11-10 14:56:15 GMT 48.468246 -1.412095 24,000 9 376 64
2019-11-10 14:56:11 GMT 48.465500 -1.412800 24,000 9 376 0
2019-11-10 14:56:05 GMT 48.460007 -1.414278 24,000 9 376 64
2019-11-10 14:56:01 GMT 48.452778 -1.416152 24,000 9 376 64
2019-11-10 14:55:58 GMT 48.447647 -1.417448 24,000 9 375 64
2019-11-10 14:55:55 GMT 48.440491 -1.419332 24,000 9 375 64
2019-11-10 14:55:52 GMT 48.435696 -1.420633 24,000 9 375 0
2019-11-10 14:55:44 GMT 48.423706 -1.423786 24,000 9 375 0
2019-11-10 14:55:40 GMT 48.414825 -1.426110 24,000 9 375 0
2019-11-10 14:55:37 GMT 48.411438 -1.427025 24,000 9 375 0
2019-11-10 14:55:34 GMT 48.406631 -1.428293 24,000 9 375 -64
2019-11-10 14:55:31 GMT 48.401524 -1.429596 24,000 9 375 -64
2019-11-10 14:55:28 GMT 48.397430 -1.430680 24,000 9 375 -64
2019-11-10 14:55:24 GMT 48.387840 -1.433210 24,000 9 375 -64
2019-11-10 14:55:21 GMT 48.383045 -1.434439 24,000 9 375 0
2019-11-10 14:55:15 GMT 48.373810 -1.436885 24,000 9 375 0
2019-11-10 14:55:12 GMT 48.369736 -1.437941 24,000 9 375 0
2019-11-10 14:55:08 GMT 48.362869 -1.439772 24,000 9 375 0
2019-11-10 14:55:05 GMT 48.356735 -1.441392 24,000 9 375 0
2019-11-10 14:55:01 GMT 48.350224 -1.443112 24,000 9 375 64
2019-11-10 14:54:56 GMT 48.341675 -1.445406 24,000 9 375 64
2019-11-10 14:54:53 GMT 48.334854 -1.447167 24,000 9 374 0
2019-11-10 14:54:47 GMT 48.326344 -1.449400 24,000 9 374 0
2019-11-10 14:54:44 GMT 48.319153 -1.451322 24,000 10 373 0
2019-11-10 14:54:41 GMT 48.310364 -1.453646 24,000 9 372 0
2019-11-10 14:54:37 GMT 48.310364 -1.453646 24,000 9 371 64
2019-11-10 14:54:34 GMT 48.304916 -1.455055 24,000 9 371 64
2019-11-10 14:54:30 GMT 48.297806 -1.456917 24,000 9 371 0
2019-11-10 14:54:26 GMT 48.284306 -1.460459 24,000 9 371 -64
2019-11-10 14:54:23 GMT 48.284306 -1.460459 24,000 9 370 -64
2019-11-10 14:54:20 GMT 48.281250 -1.461252 24,000 9 370 -64
2019-11-10 14:54:16 GMT 48.272156 -1.463711 24,000 9 371 -64
2019-11-10 14:54:10 GMT 48.257957 -1.467398 24,000 9 370 0
2019-11-10 14:54:06 GMT 48.252914 -1.468717 24,000 9 370 0
2019-11-10 14:54:03 GMT 48.252914 -1.468717 24,000 9 371 0
2019-11-10 14:54:00 GMT 48.246826 -1.470337 24,000 9 369 0
2019-11-10 14:53:54 GMT 48.230957 -1.474481 24,000 9 370 0
2019-11-10 14:53:51 GMT 48.230957 -1.474481 24,000 9 370 0
2019-11-10 14:53:44 GMT 48.219131 -1.477591 24,000 9 370 64
2019-11-10 14:53:39 GMT 48.212711 -1.479251 24,000 9 370 0
2019-11-10 14:53:34 GMT 48.203259 -1.481709 24,000 9 370 -64
2019-11-10 14:53:30 GMT 48.182693 -1.487098 24,000 9 370 0
2019-11-10 14:53:23 GMT 48.182693 -1.487098 24,000 9 370 0
2019-11-10 14:53:19 GMT 48.178307 -1.488214 24,000 9 369 0
2019-11-10 14:53:15 GMT 48.170906 -1.490165 24,000 9 369 0
2019-11-10 14:53:12 GMT 48.165848 -1.491464 24,000 9 369 0
2019-11-10 14:53:09 GMT 48.160805 -1.492767 24,000 9 368 64
2019-11-10 14:53:05 GMT 48.152748 -1.494915 24,000 9 368 64
2019-11-10 14:53:02 GMT 48.149399 -1.495760 24,000 9 368 64
2019-11-10 14:52:57 GMT 48.141037 -1.497917 24,000 9 367 64
2019-11-10 14:52:52 GMT 48.131989 -1.500268 24,000 9 366 64
2019-11-10 14:52:48 GMT 48.123688 -1.502449 24,000 9 366 -64
2019-11-10 14:52:44 GMT 48.117004 -1.504166 24,000 9 366 64
2019-11-10 14:52:39 GMT 48.105011 -1.507256 24,000 9 366 -64
2019-11-10 14:52:32 GMT 48.097641 -1.509178 24,000 9 366 0
2019-11-10 14:52:27 GMT 48.090317 -1.511032 24,000 9 367 0
2019-11-10 14:52:24 GMT 48.085648 -1.512268 24,000 9 367 0
2019-11-10 14:52:21 GMT 48.080978 -1.513435 24,000 9 367 0
2019-11-10 14:52:17 GMT 48.074635 -1.515127 24,000 9 367 320
2019-11-10 14:52:14 GMT 48.063538 -1.517967 23,950 9 369 640
2019-11-10 14:52:11 GMT 48.063538 -1.517967 23,925 9 370 896
2019-11-10 14:52:07 GMT 48.057449 -1.519547 23,875 9 372 1280
2019-11-10 14:52:02 GMT 48.040791 -1.523930 23,650 9 374 1984
2019-11-10 14:51:57 GMT 48.040791 -1.523930 23,575 9 376 2368
2019-11-10 14:51:54 GMT 48.029434 -1.526825 23,250 9 380 3648
2019-11-10 14:51:48 GMT 48.024265 -1.528156 22,925 9 380 3648
2019-11-10 14:51:45 GMT 48.018356 -1.529709 22,925 9 380 3648
2019-11-10 14:51:41 GMT 48.011398 -1.531494 22,675 9 384 3264
2019-11-10 14:51:36 GMT 48.003319 -1.533579 22,550 9 386 2752
2019-11-10 14:51:33 GMT 47.998718 -1.534790 22,225 9 387 2432
2019-11-10 14:51:30 GMT 47.994148 -1.535973 22,125 9 387 2432
2019-11-10 14:51:26 GMT 47.985676 -1.538156 22,000 9 388 2560
2019-11-10 14:51:23 GMT 47.981438 -1.539283 21,900 9 388 2560
2019-11-10 14:51:20 GMT 47.975758 -1.540762 21,650 9 388 2368
2019-11-10 14:51:16 GMT 47.967590 -1.542892 21,450 9 389 2752
2019-11-10 14:51:13 GMT 47.957325 -1.545551 21,425 9 389 2688
2019-11-10 14:51:10 GMT 47.951981 -1.546875 21,225 9 390 2240
2019-11-10 14:51:07 GMT 47.951981 -1.546875 21,175 9 390 2560
2019-11-10 14:51:01 GMT 47.942383 -1.549354 21,000 9 390 2240
2019-11-10 14:50:58 GMT 47.934559 -1.551396 20,775 9 390 2496
2019-11-10 14:50:53 GMT 47.925297 -1.553720 20,575 9 390 2304
2019-11-10 14:50:50 GMT 47.912155 -1.557106 20,350 9 389 2176
2019-11-10 14:50:45 GMT 47.912155 -1.557106 20,275 9 389 2176
2019-11-10 14:50:39 GMT 47.903278 -1.559425 20,100 9 389 2176
2019-11-10 14:50:36 GMT 47.897232 -1.561020 19,975 9 388 1984
2019-11-10 14:50:31 GMT 47.888763 -1.563217 19,750 9 386 1920
2019-11-10 14:50:27 GMT 47.881027 -1.565208 19,675 9 385 1920
2019-11-10 14:50:23 GMT 47.873978 -1.567062 19,575 9 385 1984
2019-11-10 14:50:20 GMT 47.869766 -1.568092 19,500 9 384 2048
2019-11-10 14:50:17 GMT 47.864868 -1.569397 19,350 9 382 1920
2019-11-10 14:50:14 GMT 47.857910 -1.571182 19,225 9 382 1856
2019-11-10 14:50:10 GMT 47.850952 -1.572968 19,100 9 381 1856
2019-11-10 14:50:07 GMT 47.844681 -1.574615 18,975 9 379 2048
2019-11-10 14:50:02 GMT 47.837769 -1.576401 18,825 9 378 2240
2019-11-10 14:49:59 GMT 47.832611 -1.577735 18,725 9 378 2304
2019-11-10 14:49:55 GMT 47.826096 -1.579353 18,625 9 377 2240
2019-11-10 14:49:50 GMT 47.815434 -1.582102 18,450 9 376 2304
2019-11-10 14:49:46 GMT 47.808243 -1.583954 18,150 9 375 2560
2019-11-10 14:49:41 GMT 47.796299 -1.586961 17,850 9 374 2752
2019-11-10 14:49:33 GMT 47.788467 -1.588966 17,625 9 374 2816
2019-11-10 14:49:30 GMT 47.783360 -1.590271 17,475 9 374 2816
2019-11-10 14:49:26 GMT 47.776886 -1.591919 17,300 9 374 2688
2019-11-10 14:49:23 GMT 47.763931 -1.595215 17,075 9 373 3136
2019-11-10 14:49:19 GMT 47.753380 -1.597947 16,600 9 373 3328
2019-11-10 14:49:12 GMT 47.747234 -1.599497 16,500 9 374 3328
2019-11-10 14:49:09 GMT 47.747234 -1.599497 16,400 9 375 3200
2019-11-10 14:49:04 GMT 47.736649 -1.602150 16,075 9 375 2816
2019-11-10 14:48:59 GMT 47.729450 -1.603933 15,875 9 375 3136
2019-11-10 14:48:54 GMT 47.716095 -1.607300 15,250 9 376 3520
2019-11-10 14:48:51 GMT 47.716095 -1.607300 15,425 9 376 3328
2019-11-10 14:48:48 GMT 47.706127 -1.609779 15,125 9 377 2688
2019-11-10 14:48:41 GMT 47.699982 -1.611328 14,875 9 375 2304
2019-11-10 14:48:38 GMT 47.694122 -1.612862 14,825 9 374 2240
2019-11-10 14:48:33 GMT 47.685600 -1.614990 14,725 9 373 2240
2019-11-10 14:48:30 GMT 47.680199 -1.616399 14,400 9 372 2752
2019-11-10 14:48:26 GMT 47.663952 -1.620483 14,100 9 370 2816
2019-11-10 14:48:20 GMT 47.663952 -1.620483 14,000 9 370 2816
2019-11-10 14:48:17 GMT 47.657204 -1.622244 13,850 9 370 2752
2019-11-10 14:48:10 GMT 47.646744 -1.624878 13,525 9 369 2496
2019-11-10 14:48:07 GMT 47.642353 -1.626047 13,475 9 368 2496
2019-11-10 14:48:03 GMT 47.628292 -1.629639 13,175 10 367 2560
2019-11-10 14:48:00 GMT 47.628292 -1.629639 13,075 10 367 2560
2019-11-10 14:47:57 GMT 47.625275 -1.630440 13,025 10 366 2496
2019-11-10 14:47:50 GMT 47.608322 -1.634921 12,675 10 363 2624
2019-11-10 14:47:47 GMT 47.608322 -1.634921 12,600 10 363 2752
2019-11-10 14:47:42 GMT 47.600693 -1.637032 12,375 10 362 2880
2019-11-10 14:47:39 GMT 47.594402 -1.638724 12,150 10 363 2624
2019-11-10 14:47:36 GMT 47.590118 -1.639915 12,075 10 363 2560
2019-11-10 14:47:32 GMT 47.583229 -1.641752 11,900 10 362 2560
2019-11-10 14:47:27 GMT 47.575653 -1.643898 11,700 10 361 2304
2019-11-10 14:47:23 GMT 47.567139 -1.646233 11,575 10 358 1024
2019-11-10 14:47:18 GMT 47.560326 -1.648090 11,425 10 351 960
2019-11-10 14:47:15 GMT 47.557114 -1.649006 11,400 9 346 1152
2019-11-10 14:47:10 GMT 47.547619 -1.651611 11,350 8 344 1088
2019-11-10 14:47:06 GMT 47.541641 -1.652824 11,275 4 338 768
2019-11-10 14:46:59 GMT 47.531372 -1.654006 11,175 359 330 960
2019-11-10 14:46:56 GMT 47.525227 -1.654006 11,125 358 328 1024
2019-11-10 14:46:49 GMT 47.515320 -1.653236 11,050 357 324 960
2019-11-10 14:46:45 GMT 47.509415 -1.652687 10,950 357 316 896
2019-11-10 14:46:41 GMT 47.502136 -1.652034 10,900 357 310 960
2019-11-10 14:46:38 GMT 47.500416 -1.651893 10,875 357 305 960
2019-11-10 14:46:34 GMT 47.495041 -1.651382 10,775 357 305 960
2019-11-10 14:46:31 GMT 47.490311 -1.650907 10,725 357 297 960
2019-11-10 14:46:27 GMT 47.480442 -1.649992 10,625 357 289 896
2019-11-10 14:46:19 GMT 47.472244 -1.649254 10,525 357 281 768
2019-11-10 14:46:14 GMT 47.467827 -1.648935 10,475 357 275 1216
2019-11-10 14:46:08 GMT 47.459263 -1.648160 10,300 357 269 2368
2019-11-10 14:46:04 GMT 47.454746 -1.647738 10,200 357 267 3072
2019-11-10 14:45:57 GMT 47.446609 -1.646988 9,825 357 266 3136
2019-11-10 14:45:54 GMT 47.441944 -1.646611 9,650 357 267 3136
2019-11-10 14:45:49 GMT 47.436497 -1.646118 9,400 357 267 3072
2019-11-10 14:45:46 GMT 47.432831 -1.645821 9,250 357 267 3008
2019-11-10 14:45:43 GMT 47.428631 -1.645414 9,150 357 267 3072
2019-11-10 14:45:36 GMT 47.420471 -1.644722 8,725 357 267 3008
2019-11-10 14:45:33 GMT 47.416294 -1.644287 8,550 357 267 2944
2019-11-10 14:45:25 GMT 47.405399 -1.643372 8,125 357 266 2624
2019-11-10 14:45:22 GMT 47.403446 -1.643160 8,075 357 266 2560
2019-11-10 14:45:12 GMT 47.391155 -1.642104 7,600 357 265 2688
2019-11-10 14:45:05 GMT 47.378914 -1.640907 6,950 356 262 2560
2019-11-10 14:45:02 GMT 47.378914 -1.640907 6,950 356 262 2560
2019-11-10 14:44:55 GMT 47.369019 -1.639778 6,800 356 260 2496
2019-11-10 14:44:51 GMT 47.365631 -1.639435 6,675 356 259 2752
2019-11-10 14:44:41 GMT 47.351959 -1.637808 6,175 356 258 2176
2019-11-10 14:44:34 GMT 47.343567 -1.636757 5,900 356 257 2240
We lost coverage of the aircraft here for a total of 108 minutes
2019-11-10 12:56:29 GMT 46.980938 -1.730276 3,325 19 237 -640
2019-11-10 12:56:17 GMT 46.969532 -1.740629 3,450 40 248 -704
2019-11-10 12:56:09 GMT 46.964264 -1.751701 3,550 68 265 -448
2019-11-10 12:55:57 GMT 46.960785 -1.772919 3,625 87 277 0
2019-11-10 12:55:49 GMT 46.961849 -1.789011 3,650 126 280 -384
2019-11-10 12:55:00 GMT 47.009491 -1.837601 4,425 179 288 -1152
2019-11-10 12:54:48 GMT 47.028004 -1.837956 4,725 179 292 -1408
2019-11-10 12:54:41 GMT 47.036362 -1.838150 4,900 179 298 -1408
2019-11-10 12:54:37 GMT 47.041550 -1.838238 4,975 179 298 -1408
2019-11-10 12:54:30 GMT 47.050644 -1.838425 5,150 179 299 -1408
2019-11-10 12:54:27 GMT 47.055328 -1.838520 5,250 179 301 -1792
2019-11-10 12:54:21 GMT 47.062592 -1.838661 5,400 179 302 -2048
2019-11-10 12:54:17 GMT 47.075996 -1.838379 5,650 182 303 -1728
2019-11-10 12:54:12 GMT 47.075996 -1.838379 5,700 194 308 -1344
2019-11-10 12:54:06 GMT 47.084152 -1.836639 5,825 194 308 -1344
2019-11-10 12:54:01 GMT 47.090744 -1.834030 5,950 198 311 -1152
2019-11-10 12:53:56 GMT 47.098480 -1.830460 6,050 198 317 -1280
2019-11-10 12:53:51 GMT 47.104904 -1.827393 6,150 199 319 -1408
2019-11-10 12:53:42 GMT 47.119949 -1.820229 6,400 198 326 -1472
2019-11-10 12:53:35 GMT 47.127762 -1.816477 6,550 199 332 -1536
2019-11-10 12:53:31 GMT 47.133629 -1.813660 6,650 199 334 -1664
2019-11-10 12:53:25 GMT 47.143078 -1.809082 6,850 199 338 -1984
2019-11-10 12:53:20 GMT 47.150574 -1.805534 7,025 198 342 -2432
2019-11-10 12:53:14 GMT 47.158401 -1.801826 7,225 198 343 -2368
2019-11-10 12:53:04 GMT 47.174286 -1.794342 7,575 198 351 -1728
2019-11-10 12:52:56 GMT 47.195309 -1.784574 7,900 198 359 -2240
2019-11-10 12:52:51 GMT 47.195309 -1.784574 8,025 198 364 -3136
2019-11-10 12:52:46 GMT 47.206810 -1.779222 8,350 198 364 -3136
2019-11-10 12:52:40 GMT 47.212921 -1.776352 8,550 198 366 -3136
2019-11-10 12:52:33 GMT 47.222916 -1.771616 8,850 198 366 -3136
2019-11-10 12:52:23 GMT 47.239719 -1.763587 9,400 199 371 -2688
2019-11-10 12:52:20 GMT 47.246613 -1.760284 9,575 198 372 -2624
2019-11-10 12:52:13 GMT 47.256107 -1.755700 9,875 199 375 -3072
2019-11-10 12:52:02 GMT 47.273666 -1.747169 10,425 199 378 -3200
2019-11-10 12:51:59 GMT 47.279339 -1.744432 10,600 199 379 -3264
2019-11-10 12:51:55 GMT 47.287674 -1.740372 10,875 199 380 -3264
2019-11-10 12:51:50 GMT 47.293671 -1.737419 11,275 199 381 -3072
2019-11-10 12:51:43 GMT 47.305756 -1.731514 11,450 199 383 -3136
2019-11-10 12:51:39 GMT 47.313507 -1.727671 11,700 199 385 -3392
2019-11-10 12:51:32 GMT 47.323975 -1.722588 12,050 199 387 -2944
2019-11-10 12:51:29 GMT 47.329056 -1.720065 12,250 199 386 -3072
2019-11-10 12:51:23 GMT 47.341003 -1.714211 12,575 199 390 -3200
2019-11-10 12:51:19 GMT 47.347534 -1.711050 12,775 199 391 -3072
2019-11-10 12:51:12 GMT 47.359222 -1.705205 13,175 200 395 -2816
2019-11-10 12:51:09 GMT 47.364395 -1.702538 13,275 200 396 -2880
2019-11-10 12:51:04 GMT 47.372726 -1.698349 13,500 200 406 -2816
2019-11-10 12:51:01 GMT 47.377579 -1.695808 13,725 200 403 -2432
2019-11-10 12:50:58 GMT 47.382523 -1.693336 13,750 200 403 -2432
2019-11-10 12:50:54 GMT 47.392040 -1.688444 14,050 200 407 -2816
2019-11-10 12:50:51 GMT 47.401302 -1.683796 14,125 200 407 -2816
2019-11-10 12:50:48 GMT 47.401302 -1.683796 14,225 199 409 -2688
2019-11-10 12:50:43 GMT 47.409916 -1.679429 14,550 199 414 -2944
2019-11-10 12:50:40 GMT 47.415344 -1.676720 14,600 199 414 -3136
2019-11-10 12:50:31 GMT 47.433891 -1.667387 15,175 199 419 -2944
2019-11-10 12:50:27 GMT 47.439423 -1.664635 15,300 199 419 -3072
2019-11-10 12:50:23 GMT 47.446014 -1.661339 15,550 199 420 -3520
2019-11-10 12:50:20 GMT 47.452698 -1.658112 15,700 199 421 -3584
2019-11-10 12:50:16 GMT 47.458981 -1.654992 15,925 199 422 -3584
2019-11-10 12:50:13 GMT 47.464149 -1.652456 16,100 199 423 -3264
2019-11-10 12:50:10 GMT 47.469727 -1.649734 16,275 199 428 -2880
2019-11-10 12:50:07 GMT 47.476067 -1.646682 16,400 199 424 -3136
2019-11-10 12:50:02 GMT 47.492500 -1.638512 16,775 199 431 -3456
2019-11-10 12:49:58 GMT 47.492500 -1.638512 16,875 199 429 -2944
2019-11-10 12:49:54 GMT 47.500042 -1.634780 17,175 199 431 -3456
2019-11-10 12:49:51 GMT 47.506092 -1.631751 17,225 199 432 -3520
2019-11-10 12:49:46 GMT 47.515594 -1.627007 17,450 199 433 -3520
2019-11-10 12:49:42 GMT 47.523926 -1.622681 17,825 200 435 -2944
2019-11-10 12:49:38 GMT 47.530392 -1.619216 18,050 202 438 -2624
2019-11-10 12:49:35 GMT 47.537521 -1.614922 18,175 204 439 -2688
2019-11-10 12:49:30 GMT 47.545578 -1.609154 18,375 211 444 -3072
2019-11-10 12:49:27 GMT 47.551666 -1.604145 18,850 211 443 -3328
2019-11-10 12:49:24 GMT 47.556602 -1.599919 18,725 211 443 -3328
2019-11-10 12:49:21 GMT 47.561920 -1.595352 19,050 211 446 -2752
2019-11-10 12:49:17 GMT 47.569061 -1.589241 19,050 211 446 -2752
2019-11-10 12:49:14 GMT 47.574783 -1.584297 19,250 211 449 -2688
2019-11-10 12:49:11 GMT 47.579819 -1.579971 19,950 211 452 -3072
2019-11-10 12:49:08 GMT 47.585976 -1.574707 19,550 211 453 -3328
2019-11-10 12:49:03 GMT 47.594635 -1.567242 19,825 211 454 -3072
2019-11-10 12:49:00 GMT 47.599010 -1.563509 19,900 211 456 -2688
2019-11-10 12:48:57 GMT 47.604877 -1.558509 20,150 211 460 -2048
2019-11-10 12:48:54 GMT 47.609997 -1.554072 20,175 211 461 -2048
2019-11-10 12:48:51 GMT 47.616653 -1.548368 20,300 211 466 -3008
2019-11-10 12:48:47 GMT 47.623360 -1.542593 20,475 211 468 -3072
2019-11-10 12:48:43 GMT 47.633469 -1.533897 20,750 211 470 -2880
2019-11-10 12:48:40 GMT 47.637268 -1.530670 20,925 211 474 -2688
2019-11-10 12:48:37 GMT 47.643703 -1.525128 21,000 211 474 -2752
2019-11-10 12:48:33 GMT 47.649754 -1.519916 21,175 211 476 -3200
2019-11-10 12:48:29 GMT 47.657341 -1.513226 21,850 211 482 -2688
2019-11-10 12:48:26 GMT 47.664185 -1.507240 21,600 211 480 -3072
2019-11-10 12:48:23 GMT 47.669537 -1.502521 21,775 211 482 -2816
2019-11-10 12:48:20 GMT 47.676041 -1.496750 21,900 211 484 -2688
2019-11-10 12:48:16 GMT 47.681442 -1.492012 22,025 211 486 -2944
2019-11-10 12:48:13 GMT 47.688019 -1.486253 22,200 211 488 -3328
2019-11-10 12:48:09 GMT 47.704056 -1.472374 22,525 211 492 -2752
2019-11-10 12:48:05 GMT 47.704056 -1.472374 22,700 211 495 -2752
2019-11-10 12:48:02 GMT 47.708817 -1.468323 22,725 211 495 -2752
2019-11-10 12:47:58 GMT 47.717159 -1.461252 22,950 210 498 -3008
2019-11-10 12:47:55 GMT 47.723583 -1.455829 23,050 210 500 -2944
2019-11-10 12:47:52 GMT 47.729645 -1.450813 23,225 210 503 -2880
2019-11-10 12:47:48 GMT 47.737793 -1.444153 23,450 209 506 -2944
2019-11-10 12:47:45 GMT 47.746033 -1.437492 23,600 209 507 -3072
2019-11-10 12:47:42 GMT 47.750977 -1.433510 23,775 209 510 -3328
2019-11-10 12:47:39 GMT 47.757614 -1.428154 23,950 209 512 -3392
2019-11-10 12:47:36 GMT 47.765945 -1.421494 24,975 208 524 -2880
2019-11-10 12:47:33 GMT 47.770557 -1.417870 24,275 209 515 -2880
2019-11-10 12:47:30 GMT 47.782379 -1.408433 24,500 209 518 -3712
2019-11-10 12:47:27 GMT 47.782379 -1.408433 24,650 208 519 -3904
2019-11-10 12:47:24 GMT 47.790390 -1.402130 24,825 208 519 -3840
2019-11-10 12:47:20 GMT 47.797211 -1.396843 25,025 208 522 -3072
2019-11-10 12:47:15 GMT 47.807053 -1.389137 25,375 208 526 -3264
2019-11-10 12:47:12 GMT 47.813507 -1.384140 25,400 208 526 -3264
2019-11-10 12:47:08 GMT 47.821243 -1.378029 25,550 208 527 -3392
2019-11-10 12:47:05 GMT 47.827724 -1.372939 25,750 208 529 -3328
2019-11-10 12:47:02 GMT 47.846855 -1.358009 26,125 208 531 -3840
2019-11-10 12:46:58 GMT 47.846855 -1.358009 26,275 208 532 -3776
2019-11-10 12:46:55 GMT 47.850769 -1.354958 26,375 208 534 -3264
2019-11-10 12:46:51 GMT 47.859100 -1.348501 26,575 208 537 -2496
2019-11-10 12:46:48 GMT 47.867477 -1.342049 26,750 208 541 -1856
2019-11-10 12:46:45 GMT 47.873253 -1.337656 26,825 208 543 -1536
2019-11-10 12:46:40 GMT 47.884415 -1.329071 27,150 207 552 -1984
2019-11-10 12:46:37 GMT 47.890778 -1.324265 27,000 207 553 -2432
2019-11-10 12:46:34 GMT 47.897186 -1.319458 27,100 207 554 -3264
2019-11-10 12:46:29 GMT 47.909134 -1.310669 27,600 206 556 -3072
2019-11-10 12:46:25 GMT 47.918777 -1.303641 27,725 206 556 -3072
2019-11-10 12:46:22 GMT 47.927113 -1.297584 27,975 206 558 -2816
2019-11-10 12:46:14 GMT 47.942459 -1.286499 28,300 207 567 -1984
2019-11-10 12:46:11 GMT 47.950882 -1.280388 28,450 207 567 -1984
2019-11-10 12:46:07 GMT 47.960770 -1.273146 28,500 207 571 -1856
2019-11-10 12:46:04 GMT 47.965988 -1.269333 28,525 207 571 -1856
2019-11-10 12:46:00 GMT 47.977806 -1.260470 28,625 208 573 -1856
2019-11-10 12:45:57 GMT 47.990387 -1.250244 28,925 210 576 -3392
2019-11-10 12:45:51 GMT 47.997311 -1.244272 29,050 210 575 -4416
2019-11-10 12:45:48 GMT 48.004669 -1.238004 29,375 210 575 -2368
2019-11-10 12:45:45 GMT 48.013458 -1.230537 29,575 210 574 -4096
2019-11-10 12:45:42 GMT 48.018539 -1.226314 29,725 210 575 -2240
2019-11-10 12:45:38 GMT 48.026413 -1.219757 29,850 210 575 -2368
2019-11-10 12:45:35 GMT 48.034790 -1.212822 30,050 209 577 -2432
2019-11-10 12:45:32 GMT 48.041817 -1.207017 30,125 209 576 -3136
2019-11-10 12:45:29 GMT 48.049267 -1.200961 30,300 209 575 -4160
2019-11-10 12:45:26 GMT 48.056305 -1.195312 30,500 209 571 -5184
2019-11-10 12:45:22 GMT 48.065598 -1.187828 30,850 209 568 -5376
2019-11-10 12:45:19 GMT 48.074799 -1.180481 31,150 209 562 -5376
2019-11-10 12:45:16 GMT 48.081207 -1.175331 31,450 209 556 -5504
2019-11-10 12:45:12 GMT 48.087570 -1.170250 31,725 209 555 -5504
2019-11-10 12:45:09 GMT 48.093842 -1.165169 31,875 209 550 -5568
2019-11-10 12:45:06 GMT 48.100113 -1.160088 32,350 209 544 -5440
2019-11-10 12:45:03 GMT 48.108479 -1.153212 32,550 209 541 -5312
2019-11-10 12:45:00 GMT 48.113297 -1.149307 32,750 209 537 -5120
2019-11-10 12:44:57 GMT 48.121948 -1.142166 33,200 210 528 -4224
2019-11-10 12:44:54 GMT 48.130077 -1.135395 33,375 210 528 -4032
2019-11-10 12:44:50 GMT 48.136459 -1.130013 33,525 210 526 -3584
2019-11-10 12:44:46 GMT 48.146187 -1.121873 33,825 210 526 -448
2019-11-10 12:44:41 GMT 48.161407 -1.108896 33,975 210 526 -256
2019-11-10 12:44:38 GMT 48.161407 -1.108896 33,975 211 527 64
2019-11-10 12:44:35 GMT 48.167725 -1.103492 33,975 213 526 -128
2019-11-10 12:44:29 GMT 48.180359 -1.092435 33,975 212 528 -128
2019-11-10 12:44:26 GMT 48.186592 -1.086707 34,400 230 506 0
2019-11-10 12:44:23 GMT 48.192673 -1.080674 34,000 218 521 -64
2019-11-10 12:44:18 GMT 48.202606 -1.069336 34,000 220 518 -64
2019-11-10 12:44:13 GMT 48.216888 -1.048561 34,000 229 507 0
2019-11-10 12:44:09 GMT 48.216888 -1.048561 34,000 229 507 0
2019-11-10 12:44:05 GMT 48.225037 -1.033349 33,975 237 497 64
2019-11-10 12:44:02 GMT 48.227375 -1.028234 33,975 235 499 64
2019-11-10 12:43:59 GMT 48.231079 -1.019545 34,000 242 489 64
2019-11-10 12:43:56 GMT 48.234402 -1.010670 34,000 242 489 64
2019-11-10 12:43:52 GMT 48.238266 -0.998527 33,975 248 482 0
2019-11-10 12:43:48 GMT 48.241154 -0.987396 34,000 253 473 -64
2019-11-10 12:43:45 GMT 48.245575 -0.963617 34,000 257 465 0
2019-11-10 12:43:41 GMT 48.246925 -0.951112 34,000 262 456 -64
2019-11-10 12:43:37 GMT 48.246925 -0.951112 34,000 264 450 -256
2019-11-10 12:43:33 GMT 48.247513 -0.926162 34,050 272 432 -960
2019-11-10 12:43:30 GMT 48.247513 -0.926162 34,075 274 429 -1088
2019-11-10 12:43:27 GMT 48.247299 -0.920828 34,100 277 422 -1472
2019-11-10 12:43:24 GMT 48.246552 -0.912147 34,200 281 414 -1856
2019-11-10 12:43:21 GMT 48.245224 -0.902076 34,275 285 407 -2176
2019-11-10 12:43:17 GMT 48.243576 -0.893414 34,400 291 398 -2240
2019-11-10 12:43:14 GMT 48.241013 -0.883132 34,600 293 394 -2240
2019-11-10 12:43:11 GMT 48.239662 -0.878689 34,600 297 389 -2240
2019-11-10 12:43:08 GMT 48.236683 -0.870161 34,750 301 383 -2176
2019-11-10 12:43:04 GMT 48.229935 -0.855560 34,925 346 350 -2048
2019-11-10 12:43:01 GMT 48.229935 -0.855560 35,000 319 365 -1728
2019-11-10 12:42:58 GMT 48.226547 -0.849750 35,050 314 368 -1728
2019-11-10 12:42:55 GMT 48.223663 -0.845454 35,350 346 350 -2048
2019-11-10 12:42:51 GMT 48.217785 -0.837997 35,250 329 357 -1792
2019-11-10 12:42:46 GMT 48.205582 -0.827144 35,475 336 354 -1728
2019-11-10 12:42:42 GMT 48.205582 -0.827144 35,625 342 352 -1856
2019-11-10 12:42:36 GMT 48.187546 -0.819397 35,825 349 350 -1792
2019-11-10 12:42:32 GMT 48.187546 -0.819397 35,850 352 351 -1152
2019-11-10 12:42:28 GMT 48.183060 -0.818411 35,950 353 355 -384
2019-11-10 12:42:22 GMT 48.173309 -0.816439 35,950 353 357 -192
2019-11-10 12:42:19 GMT 48.164154 -0.814608 35,975 353 359 -64
2019-11-10 12:42:16 GMT 48.164154 -0.814608 35,975 353 360 -64
2019-11-10 12:42:13 GMT 48.158844 -0.813538 35,975 353 361 -64
2019-11-10 12:42:10 GMT 48.153915 -0.812566 36,000 353 362 -64
2019-11-10 12:42:06 GMT 48.142273 -0.810242 36,000 353 364 0
2019-11-10 12:42:03 GMT 48.142273 -0.810242 36,000 353 363 0
2019-11-10 12:42:00 GMT 48.136963 -0.809143 36,000 353 363 64
2019-11-10 12:41:56 GMT 48.130280 -0.807770 36,000 353 364 64
2019-11-10 12:41:50 GMT 48.118927 -0.805435 36,000 353 366 0
2019-11-10 12:41:44 GMT 48.110184 -0.803581 36,000 353 367 64
2019-11-10 12:41:40 GMT 48.103779 -0.802284 36,000 353 370 64
2019-11-10 12:41:37 GMT 48.098377 -0.801227 35,975 353 371 0
2019-11-10 12:41:33 GMT 48.089859 -0.799461 36,000 353 373 -64
2019-11-10 12:41:29 GMT 48.084366 -0.798363 36,000 353 373 0
2019-11-10 12:41:25 GMT 48.079243 -0.797283 36,000 353 373 0
2019-11-10 12:41:22 GMT 48.073425 -0.796097 36,000 353 374 -64
2019-11-10 12:41:19 GMT 48.063812 -0.794174 36,000 353 374 0
2019-11-10 12:41:13 GMT 48.049438 -0.791290 36,000 353 375 -64
2019-11-10 12:41:08 GMT 48.049438 -0.791290 36,000 353 375 -64
2019-11-10 12:41:05 GMT 48.035347 -0.788480 36,000 353 375 0
2019-11-10 12:41:01 GMT 48.035347 -0.788480 36,000 353 375 0
2019-11-10 12:40:58 GMT 48.030167 -0.787445 36,000 353 375 0
2019-11-10 12:40:55 GMT 48.025009 -0.786438 36,000 353 375 64
2019-11-10 12:40:51 GMT 48.019520 -0.785311 36,000 353 375 0
2019-11-10 12:40:48 GMT 48.009567 -0.783325 36,000 353 375 0
2019-11-10 12:40:45 GMT 48.009567 -0.783325 36,000 353 376 0
2019-11-10 12:40:40 GMT 48.000595 -0.781540 36,000 353 376 -64
2019-11-10 12:40:37 GMT 47.996147 -0.780663 36,000 353 376 -64
2019-11-10 12:40:34 GMT 47.989910 -0.779395 36,000 353 376 -64
2019-11-10 12:40:29 GMT 47.981323 -0.777626 36,000 353 376 -64
2019-11-10 12:40:26 GMT 47.977158 -0.776802 36,000 353 376 0
2019-11-10 12:40:22 GMT 47.969604 -0.775291 36,000 353 377 64
2019-11-10 12:40:19 GMT 47.964752 -0.774261 36,000 353 376 0
2019-11-10 12:40:16 GMT 47.959606 -0.773198 36,000 353 376 0
2019-11-10 12:40:13 GMT 47.952717 -0.771860 36,000 353 376 0
2019-11-10 12:40:09 GMT 47.940628 -0.769386 36,000 353 377 64
2019-11-10 12:40:06 GMT 47.940628 -0.769386 36,000 353 377 64
2019-11-10 12:40:02 GMT 47.930283 -0.767326 36,000 353 377 0
2019-11-10 12:39:56 GMT 47.924744 -0.766159 36,000 353 377 -128
2019-11-10 12:39:52 GMT 47.916458 -0.764511 36,000 353 377 -128
2019-11-10 12:39:49 GMT 47.911938 -0.763691 36,000 353 378 -64
2019-11-10 12:39:45 GMT 47.904694 -0.762245 36,000 353 378 64
2019-11-10 12:39:42 GMT 47.899155 -0.761147 36,000 353 379 64
2019-11-10 12:39:38 GMT 47.893921 -0.760099 36,000 353 379 0
2019-11-10 12:39:32 GMT 47.882793 -0.757986 36,000 353 381 -64
2019-11-10 12:39:29 GMT 47.877907 -0.757000 36,000 353 382 0
2019-11-10 12:39:25 GMT 47.870876 -0.755662 36,000 353 383 0
2019-11-10 12:39:22 GMT 47.865601 -0.754623 36,000 353 383 0
2019-11-10 12:39:16 GMT 47.856491 -0.752701 36,000 353 384 0
2019-11-10 12:39:13 GMT 47.850861 -0.751534 36,000 353 384 -64
2019-11-10 12:39:10 GMT 47.845600 -0.750451 36,000 353 384 64
2019-11-10 12:39:07 GMT 47.839268 -0.749183 36,000 353 384 64
2019-11-10 12:39:03 GMT 47.833282 -0.747894 36,000 353 384 64
2019-11-10 12:39:00 GMT 47.818134 -0.744817 36,000 353 384 0
2019-11-10 12:38:56 GMT 47.818134 -0.744817 36,000 353 384 0
2019-11-10 12:38:53 GMT 47.815704 -0.744324 36,000 353 384 64
2019-11-10 12:38:48 GMT 47.806503 -0.742470 36,000 353 384 0
2019-11-10 12:38:43 GMT 47.798080 -0.740822 36,000 353 384 0
2019-11-10 12:38:40 GMT 47.792065 -0.739605 36,000 353 385 64
2019-11-10 12:38:36 GMT 47.784668 -0.738144 36,000 353 385 64
2019-11-10 12:38:33 GMT 47.780457 -0.737320 36,000 353 385 0
2019-11-10 12:38:30 GMT 47.774467 -0.736084 36,000 353 385 0
2019-11-10 12:38:26 GMT 47.768463 -0.734848 36,000 353 385 64
2019-11-10 12:38:23 GMT 47.760681 -0.733337 36,000 353 385 0
2019-11-10 12:38:20 GMT 47.757156 -0.732582 36,000 353 385 0
2019-11-10 12:38:17 GMT 47.751144 -0.731436 36,000 353 385 0
2019-11-10 12:38:14 GMT 47.746208 -0.730450 36,000 353 385 -64
2019-11-10 12:38:10 GMT 47.740219 -0.729218 36,000 353 385 0
2019-11-10 12:38:07 GMT 47.731705 -0.727501 36,000 353 385 0
2019-11-10 12:38:02 GMT 47.723583 -0.725943 36,000 353 385 -64
2019-11-10 12:37:58 GMT 47.715858 -0.724393 36,000 353 385 -128
2019-11-10 12:37:53 GMT 47.702404 -0.721717 36,000 353 385 0
2019-11-10 12:37:50 GMT 47.702404 -0.721717 36,000 353 385 0
2019-11-10 12:37:46 GMT 47.696411 -0.720497 36,000 353 385 0
2019-11-10 12:37:42 GMT 47.690094 -0.719261 36,000 353 385 0
2019-11-10 12:37:37 GMT 47.681271 -0.717562 36,000 353 385 0
2019-11-10 12:37:34 GMT 47.673496 -0.716013 36,000 353 385 0
2019-11-10 12:37:30 GMT 47.666466 -0.714604 36,000 353 385 0
2019-11-10 12:37:25 GMT 47.660477 -0.713425 36,000 353 385 0
2019-11-10 12:37:22 GMT 47.654114 -0.712120 36,000 353 385 64
2019-11-10 12:37:19 GMT 47.648483 -0.711021 36,000 353 385 64
2019-11-10 12:37:16 GMT 47.642853 -0.709923 36,000 353 385 64
2019-11-10 12:37:12 GMT 47.636860 -0.708689 36,000 353 385 64
2019-11-10 12:37:09 GMT 47.632622 -0.707914 36,000 353 386 0
2019-11-10 12:37:06 GMT 47.625546 -0.706505 36,000 353 385 -64
2019-11-10 12:37:03 GMT 47.622009 -0.705801 36,000 353 386 -64
2019-11-10 12:37:00 GMT 47.615295 -0.704498 36,000 353 386 64
2019-11-10 12:36:57 GMT 47.609619 -0.703400 36,000 353 386 64
2019-11-10 12:36:51 GMT 47.600780 -0.701716 36,000 353 387 0
2019-11-10 12:36:48 GMT 47.592636 -0.700104 36,000 353 387 0
2019-11-10 12:36:45 GMT 47.589111 -0.699417 36,000 353 387 -64
2019-11-10 12:36:42 GMT 47.583790 -0.698407 36,000 353 387 -64
2019-11-10 12:36:39 GMT 47.573502 -0.696396 36,000 353 387 -64
2019-11-10 12:36:36 GMT 47.573502 -0.696396 36,000 353 387 -64
2019-11-10 12:36:32 GMT 47.566406 -0.694954 36,000 353 387 0
2019-11-10 12:36:29 GMT 47.561462 -0.693993 36,000 353 387 0
2019-11-10 12:36:26 GMT 47.549759 -0.691646 36,000 353 387 0
2019-11-10 12:36:23 GMT 47.549759 -0.691646 36,000 353 386 0
2019-11-10 12:36:20 GMT 47.543747 -0.690491 36,000 353 386 0
2019-11-10 12:36:15 GMT 47.533466 -0.688406 36,000 353 386 0
2019-11-10 12:36:12 GMT 47.524994 -0.686716 36,000 353 386 -64
2019-11-10 12:36:06 GMT 47.517872 -0.685307 36,000 353 386 64
2019-11-10 12:36:02 GMT 47.512573 -0.684242 36,000 353 386 0
2019-11-10 12:35:59 GMT 47.507256 -0.683195 36,000 353 387 0
2019-11-10 12:35:56 GMT 47.497009 -0.681152 36,000 353 387 0
2019-11-10 12:35:49 GMT 47.489182 -0.679573 36,000 353 387 64
2019-11-10 12:35:45 GMT 47.482819 -0.678337 36,000 353 387 0
2019-11-10 12:35:42 GMT 47.477142 -0.677238 36,000 353 387 0
2019-11-10 12:35:39 GMT 47.472198 -0.676208 36,000 353 387 -64
2019-11-10 12:35:34 GMT 47.464371 -0.674698 36,000 353 387 0
2019-11-10 12:35:31 GMT 47.457630 -0.673335 36,000 353 387 64
2019-11-10 12:35:28 GMT 47.453396 -0.672490 36,000 353 387 64
2019-11-10 12:35:25 GMT 47.447018 -0.671222 36,000 353 387 0
2019-11-10 12:35:22 GMT 47.441711 -0.670166 36,000 353 387 0
2019-11-10 12:35:18 GMT 47.436035 -0.668999 36,000 353 387 0
2019-11-10 12:35:14 GMT 47.428253 -0.667488 36,000 353 387 0
2019-11-10 12:35:11 GMT 47.422905 -0.666433 36,000 353 387 0
2019-11-10 12:35:08 GMT 47.418320 -0.665497 36,000 353 387 0
2019-11-10 12:35:03 GMT 47.408752 -0.663546 36,000 353 387 0
2019-11-10 12:35:00 GMT 47.402710 -0.662407 36,000 353 387 0
2019-11-10 12:34:52 GMT 47.389938 -0.659866 36,000 353 387 0
2019-11-10 12:34:49 GMT 47.383896 -0.658687 36,000 353 387 -64
2019-11-10 12:34:44 GMT 47.365459 -0.655095 36,000 353 387 0
2019-11-10 12:34:40 GMT 47.365459 -0.655095 36,000 353 387 0
2019-11-10 12:34:32 GMT 47.353401 -0.652701 36,000 353 387 128
2019-11-10 12:34:28 GMT 47.338806 -0.649910 36,000 353 388 0
2019-11-10 12:34:25 GMT 47.338806 -0.649910 36,000 353 388 0
2019-11-10 12:34:22 GMT 47.335621 -0.649250 36,000 353 388 0
2019-11-10 12:34:19 GMT 47.330292 -0.648262 36,000 353 388 0
2019-11-10 12:34:14 GMT 47.316395 -0.645517 36,000 353 389 0
2019-11-10 12:34:11 GMT 47.310665 -0.644390 36,000 353 389 0
2019-11-10 12:34:08 GMT 47.310665 -0.644390 36,000 353 389 64
2019-11-10 12:34:04 GMT 47.303543 -0.643052 36,000 353 389 64
2019-11-10 12:34:00 GMT 47.297169 -0.641785 36,000 353 389 64
2019-11-10 12:33:57 GMT 47.290745 -0.640517 36,000 353 389 0
2019-11-10 12:33:54 GMT 47.285385 -0.639473 36,000 353 389 -64
2019-11-10 12:33:50 GMT 47.279339 -0.638334 36,000 353 389 -64
2019-11-10 12:33:47 GMT 47.274357 -0.637348 36,000 353 389 -64
2019-11-10 12:33:43 GMT 47.266159 -0.635696 36,000 353 389 0
2019-11-10 12:33:40 GMT 47.260437 -0.634598 36,000 353 389 -64
2019-11-10 12:33:37 GMT 47.256180 -0.633705 36,000 353 389 0
2019-11-10 12:33:33 GMT 47.242630 -0.631027 36,000 353 389 0
2019-11-10 12:33:27 GMT 47.238327 -0.630203 36,000 353 389 64
2019-11-10 12:33:24 GMT 47.231232 -0.628830 36,000 353 389 64
2019-11-10 12:33:20 GMT 47.224777 -0.627594 36,000 353 389 64
2019-11-10 12:33:17 GMT 47.219425 -0.626502 36,000 353 389 0
2019-11-10 12:33:10 GMT 47.207657 -0.624229 36,000 353 390 64
2019-11-10 12:33:06 GMT 47.200851 -0.622981 36,000 353 390 0
2019-11-10 12:33:03 GMT 47.194427 -0.621713 36,000 353 390 -64
2019-11-10 12:32:59 GMT 47.187256 -0.620305 36,000 353 390 -64
2019-11-10 12:32:56 GMT 47.181931 -0.619286 36,000 353 390 0
2019-11-10 12:32:53 GMT 47.176552 -0.618263 36,000 353 390 0
2019-11-10 12:32:50 GMT 47.170128 -0.617065 36,000 353 390 0
2019-11-10 12:32:46 GMT 47.165096 -0.616079 36,000 353 390 0
2019-11-10 12:32:43 GMT 47.157230 -0.614530 36,000 353 390 0
2019-11-10 12:32:39 GMT 47.151901 -0.613518 36,000 353 390 0
2019-11-10 12:32:36 GMT 47.146523 -0.612488 36,000 353 390 -64
2019-11-10 12:32:32 GMT 47.140099 -0.611220 36,000 353 390 0
2019-11-10 12:32:28 GMT 47.131851 -0.609673 36,000 353 390 0
2019-11-10 12:32:25 GMT 47.119335 -0.607206 36,000 353 390 0
2019-11-10 12:32:21 GMT 47.119335 -0.607206 36,000 353 390 0
2019-11-10 12:32:18 GMT 47.114311 -0.606220 36,000 353 390 0
2019-11-10 12:32:14 GMT 47.101089 -0.603630 36,000 353 391 0
2019-11-10 12:32:11 GMT 47.101089 -0.603630 36,000 353 390 64
2019-11-10 12:32:07 GMT 47.095367 -0.602531 36,000 353 391 0
2019-11-10 12:32:04 GMT 47.089962 -0.601431 36,000 353 391 0
2019-11-10 12:32:01 GMT 47.082794 -0.600023 36,000 353 391 0
2019-11-10 12:31:57 GMT 47.076736 -0.598824 36,000 353 391 -64
2019-11-10 12:31:54 GMT 47.071342 -0.597769 36,000 353 391 -64
2019-11-10 12:31:48 GMT 47.059841 -0.595515 36,000 353 391 0
2019-11-10 12:31:44 GMT 47.047646 -0.593121 36,000 353 392 64
2019-11-10 12:31:41 GMT 47.042618 -0.592135 36,000 353 392 64
2019-11-10 12:31:38 GMT 47.042618 -0.592135 36,000 353 392 64
2019-11-10 12:31:33 GMT 47.034008 -0.590445 36,000 353 392 0
2019-11-10 12:31:30 GMT 47.028282 -0.589318 36,000 353 392 0
2019-11-10 12:31:22 GMT 47.013519 -0.586464 36,000 353 392 0
2019-11-10 12:31:19 GMT 47.009567 -0.585656 36,000 353 392 -64
2019-11-10 12:31:16 GMT 46.995575 -0.582962 36,000 353 392 64
2019-11-10 12:31:12 GMT 46.995575 -0.582962 36,000 353 392 0
2019-11-10 12:31:09 GMT 46.990154 -0.581923 36,000 353 392 0
2019-11-10 12:31:06 GMT 46.984772 -0.580902 36,000 353 392 64
2019-11-10 12:31:02 GMT 46.972187 -0.578472 36,000 353 392 64
2019-11-10 12:30:59 GMT 46.972187 -0.578472 36,000 353 392 64
2019-11-10 12:30:56 GMT 46.966782 -0.577469 36,000 353 392 0
2019-11-10 12:30:51 GMT 46.958176 -0.575821 36,000 353 392 0
2019-11-10 12:30:48 GMT 46.951328 -0.574529 36,000 353 392 64
2019-11-10 12:30:45 GMT 46.947002 -0.573684 36,000 353 392 64
2019-11-10 12:30:42 GMT 46.943069 -0.572937 36,000 353 392 64
2019-11-10 12:30:39 GMT 46.938034 -0.571976 36,000 353 392 0
2019-11-10 12:30:35 GMT 46.930473 -0.570514 36,000 353 392 0
2019-11-10 12:30:30 GMT 46.920776 -0.568680 36,000 353 392 -64
2019-11-10 12:30:27 GMT 46.914646 -0.567557 36,000 353 392 0
2019-11-10 12:30:20 GMT 46.901707 -0.565092 36,000 353 392 64
2019-11-10 12:30:17 GMT 46.895599 -0.563942 36,000 353 392 0
2019-11-10 12:30:11 GMT 46.881550 -0.561218 36,000 353 393 0
2019-11-10 12:30:05 GMT 46.876522 -0.560303 36,000 353 393 0
2019-11-10 12:30:00 GMT 46.866467 -0.558311 36,000 353 393 0
2019-11-10 12:29:56 GMT 46.859249 -0.556938 36,000 353 393 0
2019-11-10 12:29:52 GMT 46.852734 -0.555702 36,000 353 393 0
2019-11-10 12:29:49 GMT 46.840488 -0.553299 36,000 353 393 0
2019-11-10 12:29:46 GMT 46.840488 -0.553299 36,000 353 393 -64
2019-11-10 12:29:43 GMT 46.836906 -0.552612 36,000 353 393 -64
2019-11-10 12:29:39 GMT 46.827850 -0.550790 36,000 353 393 64
2019-11-10 12:29:35 GMT 46.810928 -0.547531 36,000 353 394 64
2019-11-10 12:29:29 GMT 46.810928 -0.547531 36,000 353 394 64
2019-11-10 12:29:26 GMT 46.803715 -0.546089 36,000 353 394 0
2019-11-10 12:29:21 GMT 46.797195 -0.544785 36,000 353 394 0
2019-11-10 12:29:18 GMT 46.789627 -0.543354 36,000 353 394 0
2019-11-10 12:29:15 GMT 46.785278 -0.542550 36,000 353 394 0
2019-11-10 12:29:12 GMT 46.779877 -0.541489 36,000 353 394 0
2019-11-10 12:29:08 GMT 46.767242 -0.539134 36,000 353 393 0
2019-11-10 12:29:05 GMT 46.767242 -0.539134 36,000 353 393 0
2019-11-10 12:29:01 GMT 46.761120 -0.537918 36,000 353 393 0
2019-11-10 12:28:58 GMT 46.752460 -0.536270 36,000 353 393 0
2019-11-10 12:28:55 GMT 46.748829 -0.535583 36,000 353 393 64
2019-11-10 12:28:51 GMT 46.739822 -0.533842 36,000 353 393 64
2019-11-10 12:28:48 GMT 46.736252 -0.533105 36,000 353 393 64
2019-11-10 12:28:45 GMT 46.730114 -0.531944 36,000 353 393 0
2019-11-10 12:28:41 GMT 46.717823 -0.529472 36,000 353 394 -64
2019-11-10 12:28:37 GMT 46.717823 -0.529472 36,000 353 394 64
2019-11-10 12:28:34 GMT 46.711716 -0.528282 35,975 353 394 0
2019-11-10 12:28:30 GMT 46.704838 -0.526932 35,975 353 394 -64
2019-11-10 12:28:27 GMT 46.699760 -0.525902 36,000 353 395 -64
2019-11-10 12:28:24 GMT 46.685669 -0.523190 36,000 353 395 -64
2019-11-10 12:28:21 GMT 46.685669 -0.523190 36,000 353 395 0
2019-11-10 12:28:16 GMT 46.678814 -0.521851 36,000 353 395 0
2019-11-10 12:28:13 GMT 46.674088 -0.520980 36,000 353 395 0
2019-11-10 12:28:10 GMT 46.667919 -0.519791 36,000 353 395 0
2019-11-10 12:28:07 GMT 46.662506 -0.518769 36,000 353 395 0
2019-11-10 12:28:03 GMT 46.656376 -0.517593 36,000 353 395 0
2019-11-10 12:28:00 GMT 46.649460 -0.516223 36,000 353 395 0
2019-11-10 12:27:54 GMT 46.637524 -0.513954 36,000 353 395 0
2019-11-10 12:27:48 GMT 46.627373 -0.512032 36,000 353 395 0
2019-11-10 12:27:43 GMT 46.619064 -0.510395 36,000 353 395 0
2019-11-10 12:27:40 GMT 46.612896 -0.509216 36,000 353 395 0
2019-11-10 12:27:37 GMT 46.607822 -0.508255 36,000 353 395 0
2019-11-10 12:27:33 GMT 46.600937 -0.506912 36,000 353 395 0
2019-11-10 12:27:25 GMT 46.586082 -0.504066 36,000 353 396 0
2019-11-10 12:27:22 GMT 46.581753 -0.503242 36,000 353 396 -64
2019-11-10 12:27:17 GMT 46.571915 -0.501419 36,000 353 396 0
2019-11-10 12:27:13 GMT 46.563599 -0.499878 36,000 353 396 64
2019-11-10 12:27:09 GMT 46.557777 -0.498779 36,000 353 396 64
2019-11-10 12:27:06 GMT 46.553101 -0.497868 36,000 353 396 64
2019-11-10 12:27:03 GMT 46.546555 -0.496662 36,000 353 396 64
2019-11-10 12:27:00 GMT 46.540009 -0.495457 36,000 353 396 64
2019-11-10 12:26:55 GMT 46.533150 -0.494179 36,000 353 396 64
2019-11-10 12:26:52 GMT 46.526962 -0.493045 36,000 353 396 0
2019-11-10 12:26:47 GMT 46.517136 -0.491226 36,000 353 396 0
2019-11-10 12:26:44 GMT 46.511719 -0.490231 36,000 353 396 0
2019-11-10 12:26:40 GMT 46.504803 -0.488960 36,000 353 397 0
2019-11-10 12:26:37 GMT 46.497540 -0.487656 36,000 353 397 0
2019-11-10 12:26:31 GMT 46.488041 -0.485870 36,000 353 397 0
2019-11-10 12:26:23 GMT 46.473518 -0.483055 36,000 353 397 0
2019-11-10 12:26:20 GMT 46.468781 -0.482193 36,000 353 397 0
2019-11-10 12:26:15 GMT 46.460037 -0.480518 36,000 353 397 0
2019-11-10 12:26:11 GMT 46.452381 -0.479004 36,000 353 397 0
2019-11-10 12:26:08 GMT 46.446167 -0.477838 36,000 353 397 0
2019-11-10 12:26:05 GMT 46.440701 -0.476807 36,000 353 398 0
2019-11-10 12:25:59 GMT 46.429806 -0.474678 36,000 353 398 0
2019-11-10 12:25:54 GMT 46.422134 -0.473216 36,000 353 398 0
2019-11-10 12:25:51 GMT 46.415188 -0.471863 36,000 353 399 64
2019-11-10 12:25:48 GMT 46.409729 -0.470804 36,000 353 399 0
2019-11-10 12:25:44 GMT 46.401314 -0.469116 36,000 353 399 64
2019-11-10 12:25:41 GMT 46.395813 -0.468058 36,000 353 399 64
2019-11-10 12:25:32 GMT 46.380432 -0.465110 36,000 353 401 0
2019-11-10 12:25:29 GMT 46.373062 -0.463703 36,000 353 402 0
2019-11-10 12:25:24 GMT 46.358322 -0.460890 36,000 353 402 0
2019-11-10 12:25:20 GMT 46.358322 -0.460890 36,000 353 402 0
2019-11-10 12:25:11 GMT 46.343220 -0.458061 36,000 353 404 0
2019-11-10 12:25:08 GMT 46.336899 -0.456870 36,000 353 403 0
2019-11-10 12:25:04 GMT 46.328751 -0.455330 36,000 353 404 0
2019-11-10 12:25:01 GMT 46.323200 -0.454285 36,000 353 404 0
2019-11-10 12:24:58 GMT 46.316162 -0.452985 36,000 353 404 0
2019-11-10 12:24:52 GMT 46.307652 -0.451401 36,000 353 406 0
2019-11-10 12:24:48 GMT 46.298714 -0.449753 36,000 353 406 0
2019-11-10 12:24:42 GMT 46.288651 -0.447894 36,000 353 406 0
2019-11-10 12:24:39 GMT 46.282700 -0.446822 36,000 353 406 0
2019-11-10 12:24:35 GMT 46.273041 -0.445013 36,000 353 406 0
2019-11-10 12:24:32 GMT 46.263336 -0.443138 36,000 353 407 64
2019-11-10 12:24:28 GMT 46.263336 -0.443138 36,000 353 407 0
2019-11-10 12:24:25 GMT 46.255096 -0.441597 36,000 353 407 0
2019-11-10 12:24:21 GMT 46.249878 -0.440659 36,000 353 408 0
2019-11-10 12:24:17 GMT 46.242416 -0.439252 36,000 353 408 0
2019-11-10 12:24:14 GMT 46.233822 -0.437599 36,000 353 408 0
2019-11-10 12:24:11 GMT 46.231201 -0.437108 36,000 353 408 -64
2019-11-10 12:24:08 GMT 46.223694 -0.435702 36,000 353 408 -64
2019-11-10 12:24:01 GMT 46.212082 -0.433479 36,000 353 408 0
2019-11-10 12:23:57 GMT 46.199020 -0.431012 36,000 353 408 0
2019-11-10 12:23:54 GMT 46.191132 -0.429565 36,000 353 408 0
2019-11-10 12:23:51 GMT 46.191132 -0.429565 36,000 353 408 0
2019-11-10 12:23:46 GMT 46.183685 -0.428123 36,000 353 408 0
2019-11-10 12:23:43 GMT 46.172058 -0.425921 36,000 353 408 64
2019-11-10 12:23:40 GMT 46.172058 -0.425921 36,000 353 408 0
2019-11-10 12:23:37 GMT 46.166458 -0.424828 36,000 353 408 64
2019-11-10 12:23:33 GMT 46.159710 -0.423523 36,000 353 409 0
2019-11-10 12:23:30 GMT 46.153381 -0.422371 36,000 353 409 -64
2019-11-10 12:23:26 GMT 46.146999 -0.421120 36,000 353 408 0
2019-11-10 12:23:23 GMT 46.140656 -0.419959 36,000 353 409 0
2019-11-10 12:23:20 GMT 46.135780 -0.418991 36,000 353 409 -64
2019-11-10 12:23:17 GMT 46.129032 -0.417755 36,000 353 409 0
2019-11-10 12:23:10 GMT 46.116669 -0.415404 36,000 353 409 0
2019-11-10 12:23:07 GMT 46.110271 -0.414185 36,000 353 409 0
2019-11-10 12:23:00 GMT 46.097168 -0.411652 36,000 353 409 0
2019-11-10 12:22:55 GMT 46.088150 -0.409978 36,000 353 409 0
2019-11-10 12:22:50 GMT 46.078800 -0.408211 36,000 353 409 0
2019-11-10 12:22:46 GMT 46.071259 -0.406769 36,000 353 410 0
2019-11-10 12:22:40 GMT 46.060364 -0.404685 36,000 353 410 0
2019-11-10 12:22:37 GMT 46.052856 -0.403279 36,000 353 410 0
2019-11-10 12:22:30 GMT 46.041981 -0.401207 36,000 353 410 0
2019-11-10 12:22:26 GMT 46.033310 -0.399594 36,000 353 410 0
2019-11-10 12:22:19 GMT 46.020145 -0.397156 36,000 353 410 0
2019-11-10 12:22:15 GMT 46.014496 -0.396111 36,000 353 410 0
2019-11-10 12:22:09 GMT 46.002457 -0.393900 36,000 353 410 -64
2019-11-10 12:22:05 GMT 45.995335 -0.392555 36,000 353 410 -64
2019-11-10 12:21:58 GMT 45.981400 -0.390082 36,000 353 410 -64
2019-11-10 12:21:55 GMT 45.975780 -0.389053 36,000 353 410 0
2019-11-10 12:21:47 GMT 45.960747 -0.386307 36,000 353 409 64
2019-11-10 12:21:44 GMT 45.956276 -0.385483 36,000 353 409 0
2019-11-10 12:21:38 GMT 45.943130 -0.383115 36,000 353 409 -64
2019-11-10 12:21:34 GMT 45.936771 -0.381912 36,000 353 409 0
2019-11-10 12:21:27 GMT 45.922897 -0.379363 36,000 353 409 128
2019-11-10 12:21:24 GMT 45.908279 -0.376625 36,000 353 409 0
2019-11-10 12:21:20 GMT 45.908279 -0.376625 36,000 353 409 0
2019-11-10 12:21:17 GMT 45.904129 -0.375813 36,000 353 409 0
2019-11-10 12:21:14 GMT 45.898506 -0.374771 36,000 353 409 64
2019-11-10 12:21:08 GMT 45.887287 -0.372711 36,000 353 409 0
2019-11-10 12:21:03 GMT 45.878254 -0.371063 36,000 353 409 -64
2019-11-10 12:20:59 GMT 45.870014 -0.369553 36,000 353 409 -64
2019-11-10 12:20:55 GMT 45.863266 -0.368317 36,000 353 408 0
2019-11-10 12:20:48 GMT 45.850555 -0.365913 36,000 353 408 0
2019-11-10 12:20:45 GMT 45.844162 -0.364693 36,000 353 407 64
2019-11-10 12:20:42 GMT 45.839676 -0.363889 36,000 353 408 0
2019-11-10 12:20:39 GMT 45.832539 -0.362549 36,000 353 408 64
2019-11-10 12:20:36 GMT 45.826950 -0.361544 36,000 353 408 64
2019-11-10 12:20:32 GMT 45.820221 -0.360271 36,000 353 408 -64
2019-11-10 12:20:27 GMT 45.810101 -0.358360 36,000 353 408 -64
2019-11-10 12:20:24 GMT 45.803352 -0.357124 36,000 353 408 64
2019-11-10 12:20:21 GMT 45.800720 -0.356654 36,000 353 408 64
2019-11-10 12:20:18 GMT 45.793991 -0.355314 36,000 353 408 64
2019-11-10 12:20:15 GMT 45.788361 -0.354309 36,000 353 408 64
2019-11-10 12:20:11 GMT 45.781658 -0.353073 36,000 353 408 0
2019-11-10 12:20:08 GMT 45.775654 -0.351974 36,000 353 408 -64
2019-11-10 12:20:05 GMT 45.770050 -0.350893 36,000 353 407 -128
2019-11-10 12:20:01 GMT 45.762199 -0.349503 36,000 353 407 -64
2019-11-10 12:19:57 GMT 45.753262 -0.347855 36,000 353 407 64
2019-11-10 12:19:54 GMT 45.749538 -0.347168 36,000 353 407 64
2019-11-10 12:19:51 GMT 45.743179 -0.346002 36,000 353 407 64
2019-11-10 12:19:47 GMT 45.736828 -0.344833 36,000 353 407 64
2019-11-10 12:19:44 GMT 45.731232 -0.343859 36,000 353 407 64
2019-11-10 12:19:41 GMT 45.724167 -0.342567 36,000 353 407 -64
2019-11-10 12:19:38 GMT 45.718552 -0.341581 36,000 353 407 0
2019-11-10 12:19:33 GMT 45.707336 -0.339303 36,000 350 408 0
2019-11-10 12:19:28 GMT 45.699921 -0.337428 36,000 349 407 -64
2019-11-10 12:19:25 GMT 45.695862 -0.336319 36,000 348 408 -64
2019-11-10 12:19:20 GMT 45.685574 -0.332886 36,000 347 408 -64
2019-11-10 12:19:17 GMT 45.680454 -0.330963 36,000 344 409 0
2019-11-10 12:19:14 GMT 45.673191 -0.327942 36,000 344 408 0
2019-11-10 12:19:07 GMT 45.662346 -0.323204 36,000 344 408 0
2019-11-10 12:19:03 GMT 45.655472 -0.320211 36,000 344 408 0
2019-11-10 12:18:58 GMT 45.646423 -0.316269 36,000 344 408 64
2019-11-10 12:18:55 GMT 45.639908 -0.313454 36,000 343 409 64
2019-11-10 12:18:51 GMT 45.631622 -0.309828 36,000 343 409 0
2019-11-10 12:18:48 GMT 45.625477 -0.307137 36,000 343 409 0
2019-11-10 12:18:41 GMT 45.610611 -0.300650 36,000 343 409 -64
2019-11-10 12:18:35 GMT 45.603737 -0.297661 36,000 343 409 0
2019-11-10 12:18:31 GMT 45.596878 -0.294688 36,000 343 409 0
2019-11-10 12:18:27 GMT 45.588913 -0.291205 36,000 343 410 0
2019-11-10 12:18:24 GMT 45.578411 -0.286606 36,000 343 410 0
2019-11-10 12:18:21 GMT 45.578411 -0.286606 36,000 343 410 0
2019-11-10 12:18:17 GMT 45.571518 -0.283568 36,000 343 410 0
2019-11-10 12:18:14 GMT 45.565750 -0.281022 36,000 343 410 64
2019-11-10 12:18:11 GMT 45.558861 -0.277954 36,000 343 410 64
2019-11-10 12:18:06 GMT 45.551971 -0.274926 36,000 343 409 0
2019-11-10 12:18:03 GMT 45.546890 -0.272715 36,000 343 410 0
2019-11-10 12:18:00 GMT 45.541077 -0.270211 36,000 343 410 0
2019-11-10 12:17:56 GMT 45.533112 -0.266745 36,000 343 411 64
2019-11-10 12:17:53 GMT 45.528763 -0.264784 36,000 343 411 0
2019-11-10 12:17:47 GMT 45.516033 -0.259251 36,000 343 411 0
2019-11-10 12:17:44 GMT 45.510956 -0.257040 36,000 343 411 0
2019-11-10 12:17:40 GMT 45.505138 -0.254427 36,000 343 411 0
2019-11-10 12:17:36 GMT 45.497925 -0.251279 36,000 343 411 0
2019-11-10 12:17:32 GMT 45.490662 -0.248063 36,000 343 411 0
2019-11-10 12:17:27 GMT 45.478325 -0.242637 36,000 343 411 0
2019-11-10 12:17:23 GMT 45.473251 -0.240359 36,000 343 411 0
2019-11-10 12:17:20 GMT 45.466324 -0.237318 36,000 344 413 0
2019-11-10 12:17:16 GMT 45.460869 -0.234933 36,000 343 411 0
2019-11-10 12:17:12 GMT 45.454350 -0.232053 36,000 343 412 0
2019-11-10 12:17:09 GMT 45.448883 -0.229732 36,000 344 413 0
2019-11-10 12:17:06 GMT 45.442711 -0.227028 36,000 344 411 0
2019-11-10 12:17:03 GMT 45.436478 -0.224304 36,000 344 412 0
2019-11-10 12:16:59 GMT 45.431026 -0.221937 36,000 344 412 0
2019-11-10 12:16:54 GMT 45.418259 -0.216457 36,000 344 413 0
2019-11-10 12:16:48 GMT 45.410545 -0.213162 36,000 344 413 64
2019-11-10 12:16:45 GMT 45.404343 -0.210506 36,000 344 414 64
2019-11-10 12:16:41 GMT 45.386673 -0.202985 36,000 344 416 0
2019-11-10 12:16:35 GMT 45.386673 -0.202985 36,000 344 416 0
2019-11-10 12:16:29 GMT 45.367493 -0.194811 36,000 344 417 0
2019-11-10 12:16:25 GMT 45.367493 -0.194811 36,000 344 417 0
2019-11-10 12:16:21 GMT 45.355682 -0.189776 36,000 344 417 0
2019-11-10 12:16:18 GMT 45.348267 -0.186637 36,000 344 418 -64
2019-11-10 12:16:14 GMT 45.348267 -0.186637 36,000 344 418 0
2019-11-10 12:16:11 GMT 45.341228 -0.183619 36,000 344 418 0
2019-11-10 12:16:08 GMT 45.336411 -0.181601 36,000 344 418 0
2019-11-10 12:16:03 GMT 45.327530 -0.177808 36,000 344 418 64
2019-11-10 12:16:00 GMT 45.321209 -0.175111 36,000 344 418 64
2019-11-10 12:15:57 GMT 45.315296 -0.172633 36,000 344 418 0
2019-11-10 12:15:54 GMT 45.309723 -0.170223 36,000 344 419 -64
2019-11-10 12:15:51 GMT 45.302307 -0.167018 36,000 344 419 -64
2019-11-10 12:15:47 GMT 45.297134 -0.164795 36,000 344 419 -64
2019-11-10 12:15:43 GMT 45.287880 -0.160776 36,000 344 419 -64
2019-11-10 12:15:40 GMT 45.283813 -0.159040 36,000 344 418 0
2019-11-10 12:15:33 GMT 45.271957 -0.153939 36,000 344 418 -64
2019-11-10 12:15:29 GMT 45.264587 -0.150735 36,000 344 418 -64
2019-11-10 12:15:25 GMT 45.255707 -0.146877 36,000 343 418 0
2019-11-10 12:15:22 GMT 45.250916 -0.144832 36,000 344 418 0
2019-11-10 12:15:19 GMT 45.245750 -0.142554 36,000 344 418 0
2019-11-10 12:15:16 GMT 45.239838 -0.140009 36,000 344 418 64
2019-11-10 12:15:12 GMT 45.223591 -0.132975 36,000 344 418 0
2019-11-10 12:15:07 GMT 45.223591 -0.132975 36,000 344 417 0
2019-11-10 12:15:02 GMT 45.214325 -0.129024 36,000 344 417 0
2019-11-10 12:14:59 GMT 45.199539 -0.122746 36,000 344 417 0
2019-11-10 12:14:55 GMT 45.199539 -0.122746 36,000 344 417 0
2019-11-10 12:14:50 GMT 45.191051 -0.119108 36,000 344 417 0
2019-11-10 12:14:45 GMT 45.183289 -0.115749 36,000 344 417 0
2019-11-10 12:14:42 GMT 45.176247 -0.112744 36,000 344 418 64
2019-11-10 12:14:37 GMT 45.161819 -0.106594 36,000 344 418 64
2019-11-10 12:14:34 GMT 45.161819 -0.106594 36,000 344 418 64
2019-11-10 12:14:31 GMT 45.156277 -0.104169 36,000 344 418 64
2019-11-10 12:14:28 GMT 45.152206 -0.102408 36,000 344 418 64
2019-11-10 12:14:24 GMT 45.143326 -0.098615 36,000 344 419 0
2019-11-10 12:14:20 GMT 45.137375 -0.096065 36,000 344 419 0
2019-11-10 12:14:17 GMT 45.130344 -0.093049 36,000 344 419 -64
2019-11-10 12:14:14 GMT 45.124786 -0.090637 36,000 344 419 -64
2019-11-10 12:14:09 GMT 45.116638 -0.087106 36,000 343 419 -64
2019-11-10 12:14:06 GMT 45.111465 -0.084882 36,000 343 419 0
2019-11-10 12:14:03 GMT 45.105907 -0.082464 36,000 343 419 0
2019-11-10 12:13:59 GMT 45.098457 -0.079316 36,000 344 419 0
2019-11-10 12:13:56 GMT 45.091415 -0.076250 36,000 344 419 0
2019-11-10 12:13:52 GMT 45.076584 -0.069907 36,000 344 420 0
2019-11-10 12:13:48 GMT 45.076584 -0.069907 36,000 344 420 -64
2019-11-10 12:13:45 GMT 45.071411 -0.067684 36,000 344 419 -64
2019-11-10 12:13:42 GMT 45.065826 -0.065315 36,000 344 419 0
2019-11-10 12:13:38 GMT 45.059509 -0.062648 36,000 344 419 0
2019-11-10 12:13:35 GMT 45.052826 -0.059771 36,000 344 419 0
2019-11-10 12:13:26 GMT 45.036125 -0.052654 36,000 344 419 0
2019-11-10 12:13:22 GMT 45.028725 -0.049505 36,000 344 419 -64
2019-11-10 12:13:18 GMT 45.019085 -0.045419 36,000 344 419 0
2019-11-10 12:13:15 GMT 45.015362 -0.043878 36,000 344 419 0
2019-11-10 12:13:12 GMT 45.010147 -0.041668 36,000 344 419 0
2019-11-10 12:13:05 GMT 44.996429 -0.035836 36,000 344 418 0
2019-11-10 12:13:02 GMT 44.991989 -0.033940 36,000 344 418 0
2019-11-10 12:12:57 GMT 44.982376 -0.029885 36,000 344 417 64
2019-11-10 12:12:54 GMT 44.975693 -0.027008 36,000 344 417 0
2019-11-10 12:12:50 GMT 44.968670 -0.024049 36,000 344 416 -64
2019-11-10 12:12:46 GMT 44.963150 -0.021711 36,000 344 416 -64
2019-11-10 12:12:43 GMT 44.955780 -0.018507 36,000 344 415 0
2019-11-10 12:12:37 GMT 44.944416 -0.013666 36,000 344 415 64
2019-11-10 12:12:34 GMT 44.938889 -0.011313 36,000 344 414 0
2019-11-10 12:12:26 GMT 44.924973 -0.005362 36,000 344 413 0
2019-11-10 12:12:23 GMT 44.918766 -0.002747 36,000 344 412 0
2019-11-10 12:12:16 GMT 44.906708 0.002354 36,000 344 411 64
2019-11-10 12:12:13 GMT 44.901215 0.004689 36,000 344 410 0
2019-11-10 12:12:07 GMT 44.890324 0.009245 36,000 344 408 0
2019-11-10 12:12:03 GMT 44.881989 0.012817 36,000 344 408 0
2019-11-10 12:12:00 GMT 44.876175 0.015237 36,000 344 408 0
2019-11-10 12:11:55 GMT 44.869328 0.018154 36,000 344 408 0
2019-11-10 12:11:51 GMT 44.856720 0.023477 36,000 344 406 -64
2019-11-10 12:11:45 GMT 44.851685 0.025569 36,000 344 406 0
2019-11-10 12:11:41 GMT 44.844143 0.028806 36,000 344 406 0
2019-11-10 12:11:37 GMT 44.837311 0.031716 36,000 344 405 64
2019-11-10 12:11:32 GMT 44.826553 0.036294 36,000 344 408 64
2019-11-10 12:11:25 GMT 44.815468 0.040998 36,000 344 404 0
2019-11-10 12:11:22 GMT 44.809044 0.043744 36,000 344 404 -64
2019-11-10 12:11:14 GMT 44.785767 0.053624 36,000 344 405 0
2019-11-10 12:11:09 GMT 44.785767 0.053624 36,000 344 405 64
2019-11-10 12:11:05 GMT 44.770706 0.059902 36,000 344 405 0
2019-11-10 12:11:00 GMT 44.770706 0.059902 36,000 344 405 -64
2019-11-10 12:10:53 GMT 44.758484 0.065068 36,000 344 405 0
2019-11-10 12:10:50 GMT 44.752716 0.067487 36,000 344 405 0
2019-11-10 12:10:44 GMT 44.741589 0.072148 36,000 344 406 0
2019-11-10 12:10:40 GMT 44.732975 0.075832 36,000 344 406 0
2019-11-10 12:10:33 GMT 44.722549 0.080239 36,000 344 407 0
2019-11-10 12:10:29 GMT 44.714630 0.083640 36,000 344 407 -64
2019-11-10 12:10:23 GMT 44.704163 0.088092 36,000 344 407 0
2019-11-10 12:10:20 GMT 44.698013 0.090703 36,000 344 407 0
2019-11-10 12:10:14 GMT 44.686146 0.095728 36,000 344 407 0
2019-11-10 12:10:11 GMT 44.681442 0.097700 36,000 344 407 64
2019-11-10 12:10:07 GMT 44.675297 0.100284 36,000 344 408 64
2019-11-10 12:10:03 GMT 44.661942 0.105940 36,000 344 409 0
2019-11-10 12:09:57 GMT 44.657593 0.107705 36,000 344 409 0
2019-11-10 12:09:52 GMT 44.648579 0.111538 36,000 344 411 0
2019-11-10 12:09:48 GMT 44.640572 0.114821 36,000 344 409 0
2019-11-10 12:09:39 GMT 44.625347 0.121185 36,000 344 409 0
2019-11-10 12:09:36 GMT 44.620274 0.123261 36,000 344 409 0
2019-11-10 12:09:30 GMT 44.607983 0.128486 36,000 344 410 0
2019-11-10 12:09:25 GMT 44.598907 0.132294 36,000 344 411 0
2019-11-10 12:09:20 GMT 44.589478 0.136283 36,000 344 410 0
2019-11-10 12:09:17 GMT 44.584755 0.138267 36,000 344 410 0
2019-11-10 12:09:10 GMT 44.571304 0.143934 36,000 344 411 0
2019-11-10 12:09:07 GMT 44.566223 0.146092 36,000 344 411 0
2019-11-10 12:09:01 GMT 44.556358 0.150191 36,000 344 411 0
2019-11-10 12:08:55 GMT 44.545464 0.154746 36,000 344 411 0
2019-11-10 12:08:46 GMT 44.526470 0.162651 36,000 344 411 0
2019-11-10 12:08:35 GMT 44.507477 0.170556 36,000 344 411 0
2019-11-10 12:08:30 GMT 44.499424 0.173839 36,000 344 413 0
2019-11-10 12:08:27 GMT 44.492859 0.176585 36,000 344 413 0
2019-11-10 12:08:24 GMT 44.488483 0.178461 36,000 344 413 -64
2019-11-10 12:08:21 GMT 44.468002 0.187036 36,000 344 413 0
2019-11-10 12:08:14 GMT 44.468002 0.187036 36,000 344 413 64
2019-11-10 12:08:09 GMT 44.450451 0.194471 36,000 344 414 0
2019-11-10 12:08:03 GMT 44.450451 0.194471 36,000 344 413 64
2019-11-10 12:07:57 GMT 44.436485 0.200367 36,000 344 414 0
2019-11-10 12:07:54 GMT 44.432110 0.202175 36,000 344 414 0
2019-11-10 12:07:49 GMT 44.422565 0.206195 36,000 344 414 0
2019-11-10 12:07:46 GMT 44.418144 0.208070 36,000 344 414 0
2019-11-10 12:07:43 GMT 44.413769 0.209879 36,000 344 414 0
2019-11-10 12:07:37 GMT 44.402737 0.214501 36,000 344 414 0
2019-11-10 12:07:33 GMT 44.393936 0.218186 36,000 344 414 0
2019-11-10 12:07:26 GMT 44.381458 0.223344 36,000 344 415 0
2019-11-10 12:07:23 GMT 44.374851 0.226091 36,000 344 415 64
2019-11-10 12:07:18 GMT 44.366749 0.229440 36,000 344 415 0
2019-11-10 12:07:12 GMT 44.356064 0.233852 36,000 344 415 -64
2019-11-10 12:07:09 GMT 44.348740 0.236925 36,000 344 415 -64
2019-11-10 12:07:06 GMT 44.342102 0.239672 36,000 344 415 -64
2019-11-10 12:07:00 GMT 44.334732 0.242746 36,000 344 415 -64
2019-11-10 12:06:56 GMT 44.327042 0.245920 36,000 344 415 0
2019-11-10 12:06:53 GMT 44.321503 0.248239 36,000 344 415 0
2019-11-10 12:06:50 GMT 44.316010 0.250542 36,000 344 415 0
2019-11-10 12:06:47 GMT 44.310471 0.252816 36,000 344 415 0
2019-11-10 12:06:39 GMT 44.295383 0.259117 36,000 344 415 0
2019-11-10 12:06:34 GMT 44.272575 0.268562 36,000 344 415 0
2019-11-10 12:06:27 GMT 44.272575 0.268562 36,000 344 415 0
2019-11-10 12:06:24 GMT 44.268200 0.270371 36,000 344 415 0
2019-11-10 12:06:17 GMT 44.254578 0.276031 36,000 344 415 0
2019-11-10 12:06:14 GMT 44.246475 0.279367 36,000 344 415 0
2019-11-10 12:06:07 GMT 44.221481 0.289699 36,000 344 415 0
2019-11-10 12:06:00 GMT 44.221481 0.289699 36,000 344 415 0
2019-11-10 12:05:56 GMT 44.215965 0.291942 36,000 344 415 0
2019-11-10 12:05:53 GMT 44.210056 0.294420 36,000 344 415 0
2019-11-10 12:05:47 GMT 44.191666 0.302059 36,000 344 415 0
2019-11-10 12:05:43 GMT 44.191666 0.302059 36,000 344 415 0
2019-11-10 12:05:37 GMT 44.174023 0.309317 36,000 344 415 0
2019-11-10 12:05:33 GMT 44.174023 0.309317 36,000 344 415 0
2019-11-10 12:05:26 GMT 44.156021 0.316687 36,000 344 413 64
2019-11-10 12:05:23 GMT 44.156021 0.316687 36,000 344 415 0
2019-11-10 12:05:15 GMT 44.140926 0.322920 36,000 344 414 -64
2019-11-10 12:05:12 GMT 44.135803 0.325078 36,000 344 414 -64
2019-11-10 12:05:06 GMT 44.125122 0.329462 36,000 344 413 64
2019-11-10 12:04:56 GMT 44.106812 0.337063 36,000 344 414 0
2019-11-10 12:04:46 GMT 44.088089 0.344761 36,000 344 414 0
2019-11-10 12:04:35 GMT 44.068302 0.352936 36,000 344 414 -64
2019-11-10 12:04:25 GMT 44.049591 0.360760 36,000 344 413 0
2019-11-10 12:04:16 GMT 44.029816 0.369000 36,000 344 413 0
2019-11-10 12:04:04 GMT 44.011185 0.376740 36,000 344 413 64
2019-11-10 12:04:01 GMT 44.005318 0.379159 36,000 344 413 0
2019-11-10 12:03:54 GMT 43.993240 0.384074 36,000 344 413 0
2019-11-10 12:03:51 GMT 43.986977 0.386614 36,000 344 413 0
2019-11-10 12:03:46 GMT 43.975246 0.391388 36,000 344 413 0
2019-11-10 12:03:37 GMT 43.961700 0.396913 36,000 344 412 -64
2019-11-10 12:03:34 GMT 43.955460 0.399432 36,000 344 412 0
2019-11-10 12:03:30 GMT 43.947052 0.402853 36,000 344 412 0
2019-11-10 12:03:24 GMT 43.938309 0.406430 36,000 344 411 0
2019-11-10 12:03:21 GMT 43.930984 0.409432 36,000 344 411 0
2019-11-10 12:03:14 GMT 43.919312 0.414223 36,000 344 411 0
2019-11-10 12:03:11 GMT 43.913097 0.416761 36,000 344 411 -64
2019-11-10 12:03:03 GMT 43.892708 0.425132 36,000 344 408 0
2019-11-10 12:02:53 GMT 43.878525 0.430894 36,000 344 410 0
2019-11-10 12:02:45 GMT 43.864014 0.436898 36,000 344 410 0
2019-11-10 12:02:38 GMT 43.851322 0.442069 36,000 344 408 0
2019-11-10 12:02:32 GMT 43.842224 0.445777 36,000 344 408 0
2019-11-10 12:02:24 GMT 43.828491 0.451461 36,000 344 408 0
2019-11-10 12:02:19 GMT 43.819794 0.454975 36,000 344 408 0
2019-11-10 12:02:14 GMT 43.809288 0.459202 36,000 344 407 0
2019-11-10 12:02:11 GMT 43.804958 0.460968 36,000 344 407 0
2019-11-10 12:02:03 GMT 43.790131 0.466983 36,000 344 407 -64
2019-11-10 12:01:58 GMT 43.780746 0.470815 36,000 344 406 0
2019-11-10 12:01:53 GMT 43.772095 0.474328 36,000 344 406 0
2019-11-10 12:01:48 GMT 43.761978 0.478416 36,000 344 406 64
2019-11-10 12:01:42 GMT 43.752258 0.482352 36,000 344 405 64
2019-11-10 12:01:39 GMT 43.747234 0.484445 36,000 344 405 0
2019-11-10 12:01:35 GMT 43.740372 0.487167 36,000 344 405 0
2019-11-10 12:01:30 GMT 43.730301 0.491319 36,000 344 405 0
2019-11-10 12:01:27 GMT 43.725632 0.493208 36,000 344 405 -64
2019-11-10 12:01:21 GMT 43.715195 0.497451 36,000 344 405 -64
2019-11-10 12:01:18 GMT 43.709473 0.499750 36,000 344 405 0
2019-11-10 12:01:13 GMT 43.690796 0.507415 36,000 344 404 64
2019-11-10 12:01:08 GMT 43.690796 0.507415 36,000 344 404 64
2019-11-10 12:01:02 GMT 43.681084 0.511322 36,000 344 404 0
2019-11-10 12:00:59 GMT 43.674271 0.514122 36,000 344 404 -64
2019-11-10 12:00:52 GMT 43.662094 0.519104 36,000 344 404 -64
2019-11-10 12:00:48 GMT 43.655594 0.521723 36,000 344 404 0
2019-11-10 12:00:41 GMT 43.643417 0.526641 36,000 344 404 0
2019-11-10 12:00:38 GMT 43.637321 0.529175 36,000 344 404 0
2019-11-10 12:00:30 GMT 43.621948 0.535392 36,000 344 403 0
2019-11-10 12:00:27 GMT 43.617645 0.537116 36,000 344 403 0
2019-11-10 12:00:19 GMT 43.598328 0.544973 36,000 344 403 0
2019-11-10 12:00:09 GMT 43.579742 0.552574 36,000 344 403 0
2019-11-10 12:00:06 GMT 43.579742 0.552574 36,000 344 403 0
2019-11-10 12:00:01 GMT 43.570801 0.556248 36,000 344 403 -64
2019-11-10 11:59:55 GMT 43.561489 0.560041 36,000 344 402 -64
2019-11-10 11:59:51 GMT 43.551865 0.563944 36,000 344 402 0
2019-11-10 11:59:48 GMT 43.542961 0.567627 36,000 344 402 0
2019-11-10 11:59:45 GMT 43.542961 0.567627 36,000 344 402 0
2019-11-10 11:59:40 GMT 43.533279 0.571545 36,000 344 402 0
2019-11-10 11:59:36 GMT 43.526138 0.574419 36,000 344 402 0
2019-11-10 11:59:32 GMT 43.518997 0.577293 36,000 344 403 0
2019-11-10 11:59:28 GMT 43.506134 0.582467 36,000 344 403 0
2019-11-10 11:59:24 GMT 43.506134 0.582467 36,000 344 403 0
2019-11-10 11:59:17 GMT 43.483246 0.591729 36,000 344 403 0
2019-11-10 11:59:12 GMT 43.483246 0.591729 36,000 344 403 0
2019-11-10 11:59:09 GMT 43.479324 0.593327 36,000 344 403 64
2019-11-10 11:59:06 GMT 43.472157 0.596204 36,000 344 403 64
2019-11-10 11:59:01 GMT 43.464287 0.599409 36,000 344 404 -64
2019-11-10 11:58:58 GMT 43.456741 0.602396 36,000 344 404 -64
2019-11-10 11:58:52 GMT 43.445984 0.606739 36,000 344 404 -64
2019-11-10 11:58:49 GMT 43.443146 0.607889 36,000 344 404 -64
2019-11-10 11:58:46 GMT 43.436691 0.610508 36,000 344 404 -64
2019-11-10 11:58:42 GMT 43.430969 0.612807 36,000 344 404 -64
2019-11-10 11:58:39 GMT 43.424515 0.615426 36,000 344 404 0
2019-11-10 11:58:35 GMT 43.416595 0.618620 36,000 344 404 0
2019-11-10 11:58:32 GMT 43.412663 0.620204 36,000 344 404 0
2019-11-10 11:58:29 GMT 43.406239 0.622820 36,000 344 404 0
2019-11-10 11:58:24 GMT 43.395126 0.627307 36,000 344 404 0
2019-11-10 11:58:19 GMT 43.380402 0.633218 36,000 344 405 -64
2019-11-10 11:58:14 GMT 43.380402 0.633218 36,000 344 404 0
2019-11-10 11:58:10 GMT 43.373234 0.636095 36,000 344 404 64
2019-11-10 11:58:05 GMT 43.363541 0.639954 36,000 344 405 -64
2019-11-10 11:58:01 GMT 43.350933 0.645054 36,000 344 405 0
2019-11-10 11:57:55 GMT 43.345207 0.647343 36,000 344 405 0
2019-11-10 11:57:52 GMT 43.340179 0.649370 36,000 344 406 -64
2019-11-10 11:57:48 GMT 43.332596 0.652409 36,000 344 405 0
2019-11-10 11:57:44 GMT 43.326492 0.654864 36,000 344 406 0
2019-11-10 11:57:38 GMT 43.313187 0.660202 36,000 344 406 0
2019-11-10 11:57:35 GMT 43.295536 0.667289 36,000 344 406 -64
2019-11-10 11:57:27 GMT 43.295536 0.667289 36,000 344 406 0
2019-11-10 11:57:24 GMT 43.289383 0.669719 36,000 344 406 -64
2019-11-10 11:57:17 GMT 43.277115 0.674637 36,000 344 406 0
2019-11-10 11:57:13 GMT 43.269928 0.677575 36,000 344 406 -64
2019-11-10 11:57:10 GMT 43.263428 0.680194 36,000 344 406 -64
2019-11-10 11:57:07 GMT 43.259125 0.681919 36,000 344 406 0
2019-11-10 11:56:59 GMT 43.245438 0.687412 36,000 344 406 -64
2019-11-10 11:56:55 GMT 43.229553 0.693736 36,000 344 405 0
2019-11-10 11:56:47 GMT 43.221634 0.696865 36,000 344 405 0
2019-11-10 11:56:44 GMT 43.215511 0.699267 36,000 344 405 0
2019-11-10 11:56:36 GMT 43.204014 0.703844 36,000 344 405 -64
2019-11-10 11:56:33 GMT 43.197544 0.706395 36,000 344 405 -64
2019-11-10 11:56:28 GMT 43.189270 0.709704 36,000 344 405 -64
2019-11-10 11:56:23 GMT 43.179527 0.713588 36,000 344 405 -64
2019-11-10 11:56:17 GMT 43.169128 0.717752 36,000 344 405 0
2019-11-10 11:56:13 GMT 43.162628 0.720307 36,000 344 405 0
2019-11-10 11:56:09 GMT 43.152603 0.724331 36,000 344 405 0
2019-11-10 11:56:06 GMT 43.147919 0.726209 36,000 344 405 0
2019-11-10 11:56:03 GMT 43.143219 0.728036 36,000 344 405 0
2019-11-10 11:55:57 GMT 43.132092 0.732487 36,000 344 405 0
2019-11-10 11:55:54 GMT 43.123123 0.736084 36,000 344 405 0
2019-11-10 11:55:51 GMT 43.123123 0.736084 36,000 344 405 0
2019-11-10 11:55:48 GMT 43.117008 0.738504 36,000 344 405 -64
2019-11-10 11:55:42 GMT 43.105133 0.743238 36,000 344 405 -64
2019-11-10 11:55:37 GMT 43.097946 0.746112 36,000 344 405 -64
2019-11-10 11:55:33 GMT 43.091125 0.748836 36,000 344 405 0
2019-11-10 11:55:30 GMT 43.085724 0.751031 36,000 344 405 0
2019-11-10 11:55:27 GMT 43.080326 0.753152 36,000 344 404 64
2019-11-10 11:55:24 GMT 43.074234 0.755629 36,000 344 404 64
2019-11-10 11:55:21 GMT 43.068829 0.757730 36,000 344 404 64
2019-11-10 11:55:18 GMT 43.061325 0.760739 36,000 344 404 0
2019-11-10 11:55:13 GMT 43.049789 0.765402 36,000 344 405 0
2019-11-10 11:55:06 GMT 43.040451 0.769107 36,000 344 405 0
2019-11-10 11:55:03 GMT 43.037216 0.770416 36,000 344 405 0
2019-11-10 11:55:00 GMT 43.031490 0.772705 36,000 344 405 0
2019-11-10 11:54:57 GMT 43.025021 0.775255 36,000 344 405 0
2019-11-10 11:54:54 GMT 43.019623 0.777410 36,000 344 405 0
2019-11-10 11:54:50 GMT 43.012779 0.780160 36,000 344 405 0
2019-11-10 11:54:46 GMT 43.006668 0.782584 36,000 344 405 0
2019-11-10 11:54:43 GMT 42.994110 0.787550 36,000 344 405 0
2019-11-10 11:54:40 GMT 42.994110 0.787550 36,000 344 405 0
2019-11-10 11:54:36 GMT 42.988678 0.789674 36,000 344 405 0
2019-11-10 11:54:33 GMT 42.982567 0.792127 36,000 344 406 -64
2019-11-10 11:54:30 GMT 42.976456 0.794529 36,000 344 406 0
2019-11-10 11:54:27 GMT 42.970688 0.796828 36,000 344 406 0
2019-11-10 11:54:22 GMT 42.963108 0.799779 36,000 344 406 -64
2019-11-10 11:54:19 GMT 42.957733 0.801938 36,000 344 406 0
2019-11-10 11:54:16 GMT 42.952309 0.804095 36,000 344 406 0
2019-11-10 11:54:12 GMT 42.939697 0.809092 36,000 344 406 0
2019-11-10 11:54:09 GMT 42.939697 0.809092 36,000 344 406 0
2019-11-10 11:54:06 GMT 42.933929 0.811391 36,000 344 406 0
2019-11-10 11:54:02 GMT 42.926743 0.814202 36,000 344 406 0
2019-11-10 11:53:59 GMT 42.920605 0.816650 36,000 344 406 0
2019-11-10 11:53:54 GMT 42.911591 0.820270 36,000 344 406 0
2019-11-10 11:53:49 GMT 42.902542 0.823844 36,000 344 407 0
2019-11-10 11:53:46 GMT 42.897125 0.826019 36,000 344 407 0
2019-11-10 11:53:42 GMT 42.889893 0.828893 36,000 344 407 0
2019-11-10 11:53:39 GMT 42.884480 0.831103 36,000 344 407 0
2019-11-10 11:53:35 GMT 42.876518 0.834242 36,000 344 408 0
2019-11-10 11:53:32 GMT 42.870701 0.836530 36,000 344 408 0
2019-11-10 11:53:29 GMT 42.866371 0.838231 36,000 344 408 0
2019-11-10 11:53:25 GMT 42.854778 0.842808 36,000 344 408 -64
2019-11-10 11:53:19 GMT 42.848263 0.845424 36,000 344 408 -64
2019-11-10 11:53:15 GMT 42.841370 0.848119 36,000 344 408 -64
2019-11-10 11:53:11 GMT 42.834137 0.850993 36,000 344 408 -64
2019-11-10 11:53:08 GMT 42.823288 0.855273 36,000 344 407 -64
2019-11-10 11:53:05 GMT 42.818939 0.856934 36,000 344 407 -64
2019-11-10 11:52:58 GMT 42.811298 0.859942 36,000 344 407 0
2019-11-10 11:52:55 GMT 42.804783 0.862491 36,000 344 407 0
2019-11-10 11:52:51 GMT 42.796822 0.865620 36,000 344 408 0
2019-11-10 11:52:48 GMT 42.792446 0.867345 36,000 344 408 0
2019-11-10 11:52:43 GMT 42.782299 0.871369 36,000 344 408 0
2019-11-10 11:52:38 GMT 42.774338 0.874499 36,000 344 409 0
2019-11-10 11:52:34 GMT 42.767441 0.877221 36,000 344 409 -64
2019-11-10 11:52:30 GMT 42.755436 0.881908 36,000 344 409 -128
2019-11-10 11:52:24 GMT 42.748535 0.884587 36,000 344 409 -128
2019-11-10 11:52:21 GMT 42.743099 0.886763 36,000 344 409 -64
2019-11-10 11:52:17 GMT 42.736176 0.889456 36,025 344 409 -64
2019-11-10 11:52:13 GMT 42.730019 0.891937 36,025 344 409 0
2019-11-10 11:52:08 GMT 42.719128 0.896216 36,000 344 409 64
2019-11-10 11:52:03 GMT 42.711121 0.899346 36,000 344 409 64
2019-11-10 11:52:00 GMT 42.700226 0.903625 36,000 344 409 64
2019-11-10 11:51:57 GMT 42.700226 0.903625 36,000 344 409 64
2019-11-10 11:51:51 GMT 42.688202 0.908370 36,000 344 410 0
2019-11-10 11:51:48 GMT 42.682022 0.910779 36,000 344 410 0
2019-11-10 11:51:41 GMT 42.670341 0.915378 36,000 344 410 -128
2019-11-10 11:51:37 GMT 42.664169 0.917858 36,000 344 410 -64
2019-11-10 11:51:33 GMT 42.656513 0.920871 36,000 344 410 -64
2019-11-10 11:51:30 GMT 42.651031 0.923039 36,000 344 410 -64
2019-11-10 11:51:27 GMT 42.645573 0.925215 36,000 344 410 0
2019-11-10 11:51:21 GMT 42.633938 0.929814 36,000 344 410 0
2019-11-10 11:51:16 GMT 42.626266 0.932839 36,000 344 410 0
2019-11-10 11:51:10 GMT 42.615372 0.937146 36,000 344 410 0
2019-11-10 11:51:07 GMT 42.608826 0.939768 36,000 344 410 0
2019-11-10 11:51:00 GMT 42.596420 0.944637 36,000 344 410 -64
2019-11-10 11:50:57 GMT 42.590221 0.947060 36,000 344 410 0
2019-11-10 11:50:53 GMT 42.581131 0.950629 36,000 344 410 64
2019-11-10 11:50:48 GMT 42.572765 0.953894 36,000 344 410 0
2019-11-10 11:50:45 GMT 42.558517 0.959493 36,000 344 410 0
2019-11-10 11:50:39 GMT 42.558517 0.959493 36,000 344 410 0
2019-11-10 11:50:36 GMT 42.545021 0.964817 36,000 344 411 -64
2019-11-10 11:50:32 GMT 42.545021 0.964817 36,000 344 411 -64
2019-11-10 11:50:29 GMT 42.539948 0.966797 36,000 344 411 0
2019-11-10 11:50:25 GMT 42.530090 0.970667 36,000 344 411 0
2019-11-10 11:50:22 GMT 42.526428 0.972103 36,000 344 411 64
2019-11-10 11:50:19 GMT 42.521301 0.974100 36,000 344 411 0
2019-11-10 11:50:16 GMT 42.515835 0.976250 36,000 344 411 0
2019-11-10 11:50:10 GMT 42.503036 0.981279 36,000 344 412 0
2019-11-10 11:50:06 GMT 42.497540 0.983404 36,000 344 412 0
2019-11-10 11:50:02 GMT 42.488739 0.986789 36,000 344 412 -64
2019-11-10 11:49:59 GMT 42.484364 0.988514 36,000 344 412 -64
2019-11-10 11:49:55 GMT 42.477055 0.991388 36,000 344 412 -64
2019-11-10 11:49:51 GMT 42.470856 0.993763 36,000 344 412 0
2019-11-10 11:49:48 GMT 42.464264 0.996323 36,000 344 412 0
2019-11-10 11:49:45 GMT 42.459869 0.998070 36,000 344 412 0
2019-11-10 11:49:41 GMT 42.452194 1.001033 36,000 345 411 64
2019-11-10 11:49:37 GMT 42.444885 1.003844 36,000 345 411 0
2019-11-10 11:49:33 GMT 42.437164 1.006810 36,000 345 411 0
2019-11-10 11:49:30 GMT 42.432816 1.008495 36,000 345 411 0
2019-11-10 11:49:26 GMT 42.423294 1.012178 36,000 345 411 0
2019-11-10 11:49:22 GMT 42.417793 1.014255 36,000 345 411 64
2019-11-10 11:49:19 GMT 42.409378 1.017484 36,000 345 411 0
2019-11-10 11:49:14 GMT 42.403175 1.019876 36,000 344 412 0
2019-11-10 11:49:11 GMT 42.395123 1.023006 36,000 344 412 0
2019-11-10 11:49:08 GMT 42.391800 1.024288 36,000 344 412 0
2019-11-10 11:49:04 GMT 42.384476 1.027097 36,000 344 412 0
2019-11-10 11:49:00 GMT 42.376781 1.030096 36,000 344 412 0
2019-11-10 11:48:55 GMT 42.366585 1.034120 36,000 345 412 0
2019-11-10 11:48:51 GMT 42.361038 1.036210 36,000 345 412 0
2019-11-10 11:48:48 GMT 42.354401 1.038520 36,000 346 412 0
2019-11-10 11:48:44 GMT 42.348106 1.040507 36,000 349 412 -64
2019-11-10 11:48:38 GMT 42.335770 1.043826 36,000 351 412 -64
2019-11-10 11:48:34 GMT 42.328262 1.045449 36,000 353 412 -64
2019-11-10 11:48:27 GMT 42.313110 1.047759 36,000 356 412 0
2019-11-10 11:48:23 GMT 42.308533 1.048258 36,000 356 412 0
2019-11-10 11:48:20 GMT 42.301319 1.049003 36,000 356 412 0
2019-11-10 11:48:14 GMT 42.289169 1.050280 36,000 356 411 0
2019-11-10 11:48:07 GMT 42.277405 1.051442 36,000 356 411 0
2019-11-10 11:48:03 GMT 42.269806 1.052191 36,000 356 411 0
2019-11-10 11:47:56 GMT 42.249741 1.054240 36,000 356 411 0
2019-11-10 11:47:52 GMT 42.249741 1.054240 36,000 356 411 0
2019-11-10 11:47:46 GMT 42.238770 1.055312 36,000 356 411 0
2019-11-10 11:47:43 GMT 42.231537 1.056029 36,000 356 411 0
2019-11-10 11:47:37 GMT 42.219818 1.057247 36,000 356 411 64
2019-11-10 11:47:33 GMT 42.211845 1.058009 36,000 356 411 0
2019-11-10 11:47:29 GMT 42.203156 1.058932 36,000 356 411 -64
2019-11-10 11:47:25 GMT 42.192535 1.060118 36,000 356 411 -64
2019-11-10 11:47:22 GMT 42.192535 1.060118 36,000 356 411 -64
2019-11-10 11:47:18 GMT 42.185310 1.060883 36,000 356 411 0
2019-11-10 11:47:14 GMT 42.176979 1.061650 36,000 359 411 0
2019-11-10 11:47:11 GMT 42.165573 1.062033 36,000 359 412 0
2019-11-10 11:47:08 GMT 42.165573 1.062033 36,000 0 412 0
2019-11-10 11:47:04 GMT 42.157562 1.061804 36,000 3 412 0
2019-11-10 11:46:58 GMT 42.146534 1.060883 36,000 5 412 -64
2019-11-10 11:46:55 GMT 42.141972 1.060308 36,000 7 413 0
2019-11-10 11:46:52 GMT 42.133255 1.058745 36,000 9 414 0
2019-11-10 11:46:49 GMT 42.130566 1.058201 36,000 9 413 0
2019-11-10 11:46:46 GMT 42.114040 1.053666 36,000 13 416 0
2019-11-10 11:46:41 GMT 42.114040 1.053666 36,000 13 416 0
2019-11-10 11:46:38 GMT 42.107712 1.051379 36,000 16 416 0
2019-11-10 11:46:31 GMT 42.095558 1.046512 36,000 16 416 -64
2019-11-10 11:46:25 GMT 42.085224 1.042360 36,000 16 416 0
2019-11-10 11:46:22 GMT 42.070084 1.036335 36,000 16 416 0
2019-11-10 11:46:17 GMT 42.070084 1.036335 36,000 16 416 0
2019-11-10 11:46:11 GMT 42.056808 1.030967 36,000 16 416 0
2019-11-10 11:46:06 GMT 42.050903 1.028595 36,000 16 416 -64
2019-11-10 11:46:03 GMT 42.043884 1.025816 36,000 16 416 -64
2019-11-10 11:46:00 GMT 42.038719 1.023772 36,000 16 416 -64
2019-11-10 11:45:55 GMT 42.029129 1.019876 36,000 16 416 -64
2019-11-10 11:45:51 GMT 42.019867 1.016173 36,000 16 416 0
2019-11-10 11:45:47 GMT 42.005859 1.010555 36,000 16 416 0
2019-11-10 11:45:42 GMT 42.005859 1.010555 36,000 16 416 0
2019-11-10 11:45:39 GMT 42.000732 1.008495 36,000 16 416 0
2019-11-10 11:45:34 GMT 41.990768 1.004546 36,000 16 415 0
2019-11-10 11:45:30 GMT 41.981552 1.000817 36,000 16 415 0
2019-11-10 11:45:26 GMT 41.976013 0.998606 36,000 16 415 0
2019-11-10 11:45:22 GMT 41.969402 0.995987 36,000 16 415 -64
2019-11-10 11:45:19 GMT 41.963150 0.993451 36,000 16 415 -64
2019-11-10 11:45:15 GMT 41.956512 0.990829 36,000 16 415 -64
2019-11-10 11:45:11 GMT 41.948036 0.987428 36,000 16 415 -64
2019-11-10 11:45:05 GMT 41.938492 0.983596 36,000 16 415 0
2019-11-10 11:45:00 GMT 41.929321 0.979968 36,000 16 414 0
2019-11-10 11:44:56 GMT 41.920105 0.976314 36,000 16 414 -64
2019-11-10 11:44:52 GMT 41.914627 0.974100 36,000 16 414 0
2019-11-10 11:44:49 GMT 41.906525 0.970854 36,000 16 414 -64
2019-11-10 11:44:43 GMT 41.896595 0.966925 36,000 16 414 0
2019-11-10 11:44:38 GMT 41.887798 0.963412 36,000 16 414 0
2019-11-10 11:44:33 GMT 41.869125 0.955935 36,000 16 414 0
2019-11-10 11:44:28 GMT 41.869125 0.955935 36,000 16 414 0
2019-11-10 11:44:25 GMT 41.854431 0.950130 36,000 16 414 -64
2019-11-10 11:44:20 GMT 41.850037 0.948382 36,000 16 413 0
2019-11-10 11:44:14 GMT 41.839382 0.944185 36,000 16 413 0
2019-11-10 11:44:08 GMT 41.831329 0.940992 36,000 16 412 0
2019-11-10 11:44:02 GMT 41.821426 0.937084 36,000 16 412 0
2019-11-10 11:43:59 GMT 41.816666 0.935179 36,000 16 412 -64
2019-11-10 11:43:54 GMT 41.807865 0.931730 36,000 16 412 -64
2019-11-10 11:43:48 GMT 41.796879 0.927387 36,000 16 412 -64
2019-11-10 11:43:44 GMT 41.789200 0.924287 36,000 16 412 0
2019-11-10 11:43:39 GMT 41.779678 0.920542 36,000 16 412 -64
2019-11-10 11:43:36 GMT 41.774162 0.918380 36,000 16 412 -64
2019-11-10 11:43:33 GMT 41.769787 0.916592 36,000 16 412 0
2019-11-10 11:43:29 GMT 41.760681 0.912989 36,000 16 412 0
2019-11-10 11:43:24 GMT 41.751892 0.909493 36,000 16 412 0
2019-11-10 11:43:21 GMT 41.746418 0.907330 36,000 16 412 0
2019-11-10 11:43:18 GMT 41.741299 0.905286 36,000 16 412 0
2019-11-10 11:43:13 GMT 41.732544 0.901773 36,000 16 411 0
2019-11-10 11:43:09 GMT 41.716873 0.895573 36,000 16 411 -64
2019-11-10 11:43:01 GMT 41.710281 0.893014 36,000 16 411 -64
2019-11-10 11:42:57 GMT 41.702957 0.890080 36,000 16 411 -64
2019-11-10 11:42:53 GMT 41.695679 0.887208 36,000 16 411 0
2019-11-10 11:42:48 GMT 41.686203 0.883463 36,000 16 411 0
2019-11-10 11:42:43 GMT 41.677055 0.879864 36,000 16 411 0
2019-11-10 11:42:38 GMT 41.667938 0.876222 36,000 16 411 0
2019-11-10 11:42:34 GMT 41.659550 0.872902 36,000 16 411 -64
2019-11-10 11:42:30 GMT 41.654430 0.870922 36,000 16 411 -64
2019-11-10 11:42:24 GMT 41.643490 0.866579 36,000 16 411 -64
2019-11-10 11:42:20 GMT 41.630363 0.861341 36,000 16 411 0
2019-11-10 11:42:12 GMT 41.621246 0.857745 36,000 16 411 0
2019-11-10 11:42:09 GMT 41.616535 0.855848 36,000 16 411 0
2019-11-10 11:42:02 GMT 41.603027 0.850567 36,000 16 410 0
2019-11-10 11:41:59 GMT 41.598335 0.848694 36,000 16 410 0
2019-11-10 11:41:56 GMT 41.591026 0.845820 36,000 16 410 -64
2019-11-10 11:41:50 GMT 41.579388 0.841284 36,000 16 410 0
2019-11-10 11:41:46 GMT 41.573914 0.839143 36,000 16 410 0
2019-11-10 11:41:40 GMT 41.562973 0.834836 36,000 16 410 0
2019-11-10 11:41:36 GMT 41.556065 0.832150 36,000 16 410 0
2019-11-10 11:41:30 GMT 41.545486 0.827970 36,000 16 410 0
2019-11-10 11:41:26 GMT 41.537476 0.824849 36,000 16 410 0
2019-11-10 11:41:21 GMT 41.529114 0.821547 36,000 16 410 -64
2019-11-10 11:41:16 GMT 41.516682 0.816693 36,000 16 410 0
2019-11-10 11:41:11 GMT 41.509418 0.813819 36,000 16 411 0
2019-11-10 11:41:08 GMT 41.505386 0.812239 36,000 16 411 0
2019-11-10 11:41:05 GMT 41.498840 0.809680 36,000 16 411 0
2019-11-10 11:41:01 GMT 41.491516 0.806808 36,000 16 411 -64
2019-11-10 11:40:56 GMT 41.482040 0.803063 36,000 16 411 -64
2019-11-10 11:40:48 GMT 41.467484 0.797320 36,000 16 411 -64
2019-11-10 11:40:45 GMT 41.462357 0.795323 36,000 16 411 -64
2019-11-10 11:40:38 GMT 41.449600 0.790313 36,000 16 410 0
2019-11-10 11:40:35 GMT 41.443405 0.787832 36,000 16 410 64
2019-11-10 11:40:30 GMT 41.435394 0.784711 36,000 16 411 0
2019-11-10 11:40:26 GMT 41.425919 0.780966 36,000 16 411 -64
2019-11-10 11:40:18 GMT 41.411709 0.775366 36,000 16 411 0
2019-11-10 11:40:15 GMT 41.407330 0.773642 36,000 16 411 0
2019-11-10 11:40:08 GMT 41.394203 0.768468 36,000 16 411 0
2019-11-10 11:40:04 GMT 41.388748 0.766296 36,000 16 411 0
2019-11-10 11:40:00 GMT 41.380329 0.763050 36,000 16 411 0
2019-11-10 11:39:55 GMT 41.370483 0.759216 36,000 16 411 0
2019-11-10 11:39:48 GMT 41.358078 0.754333 36,000 16 411 -64
2019-11-10 11:39:45 GMT 41.352264 0.752075 36,000 16 411 -64
2019-11-10 11:39:40 GMT 41.342392 0.748194 36,000 16 410 0
2019-11-10 11:39:37 GMT 41.338017 0.746509 36,000 16 410 0
2019-11-10 11:39:34 GMT 41.333267 0.744690 36,000 16 410 0
2019-11-10 11:39:29 GMT 41.324142 0.741140 36,000 16 410 0
2019-11-10 11:39:26 GMT 41.318665 0.738953 36,000 16 410 -64
2019-11-10 11:39:23 GMT 41.312504 0.736583 36,000 16 410 -64
2019-11-10 11:39:17 GMT 41.300819 0.732027 36,000 16 410 0
2019-11-10 11:39:14 GMT 41.296444 0.730279 36,000 16 410 0
2019-11-10 11:39:09 GMT 41.287354 0.726746 36,000 16 410 64
2019-11-10 11:39:06 GMT 41.281872 0.724598 36,000 16 410 64
2019-11-10 11:38:58 GMT 41.267303 0.718918 36,000 16 411 64
2019-11-10 11:38:54 GMT 41.259995 0.716046 36,000 16 411 0
2019-11-10 11:38:49 GMT 41.249798 0.712051 36,000 16 411 -64
2019-11-10 11:38:46 GMT 41.245010 0.710144 36,000 16 411 -64
2019-11-10 11:38:38 GMT 41.231140 0.704712 36,000 16 411 -64
2019-11-10 11:38:35 GMT 41.216141 0.698880 36,000 16 411 0
2019-11-10 11:38:26 GMT 41.207748 0.695557 36,000 16 411 -64
2019-11-10 11:38:22 GMT 41.202621 0.693542 36,000 16 411 -64
2019-11-10 11:38:17 GMT 41.193146 0.689819 36,000 16 411 0
2019-11-10 11:38:13 GMT 41.185089 0.686707 36,000 16 411 0
2019-11-10 11:38:07 GMT 41.173779 0.682276 36,000 16 411 0
2019-11-10 11:38:02 GMT 41.165726 0.679155 36,000 16 411 0
2019-11-10 11:37:58 GMT 41.156975 0.675722 36,000 16 412 0
2019-11-10 11:37:55 GMT 41.152176 0.673889 36,000 16 412 0
2019-11-10 11:37:52 GMT 41.147827 0.672180 36,000 16 412 -64
2019-11-10 11:37:45 GMT 41.133511 0.666670 36,000 16 412 -64
2019-11-10 11:37:37 GMT 41.118149 0.660740 36,000 16 412 0
2019-11-10 11:37:33 GMT 41.110794 0.657869 36,000 16 412 0
2019-11-10 11:37:26 GMT 41.099064 0.653374 36,000 16 412 0
2019-11-10 11:37:21 GMT 41.090263 0.649941 36,000 16 413 0
2019-11-10 11:37:14 GMT 41.076691 0.644653 36,000 16 413 -64
2019-11-10 11:37:11 GMT 41.071922 0.642825 36,000 16 413 0
2019-11-10 11:37:05 GMT 41.061310 0.638672 36,000 16 413 0
2019-11-10 11:37:02 GMT 41.055069 0.636208 36,000 16 413 0
2019-11-10 11:36:56 GMT 41.043686 0.631775 36,000 16 413 0
2019-11-10 11:36:51 GMT 41.034897 0.628357 36,000 16 413 -64
2019-11-10 11:36:46 GMT 41.024998 0.624535 36,000 16 413 -64
2019-11-10 11:36:41 GMT 41.016151 0.621102 36,000 16 414 -64
2019-11-10 11:36:35 GMT 41.005913 0.617045 36,000 16 414 0
2019-11-10 11:36:32 GMT 40.998184 0.614014 36,000 16 414 0
2019-11-10 11:36:26 GMT 40.983147 0.608118 36,000 16 414 0
2019-11-10 11:36:23 GMT 40.978027 0.606121 36,000 16 414 0
2019-11-10 11:36:15 GMT 40.968842 0.602539 36,000 16 413 0
2019-11-10 11:36:11 GMT 40.961517 0.599670 36,000 16 413 0
2019-11-10 11:36:04 GMT 40.949753 0.595093 36,000 16 413 -64
2019-11-10 11:36:01 GMT 40.942787 0.592388 36,000 16 413 -64
2019-11-10 11:35:54 GMT 40.930309 0.587581 36,000 16 413 -64
2019-11-10 11:35:50 GMT 40.923698 0.585022 36,000 16 413 -64
2019-11-10 11:35:45 GMT 40.912712 0.580777 36,000 16 412 0
2019-11-10 11:35:41 GMT 40.905403 0.577906 36,000 16 412 0
2019-11-10 11:35:34 GMT 40.893311 0.573181 36,000 16 412 64
2019-11-10 11:35:30 GMT 40.886719 0.570618 36,000 16 412 64
2019-11-10 11:35:23 GMT 40.873192 0.565359 36,000 16 412 0
2019-11-10 11:35:20 GMT 40.867676 0.563232 36,000 16 412 -64
2019-11-10 11:35:13 GMT 40.856339 0.558929 36,000 16 412 -64
2019-11-10 11:35:10 GMT 40.849365 0.556274 36,000 16 412 0
2019-11-10 11:35:04 GMT 40.838741 0.552250 36,000 16 412 64
2019-11-10 11:35:00 GMT 40.831055 0.549316 36,000 15 412 0
2019-11-10 11:34:54 GMT 40.818558 0.544617 36,000 16 413 -64
2019-11-10 11:34:49 GMT 40.812347 0.542263 36,000 16 413 -64
2019-11-10 11:34:43 GMT 40.800568 0.537768 36,000 16 413 -64
2019-11-10 11:34:39 GMT 40.793213 0.534959 36,000 16 413 -64
2019-11-10 11:34:32 GMT 40.780739 0.530215 36,000 16 413 -64
2019-11-10 11:34:27 GMT 40.771194 0.526532 36,000 16 413 -64
2019-11-10 11:34:23 GMT 40.762756 0.523254 36,000 16 414 0
2019-11-10 11:34:19 GMT 40.755737 0.520602 36,000 16 414 0
2019-11-10 11:34:12 GMT 40.744354 0.516174 36,000 16 414 0
2019-11-10 11:34:09 GMT 40.736984 0.513367 36,000 16 414 -64
2019-11-10 11:34:01 GMT 40.723755 0.508301 36,000 16 414 0
2019-11-10 11:33:57 GMT 40.715984 0.505309 36,000 16 415 0
2019-11-10 11:33:53 GMT 40.707138 0.501938 36,000 16 415 -64
2019-11-10 11:33:49 GMT 40.699783 0.499129 36,000 16 415 0
2019-11-10 11:33:42 GMT 40.689056 0.494995 36,000 16 415 0
2019-11-10 11:33:38 GMT 40.682095 0.492325 36,000 16 414 -64
2019-11-10 11:33:33 GMT 40.670269 0.487768 36,000 16 413 -64
2019-11-10 11:33:28 GMT 40.662170 0.484709 36,000 16 414 0
2019-11-10 11:33:20 GMT 40.648590 0.479492 36,000 16 413 -64
2019-11-10 11:33:16 GMT 40.641220 0.476624 36,000 16 413 0
2019-11-10 11:33:11 GMT 40.631306 0.472849 36,000 16 413 -64
2019-11-10 11:33:08 GMT 40.625061 0.470459 36,000 16 412 -128
2019-11-10 11:33:01 GMT 40.612267 0.465483 36,025 16 411 -64
2019-11-10 11:32:57 GMT 40.604912 0.462674 36,000 16 412 -128
2019-11-10 11:32:48 GMT 40.587021 0.455750 36,025 16 411 -64
2019-11-10 11:32:40 GMT 40.573883 0.450684 36,025 16 409 0
2019-11-10 11:32:37 GMT 40.568413 0.448567 36,025 16 409 0
2019-11-10 11:32:26 GMT 40.548069 0.440764 36,000 16 409 0
2019-11-10 11:32:16 GMT 40.529915 0.433835 36,000 16 408 64
2019-11-10 11:32:07 GMT 40.512550 0.427218 36,000 16 407 -64
2019-11-10 11:31:56 GMT 40.494488 0.420352 36,000 16 406 -64
2019-11-10 11:31:46 GMT 40.475727 0.413236 36,000 16 406 0
2019-11-10 11:31:40 GMT 40.465302 0.409302 36,000 16 406 0
2019-11-10 11:31:36 GMT 40.458069 0.406555 36,000 16 406 0
2019-11-10 11:31:25 GMT 40.439346 0.399414 36,000 16 406 -64
2019-11-10 11:31:16 GMT 40.420578 0.392334 36,000 16 406 -64
2019-11-10 11:31:10 GMT 40.409775 0.388245 36,000 16 406 -64
2019-11-10 11:31:05 GMT 40.401855 0.385193 36,000 16 406 -64
2019-11-10 11:30:59 GMT 40.391785 0.381409 36,025 16 404 -64
2019-11-10 11:30:55 GMT 40.384552 0.378723 36,025 16 404 0
2019-11-10 11:30:48 GMT 40.371643 0.373840 36,000 16 403 64
2019-11-10 11:30:45 GMT 40.366238 0.371787 36,000 16 403 64
2019-11-10 11:30:35 GMT 40.348312 0.365046 36,000 16 403 0
2019-11-10 11:30:29 GMT 40.337513 0.360988 36,000 16 403 64
2019-11-10 11:30:24 GMT 40.329647 0.358054 36,000 16 403 64
2019-11-10 11:30:18 GMT 40.318150 0.353747 36,000 16 403 0
2019-11-10 11:30:14 GMT 40.310623 0.350891 36,000 16 404 0
2019-11-10 11:30:06 GMT 40.294407 0.344758 36,000 16 406 -128
2019-11-10 11:29:58 GMT 40.282162 0.340077 36,000 16 406 -128
2019-11-10 11:29:54 GMT 40.274597 0.337219 36,000 16 406 -128
2019-11-10 11:29:47 GMT 40.262329 0.332581 36,000 16 406 -128
2019-11-10 11:29:44 GMT 40.256607 0.330383 36,025 16 405 -64
2019-11-10 11:29:34 GMT 40.238266 0.323410 36,000 16 404 64
2019-11-10 11:29:24 GMT 40.219986 0.316406 36,000 16 403 0
2019-11-10 11:29:13 GMT 40.201721 0.309427 36,000 16 404 0
2019-11-10 11:29:06 GMT 40.189865 0.304871 36,000 16 404 0
2019-11-10 11:29:03 GMT 40.183750 0.302561 36,000 16 404 -64
2019-11-10 11:28:49 GMT 40.149628 0.289612 36,000 16 406 64
2019-11-10 11:28:41 GMT 40.143127 0.287170 36,000 16 405 128
2019-11-10 11:28:36 GMT 40.134476 0.283936 35,975 15 406 0
2019-11-10 11:28:32 GMT 40.127609 0.281372 35,975 16 407 -128
2019-11-10 11:28:23 GMT 40.110245 0.274845 36,000 16 407 -128
2019-11-10 11:28:15 GMT 40.096527 0.269592 36,025 16 406 -64
2019-11-10 11:28:12 GMT 40.091125 0.267578 36,025 16 405 -64
2019-11-10 11:28:05 GMT 40.079956 0.263306 36,025 16 405 0
2019-11-10 11:27:59 GMT 40.069187 0.259240 36,000 16 404 64
2019-11-10 11:27:56 GMT 40.062012 0.256531 36,000 16 404 128
2019-11-10 11:27:52 GMT 40.054478 0.253684 36,000 16 404 128
2019-11-10 11:27:41 GMT 40.036560 0.246948 36,000 16 402 64
2019-11-10 11:27:35 GMT 40.017929 0.239990 36,000 15 403 -128
2019-11-10 11:27:31 GMT 40.017929 0.239990 36,000 15 403 -128
2019-11-10 11:27:26 GMT 40.006435 0.235707 36,000 16 402 -192
2019-11-10 11:27:20 GMT 39.998894 0.232898 36,025 16 402 -128
2019-11-10 11:27:14 GMT 39.987488 0.228577 36,025 16 402 -64
2019-11-10 11:27:11 GMT 39.982086 0.226593 36,025 16 401 -64
2019-11-10 11:27:00 GMT 39.962494 0.219299 36,000 15 400 64
2019-11-10 11:26:56 GMT 39.954666 0.216356 36,000 15 399 64
2019-11-10 11:26:52 GMT 39.947525 0.213745 36,000 15 399 64
2019-11-10 11:26:44 GMT 39.933334 0.208435 36,000 15 399 0
2019-11-10 11:26:40 GMT 39.926552 0.205931 36,000 15 399 64
2019-11-10 11:26:35 GMT 39.918045 0.202769 36,000 16 400 0
2019-11-10 11:26:31 GMT 39.909119 0.199426 36,000 16 400 0
2019-11-10 11:26:24 GMT 39.898060 0.195312 36,000 16 402 -64
2019-11-10 11:26:17 GMT 39.876598 0.187256 36,000 16 402 0
2019-11-10 11:26:09 GMT 39.871262 0.185215 36,000 16 402 0
2019-11-10 11:26:02 GMT 39.859451 0.180797 36,000 16 401 64
2019-11-10 11:25:58 GMT 39.851601 0.177856 36,000 16 400 64
2019-11-10 11:25:54 GMT 39.844162 0.175065 36,000 15 400 64
2019-11-10 11:25:47 GMT 39.829926 0.169810 36,000 16 399 -64
2019-11-10 11:25:42 GMT 39.823902 0.167542 36,000 16 399 -192
2019-11-10 11:25:38 GMT 39.816082 0.164612 36,000 16 399 -192
2019-11-10 11:25:34 GMT 39.807564 0.161377 36,000 16 398 -128
2019-11-10 11:25:28 GMT 39.799438 0.158346 36,025 15 399 0
2019-11-10 11:25:23 GMT 39.789825 0.154764 36,025 15 399 0
2019-11-10 11:25:20 GMT 39.784149 0.152649 36,000 16 398 64
2019-11-10 11:25:11 GMT 39.768555 0.146851 36,000 15 398 -64
2019-11-10 11:25:02 GMT 39.741646 0.136902 36,000 15 397 -64
2019-11-10 11:24:52 GMT 39.734570 0.134277 36,000 15 398 0
2019-11-10 11:24:45 GMT 39.715805 0.127358 36,000 15 398 0
2019-11-10 11:24:41 GMT 39.715805 0.127358 36,000 15 398 0
2019-11-10 11:24:37 GMT 39.706963 0.124084 36,000 15 398 0
2019-11-10 11:24:31 GMT 39.688843 0.117387 35,975 15 400 0
2019-11-10 11:24:24 GMT 39.685318 0.116073 35,975 15 399 64
2019-11-10 11:24:20 GMT 39.676758 0.112908 35,975 16 401 -64
2019-11-10 11:24:13 GMT 39.665314 0.108609 36,000 16 402 0
2019-11-10 11:24:03 GMT 39.647415 0.101982 36,000 16 403 -64
2019-11-10 11:23:55 GMT 39.634155 0.097046 36,000 16 403 -128
2019-11-10 11:23:52 GMT 39.629128 0.095154 36,000 16 403 0
2019-11-10 11:23:46 GMT 39.616516 0.090458 36,000 16 404 64
2019-11-10 11:23:42 GMT 39.611160 0.088440 36,000 16 404 64
2019-11-10 11:23:36 GMT 39.598217 0.083557 36,000 16 407 -128
2019-11-10 11:23:32 GMT 39.592804 0.081562 36,000 16 406 -128
2019-11-10 11:23:26 GMT 39.579071 0.076427 36,025 16 407 256
2019-11-10 11:23:21 GMT 39.571106 0.073441 36,000 16 407 640
2019-11-10 11:23:15 GMT 39.555576 0.067627 35,800 16 407 1344
2019-11-10 11:23:12 GMT 39.555576 0.067627 35,850 16 407 1280
2019-11-10 11:23:05 GMT 39.541054 0.062256 34,650 15 411 1152
2019-11-10 11:23:01 GMT 39.535583 0.060246 35,475 16 409 1408
2019-11-10 11:22:55 GMT 39.524643 0.056186 35,475 16 409 1408
2019-11-10 11:22:50 GMT 39.515900 0.052961 35,400 15 410 1344
2019-11-10 11:22:42 GMT 39.499435 0.046875 35,175 15 411 1216
2019-11-10 11:22:33 GMT 39.483673 0.041020 35,000 15 411 1088
2019-11-10 11:22:30 GMT 39.480011 0.039706 35,000 15 411 1088
2019-11-10 11:22:23 GMT 39.466827 0.034810 34,875 15 411 1024
2019-11-10 11:22:20 GMT 39.460609 0.032532 34,800 15 411 1088
2019-11-10 11:22:15 GMT 39.450714 0.028899 34,675 15 410 640
2019-11-10 11:22:10 GMT 39.443012 0.026062 34,700 15 410 640
2019-11-10 11:21:59 GMT 39.413452 0.015106 34,525 15 410 448
2019-11-10 11:21:53 GMT 39.409790 0.013733 34,425 16 409 320
2019-11-10 11:21:50 GMT 39.406128 0.012419 34,425 15 406 384
2019-11-10 11:21:40 GMT 39.387909 0.005732 34,425 15 408 320
2019-11-10 11:21:35 GMT 39.377014 0.001732 34,400 16 405 448
2019-11-10 11:21:29 GMT 39.358566 -0.005005 34,325 14 404 576
2019-11-10 11:21:20 GMT 39.351353 -0.007385 34,275 12 402 640
2019-11-10 11:21:09 GMT 39.332451 -0.012329 34,150 10 400 832
2019-11-10 11:20:59 GMT 39.313889 -0.016838 33,950 10 397 1088
2019-11-10 11:20:53 GMT 39.301575 -0.019823 33,925 10 396 1152
2019-11-10 11:20:49 GMT 39.293655 -0.021734 33,750 10 396 1088
2019-11-10 11:20:37 GMT 39.273468 -0.026570 33,675 10 394 1024
2019-11-10 11:20:28 GMT 39.256897 -0.030630 33,500 10 395 896
2019-11-10 11:20:19 GMT 39.222382 -0.039049 33,350 10 395 768
2019-11-10 11:20:08 GMT 39.222382 -0.039049 33,225 10 394 832
2019-11-10 11:19:57 GMT 39.193726 -0.046095 32,825 10 391 0
2019-11-10 11:19:48 GMT 39.185852 -0.047946 32,825 10 391 0
2019-11-10 11:19:38 GMT 39.167610 -0.052368 32,475 10 391 0
2019-11-10 11:19:27 GMT 39.137630 -0.059509 32,475 10 391 704
2019-11-10 11:19:17 GMT 39.130508 -0.061218 32,425 10 390 704
2019-11-10 11:19:07 GMT 39.113113 -0.065440 32,300 10 388 576
2019-11-10 11:18:57 GMT 39.086002 -0.071960 32,175 10 384 768
2019-11-10 11:18:47 GMT 39.077271 -0.074098 32,100 10 391 0
2019-11-10 11:18:37 GMT 39.059830 -0.078337 32,000 10 382 832
2019-11-10 11:18:26 GMT 39.024788 -0.086792 31,675 10 391 0
2019-11-10 11:18:17 GMT 39.024788 -0.086792 31,625 10 381 1152
2019-11-10 11:18:07 GMT 38.989700 -0.095235 31,250 10 391 0
2019-11-10 11:17:56 GMT 38.989700 -0.095235 31,200 10 382 1472
2019-11-10 11:17:46 GMT 38.971619 -0.099534 30,950 10 382 1472
2019-11-10 11:17:35 GMT 38.952805 -0.104012 30,650 10 382 1728
2019-11-10 11:17:26 GMT 38.936096 -0.108012 30,350 10 383 1984
2019-11-10 11:17:15 GMT 38.917530 -0.112366 30,025 10 385 1984
2019-11-10 11:17:06 GMT 38.899982 -0.116577 29,675 10 388 1984
2019-11-10 11:16:55 GMT 38.881897 -0.120850 29,350 10 390 1920
2019-11-10 11:16:44 GMT 38.862625 -0.125507 28,975 10 393 1792
2019-11-10 11:16:34 GMT 38.844681 -0.129806 28,725 10 395 1472
2019-11-10 11:16:24 GMT 38.827423 -0.133926 28,400 10 395 1408
2019-11-10 11:16:14 GMT 38.807968 -0.138583 28,250 10 395 1408
2019-11-10 11:16:03 GMT 38.789978 -0.142882 27,975 10 395 1664
2019-11-10 11:15:54 GMT 38.772381 -0.147095 27,750 10 393 1280
2019-11-10 11:15:43 GMT 38.752411 -0.151917 27,450 10 391 1600
2019-11-10 11:15:34 GMT 38.736374 -0.155779 27,200 10 390 1856
2019-11-10 11:15:23 GMT 38.716797 -0.160400 25,750 10 388 2304
2019-11-10 11:15:12 GMT 38.697281 -0.165034 26,475 10 389 2048
2019-11-10 11:15:03 GMT 38.681671 -0.168795 26,175 10 389 2176
2019-11-10 11:14:53 GMT 38.663589 -0.173096 25,825 10 388 1856
2019-11-10 11:14:42 GMT 38.645554 -0.177453 24,975 10 389 1600
2019-11-10 11:14:32 GMT 38.627510 -0.181763 25,025 10 389 1920
2019-11-10 11:14:22 GMT 38.609123 -0.186096 24,725 10 386 1856
2019-11-10 11:14:08 GMT 38.576954 -0.193787 24,200 10 380 1408
2019-11-10 11:14:02 GMT 38.574162 -0.194458 24,175 10 380 1408
2019-11-10 11:13:51 GMT 38.555923 -0.198888 23,875 10 377 1664
2019-11-10 11:13:41 GMT 38.538803 -0.203068 23,600 11 374 1792
2019-11-10 11:13:31 GMT 38.521088 -0.207486 23,300 11 375 1664
2019-11-10 11:13:25 GMT 38.511566 -0.209934 23,125 11 374 1856
2019-11-10 11:13:20 GMT 38.503029 -0.212036 22,950 11 374 1920
2019-11-10 11:13:11 GMT 38.486691 -0.216125 22,650 10 374 1792
2019-11-10 11:13:00 GMT 38.468674 -0.220443 22,300 10 374 1920
2019-11-10 11:12:50 GMT 38.451962 -0.224243 22,000 9 373 1984
2019-11-10 11:12:40 GMT 38.434227 -0.227783 21,650 7 371 1856
2019-11-10 11:12:30 GMT 38.416901 -0.231489 21,300 14 374 2048
2019-11-10 11:12:25 GMT 38.408577 -0.234654 21,125 22 378 1792
2019-11-10 11:12:19 GMT 38.399231 -0.239654 20,950 26 380 1792
2019-11-10 11:12:08 GMT 38.383713 -0.252335 20,575 39 387 2368
2019-11-10 11:12:04 GMT 38.377899 -0.259172 20,400 45 393 1920
2019-11-10 11:11:58 GMT 38.371288 -0.269762 20,275 56 398 576
2019-11-10 11:11:54 GMT 38.367050 -0.279158 20,250 64 401 704
2019-11-10 11:11:48 GMT 38.362629 -0.291615 20,125 67 400 1216
2019-11-10 11:11:39 GMT 38.356155 -0.312117 19,925 68 397 1280
2019-11-10 11:11:34 GMT 38.352993 -0.322067 19,825 68 395 1408
2019-11-10 11:11:28 GMT 38.349014 -0.334499 19,675 68 393 1472
2019-11-10 11:11:23 GMT 38.345360 -0.346069 19,525 68 391 1536
2019-11-10 11:11:18 GMT 38.342098 -0.356279 19,400 67 389 1792
2019-11-10 11:11:13 GMT 38.338886 -0.366490 19,250 68 388 1856
2019-11-10 11:11:07 GMT 38.335117 -0.378252 19,075 68 385 1792
2019-11-10 11:10:57 GMT 38.328461 -0.399269 18,750 68 383 1856
2019-11-10 11:10:53 GMT 38.325062 -0.410136 18,575 68 381 1856
2019-11-10 11:10:48 GMT 38.321384 -0.421720 18,400 68 379 1920
2019-11-10 11:10:43 GMT 38.318665 -0.430454 18,275 68 378 1984
2019-11-10 11:10:37 GMT 38.315144 -0.441543 18,075 68 376 2176
2019-11-10 11:10:30 GMT 38.310654 -0.455874 17,350 67 373 1920
2019-11-10 11:10:27 GMT 38.308720 -0.462023 17,350 67 373 1920
2019-11-10 11:10:17 GMT 38.301971 -0.483100 17,350 67 370 1984
2019-11-10 11:10:06 GMT 38.295456 -0.503560 16,700 67 361 2688
2019-11-10 11:10:02 GMT 38.292290 -0.513551 16,825 67 363 2432
2019-11-10 11:09:57 GMT 38.288982 -0.523821 16,600 67 362 2560
2019-11-10 11:09:46 GMT 38.282547 -0.543940 16,150 67 361 2624
2019-11-10 11:09:36 GMT 38.276001 -0.564393 15,675 67 360 2688
2019-11-10 11:09:31 GMT 38.273254 -0.573042 15,475 68 361 2560
2019-11-10 11:09:28 GMT 38.270874 -0.580484 15,325 68 359 2240
2019-11-10 11:09:25 GMT 38.269615 -0.584425 15,250 68 359 2240
2019-11-10 11:09:21 GMT 38.267029 -0.592619 15,075 68 358 3264
2019-11-10 11:09:15 GMT 38.263428 -0.604009 14,775 68 359 3264
2019-11-10 11:09:09 GMT 38.259048 -0.618160 14,350 68 360 2496
2019-11-10 11:09:05 GMT 38.257328 -0.623653 14,350 68 360 2496
2019-11-10 11:09:02 GMT 38.254807 -0.631889 14,075 68 358 2496
2019-11-10 11:08:56 GMT 38.251324 -0.643297 13,825 68 358 2752
2019-11-10 11:08:50 GMT 38.247849 -0.654680 13,550 68 356 3008
2019-11-10 11:08:47 GMT 38.244781 -0.664848 13,275 68 355 2816
2019-11-10 11:08:41 GMT 38.242523 -0.672256 13,100 68 353 2432
2019-11-10 11:08:35 GMT 38.239105 -0.683490 12,875 68 351 2624
2019-11-10 11:08:27 GMT 38.234329 -0.699244 12,475 68 348 2560
2019-11-10 11:08:17 GMT 38.228806 -0.717033 12,000 67 343 2688
2019-11-10 11:08:14 GMT 38.227112 -0.722234 11,950 67 341 2816
2019-11-10 11:08:08 GMT 38.221016 -0.741159 11,525 69 341 3520
2019-11-10 11:08:05 GMT 38.221016 -0.741159 11,375 71 342 3200
2019-11-10 11:08:01 GMT 38.219330 -0.748531 11,175 77 344 2560
2019-11-10 11:07:56 GMT 38.218269 -0.756922 11,025 84 346 1856
2019-11-10 11:07:50 GMT 38.219948 -0.779492 10,800 106 343 896
2019-11-10 11:07:44 GMT 38.220566 -0.782191 10,775 108 342 960
2019-11-10 11:07:40 GMT 38.222809 -0.789730 10,700 114 340 1088
2019-11-10 11:07:34 GMT 38.227207 -0.799852 10,600 124 338 1024
2019-11-10 11:07:30 GMT 38.230980 -0.806182 10,550 131 335 896
2019-11-10 11:07:20 GMT 38.249367 -0.823975 10,300 155 325 1024
2019-11-10 11:07:14 GMT 38.251328 -0.825085 10,300 153 326 1024
2019-11-10 11:07:05 GMT 38.263321 -0.829409 10,125 170 318 1024
2019-11-10 11:06:53 GMT 38.280834 -0.828572 9,950 193 305 640
2019-11-10 11:06:45 GMT 38.290565 -0.823795 9,800 210 287 2048
2019-11-10 11:06:42 GMT 38.293579 -0.821579 9,700 213 285 2560
2019-11-10 11:06:35 GMT 38.301693 -0.813764 9,325 225 279 3072
2019-11-10 11:06:32 GMT 38.303459 -0.811436 9,225 229 277 3136
2019-11-10 11:06:25 GMT 38.308823 -0.801651 8,775 245 268 3072
2019-11-10 11:06:22 GMT 38.310287 -0.797678 8,675 249 266 2880
2019-11-10 11:06:15 GMT 38.312485 -0.785172 8,350 268 250 2176
2019-11-10 11:06:12 GMT 38.312531 -0.782250 8,275 270 248 2368
2019-11-10 11:06:04 GMT 38.311607 -0.771192 7,900 280 240 3008
2019-11-10 11:06:01 GMT 38.311157 -0.767582 7,775 280 239 3008
2019-11-10 11:05:54 GMT 38.309700 -0.756743 7,375 280 238 3328
2019-11-10 11:05:51 GMT 38.309235 -0.753206 7,225 280 238 3264
2019-11-10 11:05:41 GMT 38.307358 -0.739473 6,675 280 236 3136
2019-11-10 11:05:31 GMT 38.305416 -0.725575 6,175 281 232 2752
2019-11-10 11:05:23 GMT 38.303925 -0.715748 5,825 281 229 2880
2019-11-10 11:05:20 GMT 38.303322 -0.711783 5,700 281 228 2944
2019-11-10 11:05:14 GMT 38.301830 -0.701871 5,300 281 225 3008
2019-11-10 11:05:10 GMT 38.301361 -0.698450 5,175 281 225 2560
2019-11-10 11:05:03 GMT 38.299988 -0.688632 4,900 280 220 2048
2019-11-10 11:05:00 GMT 38.299549 -0.685272 4,800 280 218 2368
2019-11-10 11:04:53 GMT 38.298340 -0.676010 4,500 281 212 2624
2019-11-10 11:04:50 GMT 38.297874 -0.672853 4,400 281 211 2688
2019-11-10 11:04:43 GMT 38.296280 -0.660991 3,875 280 206 3520
2019-11-10 11:04:33 GMT 38.295090 -0.651875 3,425 280 206 3328
2019-11-10 11:04:30 GMT 38.294678 -0.649011 3,300 281 206 3328
2019-11-10 11:04:23 GMT 38.293396 -0.639428 2,875 280 205 2368
2019-11-10 11:04:20 GMT 38.293030 -0.636623 2,800 279 203 2688
2019-11-10 11:04:14 GMT 38.292103 -0.628848 2,500 279 199 2112
2019-11-10 11:04:10 GMT 38.291592 -0.624668 2,350 279 196 1856
2019-11-10 11:04:03 GMT 38.290054 -0.613364 2,150 281 186 1344
2019-11-10 11:04:00 GMT 38.290054 -0.613364 2,075 281 183 1280
2019-11-10 11:03:53 GMT 38.288937 -0.605203 1,825 281 177 1920
2019-11-10 11:03:50 GMT 38.288589 -0.602962 1,750 281 176 1792
2019-11-10 11:03:42 GMT 38.287354 -0.594956 1,500 282 168 2304

Making use of Plane Finder data

You are free to use the raw flight data, aircraft information and images provided in this report for your own purposes provided the data is correctly attributed to Plane Finder. We ask that you please credit Plane Finder and link to planefinder.net in close proximity to the content.

Optionally one of the following logos (no smaller then 150x24px) can be used and must link to planefinder.net

Embedding the Plane Finder map

You are welcome to embed the Plane Finder playback map on your website to offer visitors a more interactive experience. We suggest using the following HTML code:

<iframe src="//planefinder.net/data/report/LS1216-G-GDFU-7700-squawk-2019-11-10/map" width="800" height="600" seamless="seamless"></iframe>

Where our data comes from

Plane Finder has a global network of data feeds and antenna radars that receive data broadcast directly from aircraft. The primary technologies used are ADS-B and MLAT. We also show feeds from the FAA and a FLARM glider feed.

Click here to find out more about the Plane Finder network.

How we collect our data